<?xml version="1.0" encoding="utf-8"?>
<gpx xmlns:xsi="http://www.w3.org/2001/XMLSchema-instance" xmlns:xsd="http://www.w3.org/2001/XMLSchema" version="1.1" creator="Shapelink.com" xmlns="http://www.topografix.com/GPX/1/1" xmlns:gpxtpx="http://www.garmin.com/xmlschemas/TrackPointExtension/v1">
  <metadata>
    <name>Cykling 51.69 km, 2012-03-18</name>
    <desc></desc>
    <author><name>Alexander Engvall</name></author> 
    <time>2012-03-18T11:54:56Z</time>
  </metadata>
  <trk>
    <name>Cykling 51.69 km, 2012-03-18</name>
    <trkseg>
      <trkpt lat="59.4569593" lon="17.806243">
        <ele>0</ele>
        <time>2012-03-18T11:54:56Z</time>
      </trkpt>
      <trkpt lat="59.457335" lon="17.80642">
        <ele>0</ele>
        <time>2012-03-18T11:55:05Z</time>
      </trkpt>
      <trkpt lat="59.4577899" lon="17.8065646">
        <ele>0</ele>
        <time>2012-03-18T11:55:11Z</time>
      </trkpt>
      <trkpt lat="59.4582247" lon="17.8066486">
        <ele>0</ele>
        <time>2012-03-18T11:55:18Z</time>
      </trkpt>
      <trkpt lat="59.458765" lon="17.8067147">
        <ele>0</ele>
        <time>2012-03-18T11:55:25Z</time>
      </trkpt>
      <trkpt lat="59.4593596" lon="17.8066572">
        <ele>7</ele>
        <time>2012-03-18T11:55:32Z</time>
      </trkpt>
      <trkpt lat="59.4598274" lon="17.8066117">
        <ele>33.6</ele>
        <time>2012-03-18T11:55:38Z</time>
      </trkpt>
      <trkpt lat="59.4602271" lon="17.8066444">
        <ele>41</ele>
        <time>2012-03-18T11:55:44Z</time>
      </trkpt>
      <trkpt lat="59.4606724" lon="17.8066728">
        <ele>42.4</ele>
        <time>2012-03-18T11:55:50Z</time>
      </trkpt>
      <trkpt lat="59.4610349" lon="17.8066709">
        <ele>38.8</ele>
        <time>2012-03-18T11:55:55Z</time>
      </trkpt>
      <trkpt lat="59.4613736" lon="17.8066438">
        <ele>32.2</ele>
        <time>2012-03-18T11:56:00Z</time>
      </trkpt>
      <trkpt lat="59.4617658" lon="17.8066163">
        <ele>30</ele>
        <time>2012-03-18T11:56:06Z</time>
      </trkpt>
      <trkpt lat="59.4621428" lon="17.8066132">
        <ele>29.6</ele>
        <time>2012-03-18T11:56:11Z</time>
      </trkpt>
      <trkpt lat="59.4624646" lon="17.8064603">
        <ele>36</ele>
        <time>2012-03-18T11:56:16Z</time>
      </trkpt>
      <trkpt lat="59.462835" lon="17.8062979">
        <ele>40.6</ele>
        <time>2012-03-18T11:56:22Z</time>
      </trkpt>
      <trkpt lat="59.463198" lon="17.8062784">
        <ele>39.4</ele>
        <time>2012-03-18T11:56:27Z</time>
      </trkpt>
      <trkpt lat="59.4635993" lon="17.8064401">
        <ele>38</ele>
        <time>2012-03-18T11:56:32Z</time>
      </trkpt>
      <trkpt lat="59.4638192" lon="17.8066514">
        <ele>37</ele>
        <time>2012-03-18T11:56:35Z</time>
      </trkpt>
      <trkpt lat="59.4639217" lon="17.806825">
        <ele>38.4</ele>
        <time>2012-03-18T11:56:37Z</time>
      </trkpt>
      <trkpt lat="59.4641485" lon="17.8074572">
        <ele>36.2</ele>
        <time>2012-03-18T11:56:42Z</time>
      </trkpt>
      <trkpt lat="59.4641813" lon="17.8076092">
        <ele>35.8</ele>
        <time>2012-03-18T11:56:43Z</time>
      </trkpt>
      <trkpt lat="59.4642299" lon="17.8079128">
        <ele>35.4</ele>
        <time>2012-03-18T11:56:45Z</time>
      </trkpt>
      <trkpt lat="59.4642383" lon="17.8082068">
        <ele>35.2</ele>
        <time>2012-03-18T11:56:47Z</time>
      </trkpt>
      <trkpt lat="59.4642125" lon="17.8089545">
        <ele>34.8</ele>
        <time>2012-03-18T11:56:52Z</time>
      </trkpt>
      <trkpt lat="59.4642041" lon="17.8093949">
        <ele>35.2</ele>
        <time>2012-03-18T11:56:55Z</time>
      </trkpt>
      <trkpt lat="59.4642341" lon="17.8096993">
        <ele>34.8</ele>
        <time>2012-03-18T11:56:57Z</time>
      </trkpt>
      <trkpt lat="59.4643173" lon="17.81012">
        <ele>34.4</ele>
        <time>2012-03-18T11:57:00Z</time>
      </trkpt>
      <trkpt lat="59.4643833" lon="17.8103843">
        <ele>34.2</ele>
        <time>2012-03-18T11:57:02Z</time>
      </trkpt>
      <trkpt lat="59.4645501" lon="17.8110343">
        <ele>34.8</ele>
        <time>2012-03-18T11:57:07Z</time>
      </trkpt>
      <trkpt lat="59.4647193" lon="17.8116788">
        <ele>36</ele>
        <time>2012-03-18T11:57:12Z</time>
      </trkpt>
      <trkpt lat="59.4649303" lon="17.8124168">
        <ele>37.2</ele>
        <time>2012-03-18T11:57:18Z</time>
      </trkpt>
      <trkpt lat="59.4651892" lon="17.8129302">
        <ele>38.6</ele>
        <time>2012-03-18T11:57:25Z</time>
      </trkpt>
      <trkpt lat="59.465337" lon="17.8130418">
        <ele>39.2</ele>
        <time>2012-03-18T11:57:30Z</time>
      </trkpt>
      <trkpt lat="59.4654751" lon="17.812787">
        <ele>39.6</ele>
        <time>2012-03-18T11:57:34Z</time>
      </trkpt>
      <trkpt lat="59.4656872" lon="17.812115">
        <ele>42.4</ele>
        <time>2012-03-18T11:57:41Z</time>
      </trkpt>
      <trkpt lat="59.4658812" lon="17.8114354">
        <ele>42.4</ele>
        <time>2012-03-18T11:57:47Z</time>
      </trkpt>
      <trkpt lat="59.4660956" lon="17.8108127">
        <ele>42.8</ele>
        <time>2012-03-18T11:57:52Z</time>
      </trkpt>
      <trkpt lat="59.4663491" lon="17.8102196">
        <ele>44.2</ele>
        <time>2012-03-18T11:57:57Z</time>
      </trkpt>
      <trkpt lat="59.4665459" lon="17.8098596">
        <ele>42.2</ele>
        <time>2012-03-18T11:58:00Z</time>
      </trkpt>
      <trkpt lat="59.4667091" lon="17.809668">
        <ele>38.4</ele>
        <time>2012-03-18T11:58:02Z</time>
      </trkpt>
      <trkpt lat="59.4669854" lon="17.8094189">
        <ele>35</ele>
        <time>2012-03-18T11:58:05Z</time>
      </trkpt>
      <trkpt lat="59.467153" lon="17.8093084">
        <ele>34.8</ele>
        <time>2012-03-18T11:58:07Z</time>
      </trkpt>
      <trkpt lat="59.4675452" lon="17.809211">
        <ele>33.8</ele>
        <time>2012-03-18T11:58:11Z</time>
      </trkpt>
      <trkpt lat="59.4679079" lon="17.8092955">
        <ele>33.6</ele>
        <time>2012-03-18T11:58:15Z</time>
      </trkpt>
      <trkpt lat="59.4682973" lon="17.8094602">
        <ele>37.6</ele>
        <time>2012-03-18T11:58:20Z</time>
      </trkpt>
      <trkpt lat="59.4683599" lon="17.8095188">
        <ele>38.6</ele>
        <time>2012-03-18T11:58:21Z</time>
      </trkpt>
      <trkpt lat="59.468595" lon="17.8098171">
        <ele>38</ele>
        <time>2012-03-18T11:58:25Z</time>
      </trkpt>
      <trkpt lat="59.4686393" lon="17.8098549">
        <ele>38.4</ele>
        <time>2012-03-18T11:58:26Z</time>
      </trkpt>
      <trkpt lat="59.4688319" lon="17.8094239">
        <ele>37.4</ele>
        <time>2012-03-18T11:58:33Z</time>
      </trkpt>
      <trkpt lat="59.4688318" lon="17.809294">
        <ele>37.2</ele>
        <time>2012-03-18T11:58:34Z</time>
      </trkpt>
      <trkpt lat="59.468835" lon="17.8090053">
        <ele>36.6</ele>
        <time>2012-03-18T11:58:36Z</time>
      </trkpt>
      <trkpt lat="59.468861" lon="17.8086859">
        <ele>35.4</ele>
        <time>2012-03-18T11:58:38Z</time>
      </trkpt>
      <trkpt lat="59.4689501" lon="17.807862">
        <ele>33.4</ele>
        <time>2012-03-18T11:58:43Z</time>
      </trkpt>
      <trkpt lat="59.469033" lon="17.807113">
        <ele>31.6</ele>
        <time>2012-03-18T11:58:48Z</time>
      </trkpt>
      <trkpt lat="59.4691687" lon="17.8063652">
        <ele>29.8</ele>
        <time>2012-03-18T11:58:53Z</time>
      </trkpt>
      <trkpt lat="59.4693479" lon="17.8055607">
        <ele>25.8</ele>
        <time>2012-03-18T11:58:58Z</time>
      </trkpt>
      <trkpt lat="59.4695235" lon="17.8048751">
        <ele>22.8</ele>
        <time>2012-03-18T11:59:02Z</time>
      </trkpt>
      <trkpt lat="59.4697069" lon="17.8041548">
        <ele>20.8</ele>
        <time>2012-03-18T11:59:06Z</time>
      </trkpt>
      <trkpt lat="59.4698805" lon="17.8034242">
        <ele>18.2</ele>
        <time>2012-03-18T11:59:10Z</time>
      </trkpt>
      <trkpt lat="59.469994" lon="17.8026772">
        <ele>16.6</ele>
        <time>2012-03-18T11:59:14Z</time>
      </trkpt>
      <trkpt lat="59.4700047" lon="17.802478">
        <ele>16.4</ele>
        <time>2012-03-18T11:59:15Z</time>
      </trkpt>
      <trkpt lat="59.4699611" lon="17.8018657">
        <ele>12.8</ele>
        <time>2012-03-18T11:59:18Z</time>
      </trkpt>
      <trkpt lat="59.4697623" lon="17.8011411">
        <ele>10.2</ele>
        <time>2012-03-18T11:59:22Z</time>
      </trkpt>
      <trkpt lat="59.4694642" lon="17.8004862">
        <ele>7.8</ele>
        <time>2012-03-18T11:59:26Z</time>
      </trkpt>
      <trkpt lat="59.469208" lon="17.79996">
        <ele>5.4</ele>
        <time>2012-03-18T11:59:29Z</time>
      </trkpt>
      <trkpt lat="59.4689417" lon="17.7993158">
        <ele>6.4</ele>
        <time>2012-03-18T11:59:33Z</time>
      </trkpt>
      <trkpt lat="59.4688574" lon="17.7986487">
        <ele>9</ele>
        <time>2012-03-18T11:59:37Z</time>
      </trkpt>
      <trkpt lat="59.4688677" lon="17.798494">
        <ele>10.2</ele>
        <time>2012-03-18T11:59:38Z</time>
      </trkpt>
      <trkpt lat="59.4690697" lon="17.7978383">
        <ele>12.2</ele>
        <time>2012-03-18T11:59:43Z</time>
      </trkpt>
      <trkpt lat="59.4692547" lon="17.7975575">
        <ele>13.4</ele>
        <time>2012-03-18T11:59:46Z</time>
      </trkpt>
      <trkpt lat="59.4693779" lon="17.7973897">
        <ele>14.6</ele>
        <time>2012-03-18T11:59:48Z</time>
      </trkpt>
      <trkpt lat="59.4697282" lon="17.7969036">
        <ele>18</ele>
        <time>2012-03-18T11:59:54Z</time>
      </trkpt>
      <trkpt lat="59.470057" lon="17.796512">
        <ele>16</ele>
        <time>2012-03-18T11:59:59Z</time>
      </trkpt>
      <trkpt lat="59.4704018" lon="17.7961546">
        <ele>14.6</ele>
        <time>2012-03-18T12:00:04Z</time>
      </trkpt>
      <trkpt lat="59.4707895" lon="17.7959286">
        <ele>11.2</ele>
        <time>2012-03-18T12:00:09Z</time>
      </trkpt>
      <trkpt lat="59.4710288" lon="17.7957771">
        <ele>7.4</ele>
        <time>2012-03-18T12:00:12Z</time>
      </trkpt>
      <trkpt lat="59.4711685" lon="17.7956216">
        <ele>6.2</ele>
        <time>2012-03-18T12:00:14Z</time>
      </trkpt>
      <trkpt lat="59.471533" lon="17.7951916">
        <ele>3.6</ele>
        <time>2012-03-18T12:00:19Z</time>
      </trkpt>
      <trkpt lat="59.4719328" lon="17.7948881">
        <ele>2</ele>
        <time>2012-03-18T12:00:24Z</time>
      </trkpt>
      <trkpt lat="59.4722823" lon="17.7946965">
        <ele>0</ele>
        <time>2012-03-18T12:00:28Z</time>
      </trkpt>
      <trkpt lat="59.4723516" lon="17.7946102">
        <ele>0</ele>
        <time>2012-03-18T12:00:29Z</time>
      </trkpt>
      <trkpt lat="59.4725813" lon="17.7939992">
        <ele>0.6</ele>
        <time>2012-03-18T12:00:34Z</time>
      </trkpt>
      <trkpt lat="59.4726097" lon="17.7938541">
        <ele>1.4</ele>
        <time>2012-03-18T12:00:35Z</time>
      </trkpt>
      <trkpt lat="59.4726182" lon="17.7936872">
        <ele>4</ele>
        <time>2012-03-18T12:00:36Z</time>
      </trkpt>
      <trkpt lat="59.4726575" lon="17.7931943">
        <ele>8.4</ele>
        <time>2012-03-18T12:00:39Z</time>
      </trkpt>
      <trkpt lat="59.4727518" lon="17.7923997">
        <ele>11.4</ele>
        <time>2012-03-18T12:00:44Z</time>
      </trkpt>
      <trkpt lat="59.4728553" lon="17.7916196">
        <ele>13.4</ele>
        <time>2012-03-18T12:00:49Z</time>
      </trkpt>
      <trkpt lat="59.472974" lon="17.7909016">
        <ele>14.8</ele>
        <time>2012-03-18T12:00:54Z</time>
      </trkpt>
      <trkpt lat="59.4732028" lon="17.7901882">
        <ele>13.6</ele>
        <time>2012-03-18T12:01:00Z</time>
      </trkpt>
      <trkpt lat="59.4733691" lon="17.7896055">
        <ele>19.6</ele>
        <time>2012-03-18T12:01:06Z</time>
      </trkpt>
      <trkpt lat="59.4735197" lon="17.7888974">
        <ele>22.4</ele>
        <time>2012-03-18T12:01:13Z</time>
      </trkpt>
      <trkpt lat="59.473664" lon="17.7881855">
        <ele>21</ele>
        <time>2012-03-18T12:01:19Z</time>
      </trkpt>
      <trkpt lat="59.4739296" lon="17.7876853">
        <ele>19.8</ele>
        <time>2012-03-18T12:01:24Z</time>
      </trkpt>
      <trkpt lat="59.474327" lon="17.7872934">
        <ele>16.8</ele>
        <time>2012-03-18T12:01:29Z</time>
      </trkpt>
      <trkpt lat="59.4747062" lon="17.7870148">
        <ele>15.8</ele>
        <time>2012-03-18T12:01:33Z</time>
      </trkpt>
      <trkpt lat="59.4750864" lon="17.7868262">
        <ele>16.6</ele>
        <time>2012-03-18T12:01:37Z</time>
      </trkpt>
      <trkpt lat="59.4754548" lon="17.7866814">
        <ele>17.4</ele>
        <time>2012-03-18T12:01:41Z</time>
      </trkpt>
      <trkpt lat="59.4758228" lon="17.7865606">
        <ele>15.6</ele>
        <time>2012-03-18T12:01:45Z</time>
      </trkpt>
      <trkpt lat="59.4762872" lon="17.7864506">
        <ele>12</ele>
        <time>2012-03-18T12:01:50Z</time>
      </trkpt>
      <trkpt lat="59.47667" lon="17.7863382">
        <ele>9.2</ele>
        <time>2012-03-18T12:01:54Z</time>
      </trkpt>
      <trkpt lat="59.477065" lon="17.7862519">
        <ele>2.6</ele>
        <time>2012-03-18T12:01:58Z</time>
      </trkpt>
      <trkpt lat="59.4774678" lon="17.7860864">
        <ele>8.8</ele>
        <time>2012-03-18T12:02:03Z</time>
      </trkpt>
      <trkpt lat="59.4779007" lon="17.7859053">
        <ele>10.2</ele>
        <time>2012-03-18T12:02:08Z</time>
      </trkpt>
      <trkpt lat="59.4782919" lon="17.7856893">
        <ele>13.2</ele>
        <time>2012-03-18T12:02:13Z</time>
      </trkpt>
      <trkpt lat="59.478639" lon="17.7854059">
        <ele>16.4</ele>
        <time>2012-03-18T12:02:18Z</time>
      </trkpt>
      <trkpt lat="59.4789689" lon="17.7850733">
        <ele>18.2</ele>
        <time>2012-03-18T12:02:23Z</time>
      </trkpt>
      <trkpt lat="59.4793342" lon="17.7846393">
        <ele>18.6</ele>
        <time>2012-03-18T12:02:29Z</time>
      </trkpt>
      <trkpt lat="59.4796584" lon="17.7841667">
        <ele>20</ele>
        <time>2012-03-18T12:02:35Z</time>
      </trkpt>
      <trkpt lat="59.4799237" lon="17.7836295">
        <ele>25</ele>
        <time>2012-03-18T12:02:41Z</time>
      </trkpt>
      <trkpt lat="59.4801627" lon="17.7830421">
        <ele>28.2</ele>
        <time>2012-03-18T12:02:47Z</time>
      </trkpt>
      <trkpt lat="59.480386" lon="17.7823326">
        <ele>29.8</ele>
        <time>2012-03-18T12:02:53Z</time>
      </trkpt>
      <trkpt lat="59.4805255" lon="17.7817918">
        <ele>32.2</ele>
        <time>2012-03-18T12:02:59Z</time>
      </trkpt>
      <trkpt lat="59.4806877" lon="17.7811354">
        <ele>35</ele>
        <time>2012-03-18T12:03:05Z</time>
      </trkpt>
      <trkpt lat="59.4808475" lon="17.7804754">
        <ele>37</ele>
        <time>2012-03-18T12:03:11Z</time>
      </trkpt>
      <trkpt lat="59.4810092" lon="17.779806">
        <ele>39.4</ele>
        <time>2012-03-18T12:03:17Z</time>
      </trkpt>
      <trkpt lat="59.4811768" lon="17.7791178">
        <ele>40.8</ele>
        <time>2012-03-18T12:03:23Z</time>
      </trkpt>
      <trkpt lat="59.4813397" lon="17.7784428">
        <ele>43</ele>
        <time>2012-03-18T12:03:29Z</time>
      </trkpt>
      <trkpt lat="59.4815016" lon="17.7777658">
        <ele>44.6</ele>
        <time>2012-03-18T12:03:35Z</time>
      </trkpt>
      <trkpt lat="59.4816619" lon="17.7771199">
        <ele>44.6</ele>
        <time>2012-03-18T12:03:41Z</time>
      </trkpt>
      <trkpt lat="59.481822" lon="17.7763536">
        <ele>45.4</ele>
        <time>2012-03-18T12:03:48Z</time>
      </trkpt>
      <trkpt lat="59.4819247" lon="17.7756213">
        <ele>48</ele>
        <time>2012-03-18T12:03:54Z</time>
      </trkpt>
      <trkpt lat="59.4820199" lon="17.7749202">
        <ele>50</ele>
        <time>2012-03-18T12:04:00Z</time>
      </trkpt>
      <trkpt lat="59.4821027" lon="17.7742329">
        <ele>53</ele>
        <time>2012-03-18T12:04:06Z</time>
      </trkpt>
      <trkpt lat="59.4821872" lon="17.7735425">
        <ele>54.6</ele>
        <time>2012-03-18T12:04:12Z</time>
      </trkpt>
      <trkpt lat="59.4822788" lon="17.7728122">
        <ele>55.4</ele>
        <time>2012-03-18T12:04:18Z</time>
      </trkpt>
      <trkpt lat="59.4823733" lon="17.772019">
        <ele>55.8</ele>
        <time>2012-03-18T12:04:24Z</time>
      </trkpt>
      <trkpt lat="59.4824903" lon="17.7711829">
        <ele>54</ele>
        <time>2012-03-18T12:04:30Z</time>
      </trkpt>
      <trkpt lat="59.4825732" lon="17.770494">
        <ele>53.2</ele>
        <time>2012-03-18T12:04:35Z</time>
      </trkpt>
      <trkpt lat="59.4826596" lon="17.7697412">
        <ele>49.4</ele>
        <time>2012-03-18T12:04:40Z</time>
      </trkpt>
      <trkpt lat="59.482758" lon="17.7689373">
        <ele>42.2</ele>
        <time>2012-03-18T12:04:45Z</time>
      </trkpt>
      <trkpt lat="59.4828633" lon="17.7682441">
        <ele>38.4</ele>
        <time>2012-03-18T12:04:49Z</time>
      </trkpt>
      <trkpt lat="59.48297" lon="17.7674725">
        <ele>33</ele>
        <time>2012-03-18T12:04:53Z</time>
      </trkpt>
      <trkpt lat="59.4831022" lon="17.7666722">
        <ele>31.8</ele>
        <time>2012-03-18T12:04:57Z</time>
      </trkpt>
      <trkpt lat="59.4832155" lon="17.7658255">
        <ele>26.8</ele>
        <time>2012-03-18T12:05:01Z</time>
      </trkpt>
      <trkpt lat="59.48333" lon="17.7649595">
        <ele>23.4</ele>
        <time>2012-03-18T12:05:05Z</time>
      </trkpt>
      <trkpt lat="59.4834526" lon="17.764094">
        <ele>21.8</ele>
        <time>2012-03-18T12:05:09Z</time>
      </trkpt>
      <trkpt lat="59.4835518" lon="17.7632106">
        <ele>19.4</ele>
        <time>2012-03-18T12:05:13Z</time>
      </trkpt>
      <trkpt lat="59.4835725" lon="17.7623535">
        <ele>18.4</ele>
        <time>2012-03-18T12:05:17Z</time>
      </trkpt>
      <trkpt lat="59.483558" lon="17.762153">
        <ele>18.4</ele>
        <time>2012-03-18T12:05:18Z</time>
      </trkpt>
      <trkpt lat="59.4834673" lon="17.761583">
        <ele>18.2</ele>
        <time>2012-03-18T12:05:21Z</time>
      </trkpt>
      <trkpt lat="59.4833788" lon="17.7612295">
        <ele>18.4</ele>
        <time>2012-03-18T12:05:23Z</time>
      </trkpt>
      <trkpt lat="59.4832803" lon="17.7609171">
        <ele>18.4</ele>
        <time>2012-03-18T12:05:25Z</time>
      </trkpt>
      <trkpt lat="59.483171" lon="17.760647">
        <ele>18.4</ele>
        <time>2012-03-18T12:05:27Z</time>
      </trkpt>
      <trkpt lat="59.4829835" lon="17.7603201">
        <ele>18.4</ele>
        <time>2012-03-18T12:05:30Z</time>
      </trkpt>
      <trkpt lat="59.4826921" lon="17.7600576">
        <ele>18.8</ele>
        <time>2012-03-18T12:05:34Z</time>
      </trkpt>
      <trkpt lat="59.4826167" lon="17.7600155">
        <ele>18.6</ele>
        <time>2012-03-18T12:05:35Z</time>
      </trkpt>
      <trkpt lat="59.4822537" lon="17.7598737">
        <ele>21.4</ele>
        <time>2012-03-18T12:05:40Z</time>
      </trkpt>
      <trkpt lat="59.481875" lon="17.7597215">
        <ele>26.6</ele>
        <time>2012-03-18T12:05:46Z</time>
      </trkpt>
      <trkpt lat="59.481522" lon="17.7594836">
        <ele>29</ele>
        <time>2012-03-18T12:05:52Z</time>
      </trkpt>
      <trkpt lat="59.4812128" lon="17.7591219">
        <ele>30.2</ele>
        <time>2012-03-18T12:05:58Z</time>
      </trkpt>
      <trkpt lat="59.481013" lon="17.7588078">
        <ele>30.4</ele>
        <time>2012-03-18T12:06:02Z</time>
      </trkpt>
      <trkpt lat="59.4809353" lon="17.7586466">
        <ele>30</ele>
        <time>2012-03-18T12:06:04Z</time>
      </trkpt>
      <trkpt lat="59.4806928" lon="17.7580648">
        <ele>30.8</ele>
        <time>2012-03-18T12:06:11Z</time>
      </trkpt>
      <trkpt lat="59.4804331" lon="17.7574169">
        <ele>30.8</ele>
        <time>2012-03-18T12:06:18Z</time>
      </trkpt>
      <trkpt lat="59.4801629" lon="17.7567691">
        <ele>32.4</ele>
        <time>2012-03-18T12:06:24Z</time>
      </trkpt>
      <trkpt lat="59.4799272" lon="17.7561441">
        <ele>31.4</ele>
        <time>2012-03-18T12:06:29Z</time>
      </trkpt>
      <trkpt lat="59.4796158" lon="17.7553371">
        <ele>33.2</ele>
        <time>2012-03-18T12:06:34Z</time>
      </trkpt>
      <trkpt lat="59.4793574" lon="17.7547986">
        <ele>31</ele>
        <time>2012-03-18T12:06:39Z</time>
      </trkpt>
      <trkpt lat="59.4791082" lon="17.7542511">
        <ele>30.8</ele>
        <time>2012-03-18T12:06:43Z</time>
      </trkpt>
      <trkpt lat="59.4788599" lon="17.7536269">
        <ele>28.4</ele>
        <time>2012-03-18T12:06:47Z</time>
      </trkpt>
      <trkpt lat="59.4785867" lon="17.7529845">
        <ele>27.6</ele>
        <time>2012-03-18T12:06:52Z</time>
      </trkpt>
      <trkpt lat="59.4783657" lon="17.7523595">
        <ele>28</ele>
        <time>2012-03-18T12:06:57Z</time>
      </trkpt>
      <trkpt lat="59.4780888" lon="17.7518528">
        <ele>32.8</ele>
        <time>2012-03-18T12:07:02Z</time>
      </trkpt>
      <trkpt lat="59.4778579" lon="17.7513172">
        <ele>36.4</ele>
        <time>2012-03-18T12:07:07Z</time>
      </trkpt>
      <trkpt lat="59.4776823" lon="17.7506315">
        <ele>32</ele>
        <time>2012-03-18T12:07:13Z</time>
      </trkpt>
      <trkpt lat="59.4774298" lon="17.749931">
        <ele>31.4</ele>
        <time>2012-03-18T12:07:19Z</time>
      </trkpt>
      <trkpt lat="59.477405" lon="17.7498355">
        <ele>31.2</ele>
        <time>2012-03-18T12:07:20Z</time>
      </trkpt>
      <trkpt lat="59.4773361" lon="17.7494503">
        <ele>30.4</ele>
        <time>2012-03-18T12:07:24Z</time>
      </trkpt>
      <trkpt lat="59.4773247" lon="17.7493606">
        <ele>30.4</ele>
        <time>2012-03-18T12:07:25Z</time>
      </trkpt>
      <trkpt lat="59.4772694" lon="17.7491959">
        <ele>30.4</ele>
        <time>2012-03-18T12:07:27Z</time>
      </trkpt>
      <trkpt lat="59.4771406" lon="17.7490192">
        <ele>30.8</ele>
        <time>2012-03-18T12:07:30Z</time>
      </trkpt>
      <trkpt lat="59.4770959" lon="17.7489554">
        <ele>31</ele>
        <time>2012-03-18T12:07:31Z</time>
      </trkpt>
      <trkpt lat="59.4769648" lon="17.7486794">
        <ele>29.8</ele>
        <time>2012-03-18T12:07:34Z</time>
      </trkpt>
      <trkpt lat="59.4769212" lon="17.748565">
        <ele>29.2</ele>
        <time>2012-03-18T12:07:35Z</time>
      </trkpt>
      <trkpt lat="59.4767663" lon="17.7480419">
        <ele>27.4</ele>
        <time>2012-03-18T12:07:39Z</time>
      </trkpt>
      <trkpt lat="59.4765802" lon="17.7472641">
        <ele>24.2</ele>
        <time>2012-03-18T12:07:44Z</time>
      </trkpt>
      <trkpt lat="59.4764218" lon="17.7464493">
        <ele>22.2</ele>
        <time>2012-03-18T12:07:49Z</time>
      </trkpt>
      <trkpt lat="59.4763193" lon="17.7457581">
        <ele>21.4</ele>
        <time>2012-03-18T12:07:53Z</time>
      </trkpt>
      <trkpt lat="59.4762405" lon="17.7450346">
        <ele>20.2</ele>
        <time>2012-03-18T12:07:57Z</time>
      </trkpt>
      <trkpt lat="59.4762336" lon="17.7443006">
        <ele>18.6</ele>
        <time>2012-03-18T12:08:01Z</time>
      </trkpt>
      <trkpt lat="59.4762508" lon="17.7435631">
        <ele>17</ele>
        <time>2012-03-18T12:08:05Z</time>
      </trkpt>
      <trkpt lat="59.4763036" lon="17.7428136">
        <ele>16.4</ele>
        <time>2012-03-18T12:08:09Z</time>
      </trkpt>
      <trkpt lat="59.4763747" lon="17.7419963">
        <ele>14.2</ele>
        <time>2012-03-18T12:08:13Z</time>
      </trkpt>
      <trkpt lat="59.476498" lon="17.7412466">
        <ele>12.4</ele>
        <time>2012-03-18T12:08:17Z</time>
      </trkpt>
      <trkpt lat="59.4766512" lon="17.740471">
        <ele>11.4</ele>
        <time>2012-03-18T12:08:21Z</time>
      </trkpt>
      <trkpt lat="59.4768472" lon="17.7397278">
        <ele>11</ele>
        <time>2012-03-18T12:08:25Z</time>
      </trkpt>
      <trkpt lat="59.4770427" lon="17.7390165">
        <ele>11.4</ele>
        <time>2012-03-18T12:08:29Z</time>
      </trkpt>
      <trkpt lat="59.4772268" lon="17.7383229">
        <ele>11.8</ele>
        <time>2012-03-18T12:08:33Z</time>
      </trkpt>
      <trkpt lat="59.4774139" lon="17.7376701">
        <ele>13</ele>
        <time>2012-03-18T12:08:37Z</time>
      </trkpt>
      <trkpt lat="59.4776001" lon="17.7370497">
        <ele>12.4</ele>
        <time>2012-03-18T12:08:41Z</time>
      </trkpt>
      <trkpt lat="59.4778126" lon="17.7362896">
        <ele>12.2</ele>
        <time>2012-03-18T12:08:46Z</time>
      </trkpt>
      <trkpt lat="59.4779957" lon="17.7355343">
        <ele>12.4</ele>
        <time>2012-03-18T12:08:51Z</time>
      </trkpt>
      <trkpt lat="59.4781452" lon="17.7348229">
        <ele>13.4</ele>
        <time>2012-03-18T12:08:56Z</time>
      </trkpt>
      <trkpt lat="59.4782714" lon="17.7341245">
        <ele>14.2</ele>
        <time>2012-03-18T12:09:01Z</time>
      </trkpt>
      <trkpt lat="59.4783747" lon="17.7334322">
        <ele>15.6</ele>
        <time>2012-03-18T12:09:06Z</time>
      </trkpt>
      <trkpt lat="59.4784624" lon="17.732616">
        <ele>17.6</ele>
        <time>2012-03-18T12:09:12Z</time>
      </trkpt>
      <trkpt lat="59.4785191" lon="17.7318043">
        <ele>20.4</ele>
        <time>2012-03-18T12:09:18Z</time>
      </trkpt>
      <trkpt lat="59.4785484" lon="17.7310911">
        <ele>22.4</ele>
        <time>2012-03-18T12:09:23Z</time>
      </trkpt>
      <trkpt lat="59.4785595" lon="17.7302964">
        <ele>24.8</ele>
        <time>2012-03-18T12:09:29Z</time>
      </trkpt>
      <trkpt lat="59.4785866" lon="17.7295484">
        <ele>26.4</ele>
        <time>2012-03-18T12:09:35Z</time>
      </trkpt>
      <trkpt lat="59.4786016" lon="17.7294328">
        <ele>26.6</ele>
        <time>2012-03-18T12:09:36Z</time>
      </trkpt>
      <trkpt lat="59.4786571" lon="17.7291058">
        <ele>27.8</ele>
        <time>2012-03-18T12:09:39Z</time>
      </trkpt>
      <trkpt lat="59.4786507" lon="17.7287631">
        <ele>27.4</ele>
        <time>2012-03-18T12:09:42Z</time>
      </trkpt>
      <trkpt lat="59.4786066" lon="17.728535">
        <ele>26.2</ele>
        <time>2012-03-18T12:09:44Z</time>
      </trkpt>
      <trkpt lat="59.478588" lon="17.7284207">
        <ele>26.2</ele>
        <time>2012-03-18T12:09:45Z</time>
      </trkpt>
      <trkpt lat="59.4785584" lon="17.7279501">
        <ele>26</ele>
        <time>2012-03-18T12:09:49Z</time>
      </trkpt>
      <trkpt lat="59.4785525" lon="17.7271855">
        <ele>25.2</ele>
        <time>2012-03-18T12:09:55Z</time>
      </trkpt>
      <trkpt lat="59.4785476" lon="17.7264533">
        <ele>24.2</ele>
        <time>2012-03-18T12:10:01Z</time>
      </trkpt>
      <trkpt lat="59.4785426" lon="17.7257181">
        <ele>23.6</ele>
        <time>2012-03-18T12:10:07Z</time>
      </trkpt>
      <trkpt lat="59.4785327" lon="17.7249084">
        <ele>23.2</ele>
        <time>2012-03-18T12:10:14Z</time>
      </trkpt>
      <trkpt lat="59.4785281" lon="17.7240932">
        <ele>23</ele>
        <time>2012-03-18T12:10:21Z</time>
      </trkpt>
      <trkpt lat="59.4785105" lon="17.7233805">
        <ele>24.8</ele>
        <time>2012-03-18T12:10:27Z</time>
      </trkpt>
      <trkpt lat="59.4784948" lon="17.7226899">
        <ele>28.4</ele>
        <time>2012-03-18T12:10:33Z</time>
      </trkpt>
      <trkpt lat="59.4784836" lon="17.7219322">
        <ele>30</ele>
        <time>2012-03-18T12:10:40Z</time>
      </trkpt>
      <trkpt lat="59.478513" lon="17.7211753">
        <ele>28.4</ele>
        <time>2012-03-18T12:10:47Z</time>
      </trkpt>
      <trkpt lat="59.4785322" lon="17.7203527">
        <ele>28.8</ele>
        <time>2012-03-18T12:10:54Z</time>
      </trkpt>
      <trkpt lat="59.4785472" lon="17.7195901">
        <ele>29.2</ele>
        <time>2012-03-18T12:11:00Z</time>
      </trkpt>
      <trkpt lat="59.4785846" lon="17.7188328">
        <ele>29</ele>
        <time>2012-03-18T12:11:06Z</time>
      </trkpt>
      <trkpt lat="59.4786487" lon="17.7180729">
        <ele>29</ele>
        <time>2012-03-18T12:11:12Z</time>
      </trkpt>
      <trkpt lat="59.4787501" lon="17.7173083">
        <ele>29.6</ele>
        <time>2012-03-18T12:11:18Z</time>
      </trkpt>
      <trkpt lat="59.4788538" lon="17.7165127">
        <ele>28.4</ele>
        <time>2012-03-18T12:11:24Z</time>
      </trkpt>
      <trkpt lat="59.4789775" lon="17.7157168">
        <ele>28.4</ele>
        <time>2012-03-18T12:11:30Z</time>
      </trkpt>
      <trkpt lat="59.4790782" lon="17.7150225">
        <ele>29.8</ele>
        <time>2012-03-18T12:11:35Z</time>
      </trkpt>
      <trkpt lat="59.4791705" lon="17.7143317">
        <ele>29.8</ele>
        <time>2012-03-18T12:11:40Z</time>
      </trkpt>
      <trkpt lat="59.4792554" lon="17.7136268">
        <ele>31</ele>
        <time>2012-03-18T12:11:45Z</time>
      </trkpt>
      <trkpt lat="59.4793575" lon="17.7128375">
        <ele>31.6</ele>
        <time>2012-03-18T12:11:51Z</time>
      </trkpt>
      <trkpt lat="59.4794956" lon="17.712065">
        <ele>30.8</ele>
        <time>2012-03-18T12:11:57Z</time>
      </trkpt>
      <trkpt lat="59.4796564" lon="17.7113205">
        <ele>31.2</ele>
        <time>2012-03-18T12:12:03Z</time>
      </trkpt>
      <trkpt lat="59.4798416" lon="17.7106036">
        <ele>31.8</ele>
        <time>2012-03-18T12:12:09Z</time>
      </trkpt>
      <trkpt lat="59.4800318" lon="17.7098687">
        <ele>29.6</ele>
        <time>2012-03-18T12:12:15Z</time>
      </trkpt>
      <trkpt lat="59.4802302" lon="17.7091624">
        <ele>27.4</ele>
        <time>2012-03-18T12:12:21Z</time>
      </trkpt>
      <trkpt lat="59.4804544" lon="17.7084579">
        <ele>27</ele>
        <time>2012-03-18T12:12:27Z</time>
      </trkpt>
      <trkpt lat="59.4806825" lon="17.7077267">
        <ele>26.4</ele>
        <time>2012-03-18T12:12:33Z</time>
      </trkpt>
      <trkpt lat="59.4808664" lon="17.7070976">
        <ele>26</ele>
        <time>2012-03-18T12:12:38Z</time>
      </trkpt>
      <trkpt lat="59.4810874" lon="17.7063685">
        <ele>26.6</ele>
        <time>2012-03-18T12:12:44Z</time>
      </trkpt>
      <trkpt lat="59.4812823" lon="17.7057541">
        <ele>27.2</ele>
        <time>2012-03-18T12:12:49Z</time>
      </trkpt>
      <trkpt lat="59.4814765" lon="17.7051411">
        <ele>28</ele>
        <time>2012-03-18T12:12:54Z</time>
      </trkpt>
      <trkpt lat="59.4817248" lon="17.7044342">
        <ele>28.4</ele>
        <time>2012-03-18T12:13:00Z</time>
      </trkpt>
      <trkpt lat="59.4819769" lon="17.703767">
        <ele>28.4</ele>
        <time>2012-03-18T12:13:06Z</time>
      </trkpt>
      <trkpt lat="59.4822556" lon="17.7031664">
        <ele>29.8</ele>
        <time>2012-03-18T12:13:12Z</time>
      </trkpt>
      <trkpt lat="59.4825313" lon="17.7025848">
        <ele>31.2</ele>
        <time>2012-03-18T12:13:18Z</time>
      </trkpt>
      <trkpt lat="59.4828027" lon="17.7019229">
        <ele>32.8</ele>
        <time>2012-03-18T12:13:24Z</time>
      </trkpt>
      <trkpt lat="59.4830134" lon="17.701423">
        <ele>33.8</ele>
        <time>2012-03-18T12:13:28Z</time>
      </trkpt>
      <trkpt lat="59.4830625" lon="17.7013029">
        <ele>34.6</ele>
        <time>2012-03-18T12:13:29Z</time>
      </trkpt>
      <trkpt lat="59.4833021" lon="17.7007398">
        <ele>38.6</ele>
        <time>2012-03-18T12:13:34Z</time>
      </trkpt>
      <trkpt lat="59.4833956" lon="17.7005201">
        <ele>39.4</ele>
        <time>2012-03-18T12:13:36Z</time>
      </trkpt>
      <trkpt lat="59.4835324" lon="17.7001926">
        <ele>40.6</ele>
        <time>2012-03-18T12:13:39Z</time>
      </trkpt>
      <trkpt lat="59.483764" lon="17.6996575">
        <ele>39.8</ele>
        <time>2012-03-18T12:13:44Z</time>
      </trkpt>
      <trkpt lat="59.4840379" lon="17.6991379">
        <ele>38.4</ele>
        <time>2012-03-18T12:13:49Z</time>
      </trkpt>
      <trkpt lat="59.4840868" lon="17.6990159">
        <ele>37.6</ele>
        <time>2012-03-18T12:13:50Z</time>
      </trkpt>
      <trkpt lat="59.4842971" lon="17.6985354">
        <ele>36.6</ele>
        <time>2012-03-18T12:13:54Z</time>
      </trkpt>
      <trkpt lat="59.4845793" lon="17.697889">
        <ele>34.2</ele>
        <time>2012-03-18T12:13:59Z</time>
      </trkpt>
      <trkpt lat="59.4848155" lon="17.6973251">
        <ele>31.8</ele>
        <time>2012-03-18T12:14:03Z</time>
      </trkpt>
      <trkpt lat="59.4850857" lon="17.6967304">
        <ele>28.4</ele>
        <time>2012-03-18T12:14:07Z</time>
      </trkpt>
      <trkpt lat="59.4853697" lon="17.6960605">
        <ele>25.6</ele>
        <time>2012-03-18T12:14:11Z</time>
      </trkpt>
      <trkpt lat="59.4856594" lon="17.6953671">
        <ele>24.2</ele>
        <time>2012-03-18T12:14:15Z</time>
      </trkpt>
      <trkpt lat="59.48599" lon="17.6946862">
        <ele>23.4</ele>
        <time>2012-03-18T12:14:19Z</time>
      </trkpt>
      <trkpt lat="59.4862624" lon="17.6941615">
        <ele>23.8</ele>
        <time>2012-03-18T12:14:22Z</time>
      </trkpt>
      <trkpt lat="59.4865495" lon="17.6936742">
        <ele>22.6</ele>
        <time>2012-03-18T12:14:25Z</time>
      </trkpt>
      <trkpt lat="59.4869183" lon="17.693053">
        <ele>21.4</ele>
        <time>2012-03-18T12:14:29Z</time>
      </trkpt>
      <trkpt lat="59.4872586" lon="17.6924615">
        <ele>21.2</ele>
        <time>2012-03-18T12:14:33Z</time>
      </trkpt>
      <trkpt lat="59.4875578" lon="17.6919788">
        <ele>22.6</ele>
        <time>2012-03-18T12:14:37Z</time>
      </trkpt>
      <trkpt lat="59.4878895" lon="17.6914089">
        <ele>22.6</ele>
        <time>2012-03-18T12:14:42Z</time>
      </trkpt>
      <trkpt lat="59.4882045" lon="17.6908686">
        <ele>22.4</ele>
        <time>2012-03-18T12:14:47Z</time>
      </trkpt>
      <trkpt lat="59.4885205" lon="17.6903003">
        <ele>21.2</ele>
        <time>2012-03-18T12:14:52Z</time>
      </trkpt>
      <trkpt lat="59.4888396" lon="17.6897335">
        <ele>20.4</ele>
        <time>2012-03-18T12:14:57Z</time>
      </trkpt>
      <trkpt lat="59.4891934" lon="17.6892201">
        <ele>19</ele>
        <time>2012-03-18T12:15:02Z</time>
      </trkpt>
      <trkpt lat="59.4895739" lon="17.6888153">
        <ele>20.2</ele>
        <time>2012-03-18T12:15:07Z</time>
      </trkpt>
      <trkpt lat="59.4899285" lon="17.6884548">
        <ele>22.4</ele>
        <time>2012-03-18T12:15:12Z</time>
      </trkpt>
      <trkpt lat="59.4902919" lon="17.6880884">
        <ele>22.2</ele>
        <time>2012-03-18T12:15:17Z</time>
      </trkpt>
      <trkpt lat="59.4906724" lon="17.6877062">
        <ele>20</ele>
        <time>2012-03-18T12:15:22Z</time>
      </trkpt>
      <trkpt lat="59.4911088" lon="17.6873881">
        <ele>16.8</ele>
        <time>2012-03-18T12:15:27Z</time>
      </trkpt>
      <trkpt lat="59.4914724" lon="17.6871446">
        <ele>13.6</ele>
        <time>2012-03-18T12:15:31Z</time>
      </trkpt>
      <trkpt lat="59.4918927" lon="17.6868287">
        <ele>11.4</ele>
        <time>2012-03-18T12:15:36Z</time>
      </trkpt>
      <trkpt lat="59.4922698" lon="17.6864344">
        <ele>8.2</ele>
        <time>2012-03-18T12:15:41Z</time>
      </trkpt>
      <trkpt lat="59.4925935" lon="17.6859357">
        <ele>9.6</ele>
        <time>2012-03-18T12:15:46Z</time>
      </trkpt>
      <trkpt lat="59.4929012" lon="17.6854062">
        <ele>9.6</ele>
        <time>2012-03-18T12:15:51Z</time>
      </trkpt>
      <trkpt lat="59.493186" lon="17.6849073">
        <ele>11.6</ele>
        <time>2012-03-18T12:15:56Z</time>
      </trkpt>
      <trkpt lat="59.4934391" lon="17.684405">
        <ele>10.8</ele>
        <time>2012-03-18T12:16:01Z</time>
      </trkpt>
      <trkpt lat="59.493694" lon="17.683884">
        <ele>12</ele>
        <time>2012-03-18T12:16:06Z</time>
      </trkpt>
      <trkpt lat="59.4939389" lon="17.6833897">
        <ele>15</ele>
        <time>2012-03-18T12:16:11Z</time>
      </trkpt>
      <trkpt lat="59.4942097" lon="17.6827938">
        <ele>14.4</ele>
        <time>2012-03-18T12:16:17Z</time>
      </trkpt>
      <trkpt lat="59.4944543" lon="17.6821831">
        <ele>13</ele>
        <time>2012-03-18T12:16:23Z</time>
      </trkpt>
      <trkpt lat="59.4946874" lon="17.6815637">
        <ele>12.2</ele>
        <time>2012-03-18T12:16:29Z</time>
      </trkpt>
      <trkpt lat="59.4949106" lon="17.6809342">
        <ele>14.4</ele>
        <time>2012-03-18T12:16:35Z</time>
      </trkpt>
      <trkpt lat="59.4951375" lon="17.6803041">
        <ele>16.8</ele>
        <time>2012-03-18T12:16:41Z</time>
      </trkpt>
      <trkpt lat="59.4953811" lon="17.6796514">
        <ele>17.8</ele>
        <time>2012-03-18T12:16:47Z</time>
      </trkpt>
      <trkpt lat="59.4956515" lon="17.679017">
        <ele>18.6</ele>
        <time>2012-03-18T12:16:53Z</time>
      </trkpt>
      <trkpt lat="59.4959306" lon="17.6783598">
        <ele>16.4</ele>
        <time>2012-03-18T12:16:59Z</time>
      </trkpt>
      <trkpt lat="59.4961884" lon="17.6777653">
        <ele>14.8</ele>
        <time>2012-03-18T12:17:04Z</time>
      </trkpt>
      <trkpt lat="59.4964665" lon="17.6771299">
        <ele>14</ele>
        <time>2012-03-18T12:17:09Z</time>
      </trkpt>
      <trkpt lat="59.4967579" lon="17.6764793">
        <ele>13.2</ele>
        <time>2012-03-18T12:17:14Z</time>
      </trkpt>
      <trkpt lat="59.4970386" lon="17.6758741">
        <ele>13.6</ele>
        <time>2012-03-18T12:17:19Z</time>
      </trkpt>
      <trkpt lat="59.4973095" lon="17.6752614">
        <ele>14.4</ele>
        <time>2012-03-18T12:17:24Z</time>
      </trkpt>
      <trkpt lat="59.4975955" lon="17.6746808">
        <ele>15.2</ele>
        <time>2012-03-18T12:17:29Z</time>
      </trkpt>
      <trkpt lat="59.4978916" lon="17.6741282">
        <ele>15.8</ele>
        <time>2012-03-18T12:17:34Z</time>
      </trkpt>
      <trkpt lat="59.4981907" lon="17.6736229">
        <ele>16.4</ele>
        <time>2012-03-18T12:17:39Z</time>
      </trkpt>
      <trkpt lat="59.4984946" lon="17.6731402">
        <ele>17.8</ele>
        <time>2012-03-18T12:17:44Z</time>
      </trkpt>
      <trkpt lat="59.4987815" lon="17.6726753">
        <ele>18.8</ele>
        <time>2012-03-18T12:17:49Z</time>
      </trkpt>
      <trkpt lat="59.4990754" lon="17.6721915">
        <ele>19</ele>
        <time>2012-03-18T12:17:54Z</time>
      </trkpt>
      <trkpt lat="59.4993537" lon="17.6716835">
        <ele>15.8</ele>
        <time>2012-03-18T12:17:59Z</time>
      </trkpt>
      <trkpt lat="59.4996425" lon="17.6711775">
        <ele>15.4</ele>
        <time>2012-03-18T12:18:04Z</time>
      </trkpt>
      <trkpt lat="59.4999322" lon="17.6707014">
        <ele>14.8</ele>
        <time>2012-03-18T12:18:09Z</time>
      </trkpt>
      <trkpt lat="59.500213" lon="17.6702311">
        <ele>14.4</ele>
        <time>2012-03-18T12:18:14Z</time>
      </trkpt>
      <trkpt lat="59.5004958" lon="17.6697699">
        <ele>14.4</ele>
        <time>2012-03-18T12:18:19Z</time>
      </trkpt>
      <trkpt lat="59.5007688" lon="17.6692804">
        <ele>14.4</ele>
        <time>2012-03-18T12:18:24Z</time>
      </trkpt>
      <trkpt lat="59.5010215" lon="17.6687634">
        <ele>15</ele>
        <time>2012-03-18T12:18:29Z</time>
      </trkpt>
      <trkpt lat="59.5012827" lon="17.6682552">
        <ele>16.2</ele>
        <time>2012-03-18T12:18:34Z</time>
      </trkpt>
      <trkpt lat="59.5015758" lon="17.6677952">
        <ele>17</ele>
        <time>2012-03-18T12:18:39Z</time>
      </trkpt>
      <trkpt lat="59.5018773" lon="17.6673504">
        <ele>16.8</ele>
        <time>2012-03-18T12:18:44Z</time>
      </trkpt>
      <trkpt lat="59.5021864" lon="17.6669206">
        <ele>16</ele>
        <time>2012-03-18T12:18:49Z</time>
      </trkpt>
      <trkpt lat="59.502503" lon="17.6664998">
        <ele>16.2</ele>
        <time>2012-03-18T12:18:54Z</time>
      </trkpt>
      <trkpt lat="59.5028176" lon="17.6660979">
        <ele>17.2</ele>
        <time>2012-03-18T12:18:59Z</time>
      </trkpt>
      <trkpt lat="59.5031354" lon="17.6656741">
        <ele>15.2</ele>
        <time>2012-03-18T12:19:04Z</time>
      </trkpt>
      <trkpt lat="59.5034504" lon="17.6652339">
        <ele>14.6</ele>
        <time>2012-03-18T12:19:09Z</time>
      </trkpt>
      <trkpt lat="59.5037572" lon="17.6647814">
        <ele>14.6</ele>
        <time>2012-03-18T12:19:14Z</time>
      </trkpt>
      <trkpt lat="59.5040618" lon="17.6643409">
        <ele>17</ele>
        <time>2012-03-18T12:19:19Z</time>
      </trkpt>
      <trkpt lat="59.504373" lon="17.6639108">
        <ele>19.4</ele>
        <time>2012-03-18T12:19:24Z</time>
      </trkpt>
      <trkpt lat="59.5046814" lon="17.6634488">
        <ele>19</ele>
        <time>2012-03-18T12:19:29Z</time>
      </trkpt>
      <trkpt lat="59.5049491" lon="17.6629582">
        <ele>18.8</ele>
        <time>2012-03-18T12:19:34Z</time>
      </trkpt>
      <trkpt lat="59.5051982" lon="17.6624389">
        <ele>18.2</ele>
        <time>2012-03-18T12:19:39Z</time>
      </trkpt>
      <trkpt lat="59.5054501" lon="17.6619139">
        <ele>16.8</ele>
        <time>2012-03-18T12:19:44Z</time>
      </trkpt>
      <trkpt lat="59.5056643" lon="17.6615539">
        <ele>16.6</ele>
        <time>2012-03-18T12:19:48Z</time>
      </trkpt>
      <trkpt lat="59.505789" lon="17.6614202">
        <ele>15.8</ele>
        <time>2012-03-18T12:19:50Z</time>
      </trkpt>
      <trkpt lat="59.5060474" lon="17.6612491">
        <ele>12.8</ele>
        <time>2012-03-18T12:19:54Z</time>
      </trkpt>
      <trkpt lat="59.5061637" lon="17.6612326">
        <ele>11.6</ele>
        <time>2012-03-18T12:19:56Z</time>
      </trkpt>
      <trkpt lat="59.5065657" lon="17.6613437">
        <ele>8</ele>
        <time>2012-03-18T12:20:04Z</time>
      </trkpt>
      <trkpt lat="59.5067512" lon="17.6606702">
        <ele>7.8</ele>
        <time>2012-03-18T12:20:11Z</time>
      </trkpt>
      <trkpt lat="59.5069343" lon="17.6600155">
        <ele>9.2</ele>
        <time>2012-03-18T12:20:17Z</time>
      </trkpt>
      <trkpt lat="59.5071449" lon="17.65936">
        <ele>10.4</ele>
        <time>2012-03-18T12:20:23Z</time>
      </trkpt>
      <trkpt lat="59.5073678" lon="17.6587027">
        <ele>11.6</ele>
        <time>2012-03-18T12:20:29Z</time>
      </trkpt>
      <trkpt lat="59.5075786" lon="17.6581232">
        <ele>12.4</ele>
        <time>2012-03-18T12:20:34Z</time>
      </trkpt>
      <trkpt lat="59.5078232" lon="17.6575467">
        <ele>12.2</ele>
        <time>2012-03-18T12:20:39Z</time>
      </trkpt>
      <trkpt lat="59.5080914" lon="17.6569924">
        <ele>12</ele>
        <time>2012-03-18T12:20:44Z</time>
      </trkpt>
      <trkpt lat="59.508382" lon="17.6564844">
        <ele>12.6</ele>
        <time>2012-03-18T12:20:49Z</time>
      </trkpt>
      <trkpt lat="59.5086923" lon="17.6560272">
        <ele>13.6</ele>
        <time>2012-03-18T12:20:54Z</time>
      </trkpt>
      <trkpt lat="59.5090036" lon="17.6555771">
        <ele>13.4</ele>
        <time>2012-03-18T12:20:59Z</time>
      </trkpt>
      <trkpt lat="59.5092941" lon="17.6551565">
        <ele>13.6</ele>
        <time>2012-03-18T12:21:04Z</time>
      </trkpt>
      <trkpt lat="59.5096163" lon="17.654645">
        <ele>15.4</ele>
        <time>2012-03-18T12:21:10Z</time>
      </trkpt>
      <trkpt lat="59.5098154" lon="17.6542928">
        <ele>13.4</ele>
        <time>2012-03-18T12:21:14Z</time>
      </trkpt>
      <trkpt lat="59.5099131" lon="17.6541437">
        <ele>13.2</ele>
        <time>2012-03-18T12:21:16Z</time>
      </trkpt>
      <trkpt lat="59.510161" lon="17.653865">
        <ele>12</ele>
        <time>2012-03-18T12:21:21Z</time>
      </trkpt>
      <trkpt lat="59.5102141" lon="17.6537318">
        <ele>12.4</ele>
        <time>2012-03-18T12:21:23Z</time>
      </trkpt>
      <trkpt lat="59.5100247" lon="17.6533065">
        <ele>12</ele>
        <time>2012-03-18T12:21:29Z</time>
      </trkpt>
      <trkpt lat="59.5099738" lon="17.6532351">
        <ele>11.8</ele>
        <time>2012-03-18T12:21:30Z</time>
      </trkpt>
      <trkpt lat="59.5097314" lon="17.6526213">
        <ele>10.2</ele>
        <time>2012-03-18T12:21:36Z</time>
      </trkpt>
      <trkpt lat="59.5095451" lon="17.6518686">
        <ele>9.2</ele>
        <time>2012-03-18T12:21:42Z</time>
      </trkpt>
      <trkpt lat="59.5093952" lon="17.6512191">
        <ele>8.8</ele>
        <time>2012-03-18T12:21:47Z</time>
      </trkpt>
      <trkpt lat="59.5092672" lon="17.6505492">
        <ele>9</ele>
        <time>2012-03-18T12:21:52Z</time>
      </trkpt>
      <trkpt lat="59.5091304" lon="17.6498998">
        <ele>9.4</ele>
        <time>2012-03-18T12:21:57Z</time>
      </trkpt>
      <trkpt lat="59.5089907" lon="17.6492502">
        <ele>9.6</ele>
        <time>2012-03-18T12:22:02Z</time>
      </trkpt>
      <trkpt lat="59.5088654" lon="17.6485404">
        <ele>12</ele>
        <time>2012-03-18T12:22:08Z</time>
      </trkpt>
      <trkpt lat="59.5087411" lon="17.64783">
        <ele>14.6</ele>
        <time>2012-03-18T12:22:14Z</time>
      </trkpt>
      <trkpt lat="59.5086273" lon="17.6471204">
        <ele>15.4</ele>
        <time>2012-03-18T12:22:20Z</time>
      </trkpt>
      <trkpt lat="59.5085218" lon="17.6464369">
        <ele>15.6</ele>
        <time>2012-03-18T12:22:26Z</time>
      </trkpt>
      <trkpt lat="59.5084043" lon="17.645729">
        <ele>14.8</ele>
        <time>2012-03-18T12:22:32Z</time>
      </trkpt>
      <trkpt lat="59.5082733" lon="17.6449091">
        <ele>12.2</ele>
        <time>2012-03-18T12:22:38Z</time>
      </trkpt>
      <trkpt lat="59.5081471" lon="17.6440849">
        <ele>9</ele>
        <time>2012-03-18T12:22:43Z</time>
      </trkpt>
      <trkpt lat="59.5080379" lon="17.6433567">
        <ele>6.8</ele>
        <time>2012-03-18T12:22:47Z</time>
      </trkpt>
      <trkpt lat="59.5079371" lon="17.6425065">
        <ele>5.8</ele>
        <time>2012-03-18T12:22:52Z</time>
      </trkpt>
      <trkpt lat="59.5078459" lon="17.641693">
        <ele>4.4</ele>
        <time>2012-03-18T12:22:57Z</time>
      </trkpt>
      <trkpt lat="59.507763" lon="17.6408884">
        <ele>2.8</ele>
        <time>2012-03-18T12:23:02Z</time>
      </trkpt>
      <trkpt lat="59.5076661" lon="17.6401166">
        <ele>0.8</ele>
        <time>2012-03-18T12:23:07Z</time>
      </trkpt>
      <trkpt lat="59.5075836" lon="17.6393647">
        <ele>0</ele>
        <time>2012-03-18T12:23:12Z</time>
      </trkpt>
      <trkpt lat="59.50751" lon="17.638609">
        <ele>0</ele>
        <time>2012-03-18T12:23:17Z</time>
      </trkpt>
      <trkpt lat="59.507489" lon="17.6378677">
        <ele>0</ele>
        <time>2012-03-18T12:23:22Z</time>
      </trkpt>
      <trkpt lat="59.5075232" lon="17.6370551">
        <ele>0.4</ele>
        <time>2012-03-18T12:23:27Z</time>
      </trkpt>
      <trkpt lat="59.5076222" lon="17.6362785">
        <ele>0.8</ele>
        <time>2012-03-18T12:23:32Z</time>
      </trkpt>
      <trkpt lat="59.5077691" lon="17.6355497">
        <ele>1.8</ele>
        <time>2012-03-18T12:23:37Z</time>
      </trkpt>
      <trkpt lat="59.50797" lon="17.6348779">
        <ele>2.8</ele>
        <time>2012-03-18T12:23:42Z</time>
      </trkpt>
      <trkpt lat="59.5081868" lon="17.6342476">
        <ele>4.2</ele>
        <time>2012-03-18T12:23:47Z</time>
      </trkpt>
      <trkpt lat="59.5084074" lon="17.6336286">
        <ele>5.2</ele>
        <time>2012-03-18T12:23:52Z</time>
      </trkpt>
      <trkpt lat="59.5086305" lon="17.632998">
        <ele>6.6</ele>
        <time>2012-03-18T12:23:57Z</time>
      </trkpt>
      <trkpt lat="59.5088508" lon="17.6323739">
        <ele>9.2</ele>
        <time>2012-03-18T12:24:02Z</time>
      </trkpt>
      <trkpt lat="59.5090674" lon="17.6317358">
        <ele>10.8</ele>
        <time>2012-03-18T12:24:07Z</time>
      </trkpt>
      <trkpt lat="59.5092878" lon="17.6310924">
        <ele>12</ele>
        <time>2012-03-18T12:24:12Z</time>
      </trkpt>
      <trkpt lat="59.5095082" lon="17.6304557">
        <ele>13</ele>
        <time>2012-03-18T12:24:17Z</time>
      </trkpt>
      <trkpt lat="59.5097312" lon="17.6298421">
        <ele>13.6</ele>
        <time>2012-03-18T12:24:22Z</time>
      </trkpt>
      <trkpt lat="59.5099415" lon="17.6292078">
        <ele>14.4</ele>
        <time>2012-03-18T12:24:27Z</time>
      </trkpt>
      <trkpt lat="59.5101615" lon="17.6285897">
        <ele>15.4</ele>
        <time>2012-03-18T12:24:32Z</time>
      </trkpt>
      <trkpt lat="59.5103899" lon="17.6279604">
        <ele>16.4</ele>
        <time>2012-03-18T12:24:37Z</time>
      </trkpt>
      <trkpt lat="59.5106051" lon="17.62735">
        <ele>18.4</ele>
        <time>2012-03-18T12:24:42Z</time>
      </trkpt>
      <trkpt lat="59.5108232" lon="17.6267514">
        <ele>20.4</ele>
        <time>2012-03-18T12:24:47Z</time>
      </trkpt>
      <trkpt lat="59.5110363" lon="17.626166">
        <ele>22.2</ele>
        <time>2012-03-18T12:24:52Z</time>
      </trkpt>
      <trkpt lat="59.511286" lon="17.6254848">
        <ele>23.6</ele>
        <time>2012-03-18T12:24:58Z</time>
      </trkpt>
      <trkpt lat="59.5115248" lon="17.6248279">
        <ele>23.2</ele>
        <time>2012-03-18T12:25:04Z</time>
      </trkpt>
      <trkpt lat="59.5117615" lon="17.6241307">
        <ele>23</ele>
        <time>2012-03-18T12:25:10Z</time>
      </trkpt>
      <trkpt lat="59.511951" lon="17.623501">
        <ele>22.4</ele>
        <time>2012-03-18T12:25:15Z</time>
      </trkpt>
      <trkpt lat="59.5121214" lon="17.6228495">
        <ele>22</ele>
        <time>2012-03-18T12:25:20Z</time>
      </trkpt>
      <trkpt lat="59.5122767" lon="17.6221907">
        <ele>21.6</ele>
        <time>2012-03-18T12:25:25Z</time>
      </trkpt>
      <trkpt lat="59.5124158" lon="17.6215237">
        <ele>21.8</ele>
        <time>2012-03-18T12:25:30Z</time>
      </trkpt>
      <trkpt lat="59.5125397" lon="17.6208575">
        <ele>22</ele>
        <time>2012-03-18T12:25:35Z</time>
      </trkpt>
      <trkpt lat="59.5126612" lon="17.6200748">
        <ele>22.2</ele>
        <time>2012-03-18T12:25:41Z</time>
      </trkpt>
      <trkpt lat="59.5127597" lon="17.619281">
        <ele>22.2</ele>
        <time>2012-03-18T12:25:47Z</time>
      </trkpt>
      <trkpt lat="59.5128369" lon="17.6184799">
        <ele>22.4</ele>
        <time>2012-03-18T12:25:53Z</time>
      </trkpt>
      <trkpt lat="59.5128873" lon="17.6176733">
        <ele>24</ele>
        <time>2012-03-18T12:25:59Z</time>
      </trkpt>
      <trkpt lat="59.5129493" lon="17.6168828">
        <ele>25.2</ele>
        <time>2012-03-18T12:26:05Z</time>
      </trkpt>
      <trkpt lat="59.5130611" lon="17.6161323">
        <ele>25.8</ele>
        <time>2012-03-18T12:26:11Z</time>
      </trkpt>
      <trkpt lat="59.5131097" lon="17.6157627">
        <ele>25.4</ele>
        <time>2012-03-18T12:26:14Z</time>
      </trkpt>
      <trkpt lat="59.5132421" lon="17.6155018">
        <ele>25.4</ele>
        <time>2012-03-18T12:26:17Z</time>
      </trkpt>
      <trkpt lat="59.5134223" lon="17.6153785">
        <ele>25.8</ele>
        <time>2012-03-18T12:26:20Z</time>
      </trkpt>
      <trkpt lat="59.5136114" lon="17.6152967">
        <ele>25.6</ele>
        <time>2012-03-18T12:26:23Z</time>
      </trkpt>
      <trkpt lat="59.5140081" lon="17.6151842">
        <ele>26.4</ele>
        <time>2012-03-18T12:26:29Z</time>
      </trkpt>
      <trkpt lat="59.5144532" lon="17.6151766">
        <ele>24.8</ele>
        <time>2012-03-18T12:26:35Z</time>
      </trkpt>
      <trkpt lat="59.5148603" lon="17.615151">
        <ele>22.8</ele>
        <time>2012-03-18T12:26:40Z</time>
      </trkpt>
      <trkpt lat="59.51532" lon="17.6150106">
        <ele>20.2</ele>
        <time>2012-03-18T12:26:45Z</time>
      </trkpt>
      <trkpt lat="59.5156821" lon="17.6147996">
        <ele>19.4</ele>
        <time>2012-03-18T12:26:49Z</time>
      </trkpt>
      <trkpt lat="59.5160848" lon="17.6144635">
        <ele>19</ele>
        <time>2012-03-18T12:26:54Z</time>
      </trkpt>
      <trkpt lat="59.5164452" lon="17.614038">
        <ele>17.6</ele>
        <time>2012-03-18T12:26:59Z</time>
      </trkpt>
      <trkpt lat="59.5166753" lon="17.6137421">
        <ele>18.4</ele>
        <time>2012-03-18T12:27:03Z</time>
      </trkpt>
      <trkpt lat="59.516783" lon="17.6137048">
        <ele>18.8</ele>
        <time>2012-03-18T12:27:05Z</time>
      </trkpt>
      <trkpt lat="59.5169136" lon="17.6142475">
        <ele>21</ele>
        <time>2012-03-18T12:27:11Z</time>
      </trkpt>
      <trkpt lat="59.5169184" lon="17.6143817">
        <ele>21.4</ele>
        <time>2012-03-18T12:27:12Z</time>
      </trkpt>
      <trkpt lat="59.5170156" lon="17.615047">
        <ele>23.6</ele>
        <time>2012-03-18T12:27:17Z</time>
      </trkpt>
      <trkpt lat="59.5170452" lon="17.6151687">
        <ele>24.2</ele>
        <time>2012-03-18T12:27:18Z</time>
      </trkpt>
      <trkpt lat="59.5172653" lon="17.6158326">
        <ele>26.4</ele>
        <time>2012-03-18T12:27:24Z</time>
      </trkpt>
      <trkpt lat="59.5175892" lon="17.6163975">
        <ele>25</ele>
        <time>2012-03-18T12:27:30Z</time>
      </trkpt>
      <trkpt lat="59.5179616" lon="17.6168455">
        <ele>23</ele>
        <time>2012-03-18T12:27:35Z</time>
      </trkpt>
      <trkpt lat="59.5182991" lon="17.6172029">
        <ele>21.8</ele>
        <time>2012-03-18T12:27:39Z</time>
      </trkpt>
      <trkpt lat="59.5186536" lon="17.6175187">
        <ele>21.2</ele>
        <time>2012-03-18T12:27:43Z</time>
      </trkpt>
      <trkpt lat="59.5190162" lon="17.6178022">
        <ele>20.8</ele>
        <time>2012-03-18T12:27:47Z</time>
      </trkpt>
      <trkpt lat="59.5193636" lon="17.6180343">
        <ele>20.8</ele>
        <time>2012-03-18T12:27:51Z</time>
      </trkpt>
      <trkpt lat="59.5197807" lon="17.6182752">
        <ele>20.6</ele>
        <time>2012-03-18T12:27:56Z</time>
      </trkpt>
      <trkpt lat="59.5201832" lon="17.6184861">
        <ele>21.4</ele>
        <time>2012-03-18T12:28:01Z</time>
      </trkpt>
      <trkpt lat="59.5205696" lon="17.618699">
        <ele>22</ele>
        <time>2012-03-18T12:28:06Z</time>
      </trkpt>
      <trkpt lat="59.5209337" lon="17.6189165">
        <ele>22.4</ele>
        <time>2012-03-18T12:28:11Z</time>
      </trkpt>
      <trkpt lat="59.521296" lon="17.6191713">
        <ele>22.2</ele>
        <time>2012-03-18T12:28:16Z</time>
      </trkpt>
      <trkpt lat="59.5216752" lon="17.6194507">
        <ele>21.2</ele>
        <time>2012-03-18T12:28:21Z</time>
      </trkpt>
      <trkpt lat="59.5220601" lon="17.6197585">
        <ele>21</ele>
        <time>2012-03-18T12:28:26Z</time>
      </trkpt>
      <trkpt lat="59.5224465" lon="17.6201146">
        <ele>21</ele>
        <time>2012-03-18T12:28:31Z</time>
      </trkpt>
      <trkpt lat="59.5228276" lon="17.6205084">
        <ele>20.8</ele>
        <time>2012-03-18T12:28:36Z</time>
      </trkpt>
      <trkpt lat="59.5232068" lon="17.620931">
        <ele>19.8</ele>
        <time>2012-03-18T12:28:41Z</time>
      </trkpt>
      <trkpt lat="59.5235819" lon="17.6214017">
        <ele>18.6</ele>
        <time>2012-03-18T12:28:46Z</time>
      </trkpt>
      <trkpt lat="59.5238808" lon="17.6218006">
        <ele>18</ele>
        <time>2012-03-18T12:28:50Z</time>
      </trkpt>
      <trkpt lat="59.5242338" lon="17.6222958">
        <ele>17.4</ele>
        <time>2012-03-18T12:28:55Z</time>
      </trkpt>
      <trkpt lat="59.5245811" lon="17.6228383">
        <ele>16.8</ele>
        <time>2012-03-18T12:29:00Z</time>
      </trkpt>
      <trkpt lat="59.5249183" lon="17.6234106">
        <ele>16.4</ele>
        <time>2012-03-18T12:29:05Z</time>
      </trkpt>
      <trkpt lat="59.5251824" lon="17.6238903">
        <ele>16.6</ele>
        <time>2012-03-18T12:29:09Z</time>
      </trkpt>
      <trkpt lat="59.5255069" lon="17.62448">
        <ele>16.4</ele>
        <time>2012-03-18T12:29:14Z</time>
      </trkpt>
      <trkpt lat="59.525832" lon="17.6250643">
        <ele>15.6</ele>
        <time>2012-03-18T12:29:19Z</time>
      </trkpt>
      <trkpt lat="59.5261533" lon="17.6256517">
        <ele>15.2</ele>
        <time>2012-03-18T12:29:24Z</time>
      </trkpt>
      <trkpt lat="59.5264797" lon="17.6262357">
        <ele>15.6</ele>
        <time>2012-03-18T12:29:29Z</time>
      </trkpt>
      <trkpt lat="59.5267532" lon="17.626695">
        <ele>15.2</ele>
        <time>2012-03-18T12:29:33Z</time>
      </trkpt>
      <trkpt lat="59.5270989" lon="17.6272139">
        <ele>15</ele>
        <time>2012-03-18T12:29:38Z</time>
      </trkpt>
      <trkpt lat="59.5274633" lon="17.6277276">
        <ele>14.6</ele>
        <time>2012-03-18T12:29:43Z</time>
      </trkpt>
      <trkpt lat="59.5277598" lon="17.6281282">
        <ele>14.2</ele>
        <time>2012-03-18T12:29:47Z</time>
      </trkpt>
      <trkpt lat="59.5281208" lon="17.6285826">
        <ele>13.8</ele>
        <time>2012-03-18T12:29:52Z</time>
      </trkpt>
      <trkpt lat="59.5284799" lon="17.6290092">
        <ele>13.4</ele>
        <time>2012-03-18T12:29:57Z</time>
      </trkpt>
      <trkpt lat="59.5288595" lon="17.629456">
        <ele>13</ele>
        <time>2012-03-18T12:30:02Z</time>
      </trkpt>
      <trkpt lat="59.5292529" lon="17.6298481">
        <ele>12.6</ele>
        <time>2012-03-18T12:30:07Z</time>
      </trkpt>
      <trkpt lat="59.5296483" lon="17.6302524">
        <ele>12</ele>
        <time>2012-03-18T12:30:12Z</time>
      </trkpt>
      <trkpt lat="59.5300508" lon="17.6306121">
        <ele>11.4</ele>
        <time>2012-03-18T12:30:17Z</time>
      </trkpt>
      <trkpt lat="59.530454" lon="17.6309384">
        <ele>10.4</ele>
        <time>2012-03-18T12:30:22Z</time>
      </trkpt>
      <trkpt lat="59.5308662" lon="17.6312679">
        <ele>9.4</ele>
        <time>2012-03-18T12:30:26Z</time>
      </trkpt>
      <trkpt lat="59.5312704" lon="17.6316164">
        <ele>8.4</ele>
        <time>2012-03-18T12:30:31Z</time>
      </trkpt>
      <trkpt lat="59.531598" lon="17.6318854">
        <ele>7.6</ele>
        <time>2012-03-18T12:30:36Z</time>
      </trkpt>
      <trkpt lat="59.5319903" lon="17.6322074">
        <ele>7.4</ele>
        <time>2012-03-18T12:30:41Z</time>
      </trkpt>
      <trkpt lat="59.5323655" lon="17.6325019">
        <ele>8.4</ele>
        <time>2012-03-18T12:30:46Z</time>
      </trkpt>
      <trkpt lat="59.5327236" lon="17.6327888">
        <ele>9.2</ele>
        <time>2012-03-18T12:30:51Z</time>
      </trkpt>
      <trkpt lat="59.5330827" lon="17.6330398">
        <ele>10</ele>
        <time>2012-03-18T12:30:56Z</time>
      </trkpt>
      <trkpt lat="59.5334538" lon="17.6332647">
        <ele>10.8</ele>
        <time>2012-03-18T12:31:01Z</time>
      </trkpt>
      <trkpt lat="59.5338358" lon="17.6334599">
        <ele>11.2</ele>
        <time>2012-03-18T12:31:06Z</time>
      </trkpt>
      <trkpt lat="59.5342255" lon="17.6336048">
        <ele>11.8</ele>
        <time>2012-03-18T12:31:11Z</time>
      </trkpt>
      <trkpt lat="59.534612" lon="17.6337255">
        <ele>12.2</ele>
        <time>2012-03-18T12:31:16Z</time>
      </trkpt>
      <trkpt lat="59.5350044" lon="17.633833">
        <ele>12.8</ele>
        <time>2012-03-18T12:31:21Z</time>
      </trkpt>
      <trkpt lat="59.5353979" lon="17.6339378">
        <ele>14.2</ele>
        <time>2012-03-18T12:31:26Z</time>
      </trkpt>
      <trkpt lat="59.5357895" lon="17.6340253">
        <ele>14.8</ele>
        <time>2012-03-18T12:31:31Z</time>
      </trkpt>
      <trkpt lat="59.5361609" lon="17.6341092">
        <ele>16</ele>
        <time>2012-03-18T12:31:36Z</time>
      </trkpt>
      <trkpt lat="59.5365445" lon="17.6341742">
        <ele>16</ele>
        <time>2012-03-18T12:31:41Z</time>
      </trkpt>
      <trkpt lat="59.5369331" lon="17.6342318">
        <ele>15.8</ele>
        <time>2012-03-18T12:31:46Z</time>
      </trkpt>
      <trkpt lat="59.5373305" lon="17.6342495">
        <ele>15.8</ele>
        <time>2012-03-18T12:31:51Z</time>
      </trkpt>
      <trkpt lat="59.53772" lon="17.6342504">
        <ele>15.6</ele>
        <time>2012-03-18T12:31:56Z</time>
      </trkpt>
      <trkpt lat="59.5381132" lon="17.6342351">
        <ele>15.4</ele>
        <time>2012-03-18T12:32:01Z</time>
      </trkpt>
      <trkpt lat="59.5385007" lon="17.6341966">
        <ele>15.6</ele>
        <time>2012-03-18T12:32:06Z</time>
      </trkpt>
      <trkpt lat="59.5388888" lon="17.6341334">
        <ele>15.8</ele>
        <time>2012-03-18T12:32:11Z</time>
      </trkpt>
      <trkpt lat="59.5392886" lon="17.6340469">
        <ele>16.4</ele>
        <time>2012-03-18T12:32:16Z</time>
      </trkpt>
      <trkpt lat="59.5396829" lon="17.6339314">
        <ele>16.4</ele>
        <time>2012-03-18T12:32:21Z</time>
      </trkpt>
      <trkpt lat="59.5400655" lon="17.6338083">
        <ele>16.2</ele>
        <time>2012-03-18T12:32:26Z</time>
      </trkpt>
      <trkpt lat="59.5404598" lon="17.6336685">
        <ele>17.2</ele>
        <time>2012-03-18T12:32:31Z</time>
      </trkpt>
      <trkpt lat="59.5408452" lon="17.6335212">
        <ele>18.4</ele>
        <time>2012-03-18T12:32:36Z</time>
      </trkpt>
      <trkpt lat="59.5412356" lon="17.6333721">
        <ele>18.8</ele>
        <time>2012-03-18T12:32:41Z</time>
      </trkpt>
      <trkpt lat="59.5416137" lon="17.6332317">
        <ele>19</ele>
        <time>2012-03-18T12:32:46Z</time>
      </trkpt>
      <trkpt lat="59.541989" lon="17.6331079">
        <ele>19.2</ele>
        <time>2012-03-18T12:32:51Z</time>
      </trkpt>
      <trkpt lat="59.5423701" lon="17.6330046">
        <ele>19.8</ele>
        <time>2012-03-18T12:32:56Z</time>
      </trkpt>
      <trkpt lat="59.5427436" lon="17.6329253">
        <ele>20.2</ele>
        <time>2012-03-18T12:33:01Z</time>
      </trkpt>
      <trkpt lat="59.5431321" lon="17.6328747">
        <ele>20</ele>
        <time>2012-03-18T12:33:06Z</time>
      </trkpt>
      <trkpt lat="59.5435237" lon="17.6328407">
        <ele>19.8</ele>
        <time>2012-03-18T12:33:11Z</time>
      </trkpt>
      <trkpt lat="59.5439122" lon="17.6328385">
        <ele>19.6</ele>
        <time>2012-03-18T12:33:16Z</time>
      </trkpt>
      <trkpt lat="59.5443076" lon="17.6328479">
        <ele>19.4</ele>
        <time>2012-03-18T12:33:21Z</time>
      </trkpt>
      <trkpt lat="59.54469" lon="17.6328601">
        <ele>19</ele>
        <time>2012-03-18T12:33:26Z</time>
      </trkpt>
      <trkpt lat="59.5450699" lon="17.6328686">
        <ele>18.6</ele>
        <time>2012-03-18T12:33:31Z</time>
      </trkpt>
      <trkpt lat="59.5454482" lon="17.632887">
        <ele>18.2</ele>
        <time>2012-03-18T12:33:36Z</time>
      </trkpt>
      <trkpt lat="59.545822" lon="17.6329026">
        <ele>18</ele>
        <time>2012-03-18T12:33:41Z</time>
      </trkpt>
      <trkpt lat="59.546182" lon="17.6329199">
        <ele>17.6</ele>
        <time>2012-03-18T12:33:46Z</time>
      </trkpt>
      <trkpt lat="59.5466071" lon="17.6329388">
        <ele>16.8</ele>
        <time>2012-03-18T12:33:52Z</time>
      </trkpt>
      <trkpt lat="59.5470235" lon="17.632952">
        <ele>16.4</ele>
        <time>2012-03-18T12:33:58Z</time>
      </trkpt>
      <trkpt lat="59.5474467" lon="17.6329639">
        <ele>16</ele>
        <time>2012-03-18T12:34:04Z</time>
      </trkpt>
      <trkpt lat="59.5478627" lon="17.6329694">
        <ele>18.6</ele>
        <time>2012-03-18T12:34:10Z</time>
      </trkpt>
      <trkpt lat="59.5482854" lon="17.6329756">
        <ele>22.4</ele>
        <time>2012-03-18T12:34:16Z</time>
      </trkpt>
      <trkpt lat="59.5486429" lon="17.6329823">
        <ele>23.8</ele>
        <time>2012-03-18T12:34:21Z</time>
      </trkpt>
      <trkpt lat="59.549015" lon="17.6329994">
        <ele>23.6</ele>
        <time>2012-03-18T12:34:26Z</time>
      </trkpt>
      <trkpt lat="59.549388" lon="17.6330136">
        <ele>23.2</ele>
        <time>2012-03-18T12:34:31Z</time>
      </trkpt>
      <trkpt lat="59.5497494" lon="17.6330276">
        <ele>21.8</ele>
        <time>2012-03-18T12:34:36Z</time>
      </trkpt>
      <trkpt lat="59.5501124" lon="17.6330436">
        <ele>20</ele>
        <time>2012-03-18T12:34:41Z</time>
      </trkpt>
      <trkpt lat="59.5504801" lon="17.6330512">
        <ele>21.2</ele>
        <time>2012-03-18T12:34:46Z</time>
      </trkpt>
      <trkpt lat="59.5508362" lon="17.6330616">
        <ele>21.8</ele>
        <time>2012-03-18T12:34:51Z</time>
      </trkpt>
      <trkpt lat="59.5511992" lon="17.6330741">
        <ele>23</ele>
        <time>2012-03-18T12:34:56Z</time>
      </trkpt>
      <trkpt lat="59.5515618" lon="17.6330785">
        <ele>23.6</ele>
        <time>2012-03-18T12:35:01Z</time>
      </trkpt>
      <trkpt lat="59.5519234" lon="17.6331075">
        <ele>24.6</ele>
        <time>2012-03-18T12:35:06Z</time>
      </trkpt>
      <trkpt lat="59.5523368" lon="17.6331711">
        <ele>25.4</ele>
        <time>2012-03-18T12:35:12Z</time>
      </trkpt>
      <trkpt lat="59.5527416" lon="17.6332574">
        <ele>25.6</ele>
        <time>2012-03-18T12:35:18Z</time>
      </trkpt>
      <trkpt lat="59.5531521" lon="17.6333627">
        <ele>27</ele>
        <time>2012-03-18T12:35:24Z</time>
      </trkpt>
      <trkpt lat="59.5535571" lon="17.6335114">
        <ele>26.8</ele>
        <time>2012-03-18T12:35:30Z</time>
      </trkpt>
      <trkpt lat="59.5539732" lon="17.633669">
        <ele>30</ele>
        <time>2012-03-18T12:35:36Z</time>
      </trkpt>
      <trkpt lat="59.554336" lon="17.6338347">
        <ele>32</ele>
        <time>2012-03-18T12:35:42Z</time>
      </trkpt>
      <trkpt lat="59.5547292" lon="17.6340475">
        <ele>33.4</ele>
        <time>2012-03-18T12:35:49Z</time>
      </trkpt>
      <trkpt lat="59.5550744" lon="17.6342465">
        <ele>34</ele>
        <time>2012-03-18T12:35:55Z</time>
      </trkpt>
      <trkpt lat="59.5554537" lon="17.6344832">
        <ele>34.2</ele>
        <time>2012-03-18T12:36:01Z</time>
      </trkpt>
      <trkpt lat="59.5558206" lon="17.6347392">
        <ele>34.8</ele>
        <time>2012-03-18T12:36:07Z</time>
      </trkpt>
      <trkpt lat="59.5561807" lon="17.6350121">
        <ele>35</ele>
        <time>2012-03-18T12:36:13Z</time>
      </trkpt>
      <trkpt lat="59.5565527" lon="17.6353218">
        <ele>36.2</ele>
        <time>2012-03-18T12:36:19Z</time>
      </trkpt>
      <trkpt lat="59.5569251" lon="17.6356514">
        <ele>37</ele>
        <time>2012-03-18T12:36:25Z</time>
      </trkpt>
      <trkpt lat="59.557297" lon="17.6359673">
        <ele>38</ele>
        <time>2012-03-18T12:36:31Z</time>
      </trkpt>
      <trkpt lat="59.5576679" lon="17.6362854">
        <ele>38.4</ele>
        <time>2012-03-18T12:36:37Z</time>
      </trkpt>
      <trkpt lat="59.5580503" lon="17.6366099">
        <ele>38.4</ele>
        <time>2012-03-18T12:36:43Z</time>
      </trkpt>
      <trkpt lat="59.5583877" lon="17.6368878">
        <ele>38.6</ele>
        <time>2012-03-18T12:36:48Z</time>
      </trkpt>
      <trkpt lat="59.5587907" lon="17.6371945">
        <ele>38.8</ele>
        <time>2012-03-18T12:36:54Z</time>
      </trkpt>
      <trkpt lat="59.5591939" lon="17.6374741">
        <ele>39.2</ele>
        <time>2012-03-18T12:37:00Z</time>
      </trkpt>
      <trkpt lat="59.5595643" lon="17.6376998">
        <ele>40.6</ele>
        <time>2012-03-18T12:37:06Z</time>
      </trkpt>
      <trkpt lat="59.5599132" lon="17.6378806">
        <ele>42.6</ele>
        <time>2012-03-18T12:37:12Z</time>
      </trkpt>
      <trkpt lat="59.5602812" lon="17.6380661">
        <ele>45</ele>
        <time>2012-03-18T12:37:19Z</time>
      </trkpt>
      <trkpt lat="59.5606755" lon="17.6382376">
        <ele>46.6</ele>
        <time>2012-03-18T12:37:26Z</time>
      </trkpt>
      <trkpt lat="59.5610308" lon="17.6383775">
        <ele>47.2</ele>
        <time>2012-03-18T12:37:32Z</time>
      </trkpt>
      <trkpt lat="59.5614262" lon="17.6385123">
        <ele>45.8</ele>
        <time>2012-03-18T12:37:39Z</time>
      </trkpt>
      <trkpt lat="59.5618697" lon="17.6386281">
        <ele>44</ele>
        <time>2012-03-18T12:37:46Z</time>
      </trkpt>
      <trkpt lat="59.5621969" lon="17.6386944">
        <ele>40.6</ele>
        <time>2012-03-18T12:37:53Z</time>
      </trkpt>
      <trkpt lat="59.5625514" lon="17.6387385">
        <ele>38.8</ele>
        <time>2012-03-18T12:38:00Z</time>
      </trkpt>
      <trkpt lat="59.5629595" lon="17.6387852">
        <ele>39.6</ele>
        <time>2012-03-18T12:38:07Z</time>
      </trkpt>
      <trkpt lat="59.563393" lon="17.6388048">
        <ele>39.8</ele>
        <time>2012-03-18T12:38:13Z</time>
      </trkpt>
      <trkpt lat="59.5637723" lon="17.6387941">
        <ele>40.8</ele>
        <time>2012-03-18T12:38:18Z</time>
      </trkpt>
      <trkpt lat="59.5641696" lon="17.6387464">
        <ele>43.4</ele>
        <time>2012-03-18T12:38:23Z</time>
      </trkpt>
      <trkpt lat="59.5645577" lon="17.6386799">
        <ele>44</ele>
        <time>2012-03-18T12:38:28Z</time>
      </trkpt>
      <trkpt lat="59.5649899" lon="17.6385862">
        <ele>44.8</ele>
        <time>2012-03-18T12:38:34Z</time>
      </trkpt>
      <trkpt lat="59.5653631" lon="17.6385155">
        <ele>44.6</ele>
        <time>2012-03-18T12:38:39Z</time>
      </trkpt>
      <trkpt lat="59.5657537" lon="17.6384414">
        <ele>43.6</ele>
        <time>2012-03-18T12:38:44Z</time>
      </trkpt>
      <trkpt lat="59.5661396" lon="17.6383577">
        <ele>42</ele>
        <time>2012-03-18T12:38:49Z</time>
      </trkpt>
      <trkpt lat="59.5665317" lon="17.6382833">
        <ele>40.4</ele>
        <time>2012-03-18T12:38:54Z</time>
      </trkpt>
      <trkpt lat="59.5669291" lon="17.6382118">
        <ele>39.6</ele>
        <time>2012-03-18T12:38:59Z</time>
      </trkpt>
      <trkpt lat="59.567319" lon="17.6381361">
        <ele>39.2</ele>
        <time>2012-03-18T12:39:04Z</time>
      </trkpt>
      <trkpt lat="59.5677123" lon="17.6380557">
        <ele>38.4</ele>
        <time>2012-03-18T12:39:09Z</time>
      </trkpt>
      <trkpt lat="59.5681364" lon="17.6379596">
        <ele>37</ele>
        <time>2012-03-18T12:39:14Z</time>
      </trkpt>
      <trkpt lat="59.5685748" lon="17.6378933">
        <ele>35.8</ele>
        <time>2012-03-18T12:39:19Z</time>
      </trkpt>
      <trkpt lat="59.569014" lon="17.637804">
        <ele>33.8</ele>
        <time>2012-03-18T12:39:24Z</time>
      </trkpt>
      <trkpt lat="59.5694641" lon="17.6377108">
        <ele>32.4</ele>
        <time>2012-03-18T12:39:29Z</time>
      </trkpt>
      <trkpt lat="59.5698398" lon="17.6376325">
        <ele>31.2</ele>
        <time>2012-03-18T12:39:33Z</time>
      </trkpt>
      <trkpt lat="59.5702312" lon="17.6375555">
        <ele>30</ele>
        <time>2012-03-18T12:39:37Z</time>
      </trkpt>
      <trkpt lat="59.5706338" lon="17.6374707">
        <ele>29.2</ele>
        <time>2012-03-18T12:39:41Z</time>
      </trkpt>
      <trkpt lat="59.571039" lon="17.6373807">
        <ele>27.4</ele>
        <time>2012-03-18T12:39:45Z</time>
      </trkpt>
      <trkpt lat="59.5714392" lon="17.6372737">
        <ele>26</ele>
        <time>2012-03-18T12:39:49Z</time>
      </trkpt>
      <trkpt lat="59.5718268" lon="17.6371333">
        <ele>24.4</ele>
        <time>2012-03-18T12:39:53Z</time>
      </trkpt>
      <trkpt lat="59.5722041" lon="17.6369718">
        <ele>23</ele>
        <time>2012-03-18T12:39:57Z</time>
      </trkpt>
      <trkpt lat="59.5725722" lon="17.63679">
        <ele>22.6</ele>
        <time>2012-03-18T12:40:01Z</time>
      </trkpt>
      <trkpt lat="59.5729376" lon="17.636578">
        <ele>21.6</ele>
        <time>2012-03-18T12:40:05Z</time>
      </trkpt>
      <trkpt lat="59.5732943" lon="17.636347">
        <ele>21.6</ele>
        <time>2012-03-18T12:40:09Z</time>
      </trkpt>
      <trkpt lat="59.5736436" lon="17.6360942">
        <ele>21.4</ele>
        <time>2012-03-18T12:40:13Z</time>
      </trkpt>
      <trkpt lat="59.5740631" lon="17.6357457">
        <ele>20.2</ele>
        <time>2012-03-18T12:40:18Z</time>
      </trkpt>
      <trkpt lat="59.574459" lon="17.635398">
        <ele>23.2</ele>
        <time>2012-03-18T12:40:23Z</time>
      </trkpt>
      <trkpt lat="59.5748554" lon="17.6350535">
        <ele>24.6</ele>
        <time>2012-03-18T12:40:28Z</time>
      </trkpt>
      <trkpt lat="59.5752483" lon="17.6346926">
        <ele>25</ele>
        <time>2012-03-18T12:40:33Z</time>
      </trkpt>
      <trkpt lat="59.5757094" lon="17.6342573">
        <ele>24.6</ele>
        <time>2012-03-18T12:40:38Z</time>
      </trkpt>
      <trkpt lat="59.57609" lon="17.6339015">
        <ele>24.2</ele>
        <time>2012-03-18T12:40:43Z</time>
      </trkpt>
      <trkpt lat="59.576394" lon="17.6336176">
        <ele>23.6</ele>
        <time>2012-03-18T12:40:48Z</time>
      </trkpt>
      <trkpt lat="59.5768353" lon="17.633225">
        <ele>22.4</ele>
        <time>2012-03-18T12:40:53Z</time>
      </trkpt>
      <trkpt lat="59.5771966" lon="17.6329512">
        <ele>23</ele>
        <time>2012-03-18T12:40:58Z</time>
      </trkpt>
      <trkpt lat="59.5774869" lon="17.6327596">
        <ele>23.8</ele>
        <time>2012-03-18T12:41:03Z</time>
      </trkpt>
      <trkpt lat="59.577916" lon="17.632493">
        <ele>25.4</ele>
        <time>2012-03-18T12:41:08Z</time>
      </trkpt>
      <trkpt lat="59.5782712" lon="17.632295">
        <ele>27.2</ele>
        <time>2012-03-18T12:41:13Z</time>
      </trkpt>
      <trkpt lat="59.5786325" lon="17.6320971">
        <ele>27.8</ele>
        <time>2012-03-18T12:41:18Z</time>
      </trkpt>
      <trkpt lat="59.578985" lon="17.6319258">
        <ele>28.2</ele>
        <time>2012-03-18T12:41:23Z</time>
      </trkpt>
      <trkpt lat="59.5793914" lon="17.6317391">
        <ele>28.4</ele>
        <time>2012-03-18T12:41:29Z</time>
      </trkpt>
      <trkpt lat="59.5797921" lon="17.6315575">
        <ele>28.6</ele>
        <time>2012-03-18T12:41:35Z</time>
      </trkpt>
      <trkpt lat="59.5802005" lon="17.6313799">
        <ele>29.6</ele>
        <time>2012-03-18T12:41:41Z</time>
      </trkpt>
      <trkpt lat="59.5805553" lon="17.631231">
        <ele>30.6</ele>
        <time>2012-03-18T12:41:46Z</time>
      </trkpt>
      <trkpt lat="59.5809097" lon="17.6310781">
        <ele>31</ele>
        <time>2012-03-18T12:41:51Z</time>
      </trkpt>
      <trkpt lat="59.5812596" lon="17.6309254">
        <ele>31.4</ele>
        <time>2012-03-18T12:41:57Z</time>
      </trkpt>
      <trkpt lat="59.5816106" lon="17.630772">
        <ele>31.8</ele>
        <time>2012-03-18T12:42:02Z</time>
      </trkpt>
      <trkpt lat="59.5820325" lon="17.6305848">
        <ele>31.8</ele>
        <time>2012-03-18T12:42:07Z</time>
      </trkpt>
      <trkpt lat="59.5824444" lon="17.6303993">
        <ele>32</ele>
        <time>2012-03-18T12:42:13Z</time>
      </trkpt>
      <trkpt lat="59.5828476" lon="17.6302138">
        <ele>32</ele>
        <time>2012-03-18T12:42:19Z</time>
      </trkpt>
      <trkpt lat="59.5832315" lon="17.6300154">
        <ele>32.4</ele>
        <time>2012-03-18T12:42:25Z</time>
      </trkpt>
      <trkpt lat="59.5836238" lon="17.6297639">
        <ele>32.4</ele>
        <time>2012-03-18T12:42:31Z</time>
      </trkpt>
      <trkpt lat="59.5840244" lon="17.6294928">
        <ele>32.8</ele>
        <time>2012-03-18T12:42:37Z</time>
      </trkpt>
      <trkpt lat="59.5844208" lon="17.6291856">
        <ele>34.2</ele>
        <time>2012-03-18T12:42:43Z</time>
      </trkpt>
      <trkpt lat="59.5847543" lon="17.6288975">
        <ele>35</ele>
        <time>2012-03-18T12:42:48Z</time>
      </trkpt>
      <trkpt lat="59.5850991" lon="17.6285768">
        <ele>36.8</ele>
        <time>2012-03-18T12:42:53Z</time>
      </trkpt>
      <trkpt lat="59.5854448" lon="17.6282169">
        <ele>37.8</ele>
        <time>2012-03-18T12:42:58Z</time>
      </trkpt>
      <trkpt lat="59.5857186" lon="17.6279087">
        <ele>35.8</ele>
        <time>2012-03-18T12:43:03Z</time>
      </trkpt>
      <trkpt lat="59.5861075" lon="17.627434">
        <ele>34.6</ele>
        <time>2012-03-18T12:43:08Z</time>
      </trkpt>
      <trkpt lat="59.58642" lon="17.6270257">
        <ele>35.6</ele>
        <time>2012-03-18T12:43:13Z</time>
      </trkpt>
      <trkpt lat="59.5867241" lon="17.6265973">
        <ele>37.4</ele>
        <time>2012-03-18T12:43:18Z</time>
      </trkpt>
      <trkpt lat="59.5870237" lon="17.6261462">
        <ele>37.8</ele>
        <time>2012-03-18T12:43:23Z</time>
      </trkpt>
      <trkpt lat="59.5873211" lon="17.6257038">
        <ele>37</ele>
        <time>2012-03-18T12:43:28Z</time>
      </trkpt>
      <trkpt lat="59.587565" lon="17.625332">
        <ele>35.6</ele>
        <time>2012-03-18T12:43:33Z</time>
      </trkpt>
      <trkpt lat="59.5879395" lon="17.624784">
        <ele>35.2</ele>
        <time>2012-03-18T12:43:38Z</time>
      </trkpt>
      <trkpt lat="59.5882513" lon="17.6243246">
        <ele>34.6</ele>
        <time>2012-03-18T12:43:43Z</time>
      </trkpt>
      <trkpt lat="59.5885783" lon="17.6238537">
        <ele>33.4</ele>
        <time>2012-03-18T12:43:48Z</time>
      </trkpt>
      <trkpt lat="59.5888745" lon="17.6233865">
        <ele>33.8</ele>
        <time>2012-03-18T12:43:53Z</time>
      </trkpt>
      <trkpt lat="59.5891779" lon="17.6229336">
        <ele>33.8</ele>
        <time>2012-03-18T12:43:58Z</time>
      </trkpt>
      <trkpt lat="59.5894143" lon="17.6225819">
        <ele>34.4</ele>
        <time>2012-03-18T12:44:03Z</time>
      </trkpt>
      <trkpt lat="59.5897974" lon="17.622002">
        <ele>32.4</ele>
        <time>2012-03-18T12:44:08Z</time>
      </trkpt>
      <trkpt lat="59.5901051" lon="17.621555">
        <ele>33.8</ele>
        <time>2012-03-18T12:44:13Z</time>
      </trkpt>
      <trkpt lat="59.5904173" lon="17.6210995">
        <ele>35</ele>
        <time>2012-03-18T12:44:18Z</time>
      </trkpt>
      <trkpt lat="59.5907468" lon="17.6206048">
        <ele>33.8</ele>
        <time>2012-03-18T12:44:23Z</time>
      </trkpt>
      <trkpt lat="59.5910881" lon="17.6201012">
        <ele>30</ele>
        <time>2012-03-18T12:44:28Z</time>
      </trkpt>
      <trkpt lat="59.5914257" lon="17.6196203">
        <ele>25.4</ele>
        <time>2012-03-18T12:44:33Z</time>
      </trkpt>
      <trkpt lat="59.5917597" lon="17.6191289">
        <ele>22.2</ele>
        <time>2012-03-18T12:44:38Z</time>
      </trkpt>
      <trkpt lat="59.592099" lon="17.618664">
        <ele>20</ele>
        <time>2012-03-18T12:44:43Z</time>
      </trkpt>
      <trkpt lat="59.5924509" lon="17.6182104">
        <ele>18.4</ele>
        <time>2012-03-18T12:44:48Z</time>
      </trkpt>
      <trkpt lat="59.5928033" lon="17.6177757">
        <ele>17.2</ele>
        <time>2012-03-18T12:44:53Z</time>
      </trkpt>
      <trkpt lat="59.5931528" lon="17.6173591">
        <ele>16.2</ele>
        <time>2012-03-18T12:44:58Z</time>
      </trkpt>
      <trkpt lat="59.5934264" lon="17.6170388">
        <ele>15.6</ele>
        <time>2012-03-18T12:45:03Z</time>
      </trkpt>
      <trkpt lat="59.5938325" lon="17.6166037">
        <ele>18</ele>
        <time>2012-03-18T12:45:08Z</time>
      </trkpt>
      <trkpt lat="59.5941729" lon="17.6162576">
        <ele>20.8</ele>
        <time>2012-03-18T12:45:13Z</time>
      </trkpt>
      <trkpt lat="59.59451" lon="17.6159181">
        <ele>24.6</ele>
        <time>2012-03-18T12:45:18Z</time>
      </trkpt>
      <trkpt lat="59.5948457" lon="17.615571">
        <ele>25.4</ele>
        <time>2012-03-18T12:45:23Z</time>
      </trkpt>
      <trkpt lat="59.5951884" lon="17.6152311">
        <ele>26.2</ele>
        <time>2012-03-18T12:45:28Z</time>
      </trkpt>
      <trkpt lat="59.5955254" lon="17.6149172">
        <ele>28.8</ele>
        <time>2012-03-18T12:45:33Z</time>
      </trkpt>
      <trkpt lat="59.5958483" lon="17.6146385">
        <ele>30.6</ele>
        <time>2012-03-18T12:45:38Z</time>
      </trkpt>
      <trkpt lat="59.5959112" lon="17.6146235">
        <ele>31</ele>
        <time>2012-03-18T12:45:39Z</time>
      </trkpt>
      <trkpt lat="59.5961764" lon="17.6149255">
        <ele>31.8</ele>
        <time>2012-03-18T12:45:44Z</time>
      </trkpt>
      <trkpt lat="59.5962262" lon="17.6150111">
        <ele>31.6</ele>
        <time>2012-03-18T12:45:45Z</time>
      </trkpt>
      <trkpt lat="59.5965126" lon="17.61554">
        <ele>31</ele>
        <time>2012-03-18T12:45:50Z</time>
      </trkpt>
      <trkpt lat="59.5968204" lon="17.6161793">
        <ele>30.6</ele>
        <time>2012-03-18T12:45:55Z</time>
      </trkpt>
      <trkpt lat="59.5970744" lon="17.6167046">
        <ele>30.2</ele>
        <time>2012-03-18T12:45:59Z</time>
      </trkpt>
      <trkpt lat="59.5972611" lon="17.6171034">
        <ele>29.8</ele>
        <time>2012-03-18T12:46:03Z</time>
      </trkpt>
      <trkpt lat="59.5975756" lon="17.617772">
        <ele>29</ele>
        <time>2012-03-18T12:46:07Z</time>
      </trkpt>
      <trkpt lat="59.5978287" lon="17.6183169">
        <ele>28.8</ele>
        <time>2012-03-18T12:46:11Z</time>
      </trkpt>
      <trkpt lat="59.5980768" lon="17.6188444">
        <ele>28.2</ele>
        <time>2012-03-18T12:46:15Z</time>
      </trkpt>
      <trkpt lat="59.5983148" lon="17.6193801">
        <ele>27</ele>
        <time>2012-03-18T12:46:19Z</time>
      </trkpt>
      <trkpt lat="59.5985311" lon="17.6199454">
        <ele>25.4</ele>
        <time>2012-03-18T12:46:23Z</time>
      </trkpt>
      <trkpt lat="59.5987344" lon="17.6207171">
        <ele>24.6</ele>
        <time>2012-03-18T12:46:28Z</time>
      </trkpt>
      <trkpt lat="59.5988626" lon="17.6215087">
        <ele>24.8</ele>
        <time>2012-03-18T12:46:33Z</time>
      </trkpt>
      <trkpt lat="59.5989306" lon="17.6222934">
        <ele>26</ele>
        <time>2012-03-18T12:46:38Z</time>
      </trkpt>
      <trkpt lat="59.5989276" lon="17.6230572">
        <ele>28.8</ele>
        <time>2012-03-18T12:46:43Z</time>
      </trkpt>
      <trkpt lat="59.5988665" lon="17.6237871">
        <ele>31</ele>
        <time>2012-03-18T12:46:48Z</time>
      </trkpt>
      <trkpt lat="59.598752" lon="17.6245078">
        <ele>31.2</ele>
        <time>2012-03-18T12:46:53Z</time>
      </trkpt>
      <trkpt lat="59.5985821" lon="17.6252627">
        <ele>30.2</ele>
        <time>2012-03-18T12:46:58Z</time>
      </trkpt>
      <trkpt lat="59.5983732" lon="17.6260169">
        <ele>28.6</ele>
        <time>2012-03-18T12:47:03Z</time>
      </trkpt>
      <trkpt lat="59.5981733" lon="17.6267654">
        <ele>27.6</ele>
        <time>2012-03-18T12:47:08Z</time>
      </trkpt>
      <trkpt lat="59.5980697" lon="17.6275715">
        <ele>26.4</ele>
        <time>2012-03-18T12:47:13Z</time>
      </trkpt>
      <trkpt lat="59.5980133" lon="17.6283822">
        <ele>24.6</ele>
        <time>2012-03-18T12:47:18Z</time>
      </trkpt>
      <trkpt lat="59.5978899" lon="17.6292015">
        <ele>23.2</ele>
        <time>2012-03-18T12:47:23Z</time>
      </trkpt>
      <trkpt lat="59.5977468" lon="17.6299944">
        <ele>22.2</ele>
        <time>2012-03-18T12:47:28Z</time>
      </trkpt>
      <trkpt lat="59.5976806" lon="17.630292">
        <ele>21.8</ele>
        <time>2012-03-18T12:47:30Z</time>
      </trkpt>
      <trkpt lat="59.5975512" lon="17.6306712">
        <ele>21.8</ele>
        <time>2012-03-18T12:47:33Z</time>
      </trkpt>
      <trkpt lat="59.5973777" lon="17.6313944">
        <ele>24.2</ele>
        <time>2012-03-18T12:47:39Z</time>
      </trkpt>
      <trkpt lat="59.5971908" lon="17.632126">
        <ele>24.8</ele>
        <time>2012-03-18T12:47:44Z</time>
      </trkpt>
      <trkpt lat="59.5970079" lon="17.6327479">
        <ele>24.6</ele>
        <time>2012-03-18T12:47:48Z</time>
      </trkpt>
      <trkpt lat="59.5968208" lon="17.6333968">
        <ele>24</ele>
        <time>2012-03-18T12:47:52Z</time>
      </trkpt>
      <trkpt lat="59.5966258" lon="17.6340714">
        <ele>22.8</ele>
        <time>2012-03-18T12:47:56Z</time>
      </trkpt>
      <trkpt lat="59.5964192" lon="17.6347837">
        <ele>21.4</ele>
        <time>2012-03-18T12:48:00Z</time>
      </trkpt>
      <trkpt lat="59.5962116" lon="17.635516">
        <ele>20.8</ele>
        <time>2012-03-18T12:48:04Z</time>
      </trkpt>
      <trkpt lat="59.5960007" lon="17.6362163">
        <ele>20.6</ele>
        <time>2012-03-18T12:48:08Z</time>
      </trkpt>
      <trkpt lat="59.5957828" lon="17.6368975">
        <ele>20.4</ele>
        <time>2012-03-18T12:48:12Z</time>
      </trkpt>
      <trkpt lat="59.5955491" lon="17.6375256">
        <ele>20.4</ele>
        <time>2012-03-18T12:48:16Z</time>
      </trkpt>
      <trkpt lat="59.5953161" lon="17.638127">
        <ele>20</ele>
        <time>2012-03-18T12:48:20Z</time>
      </trkpt>
      <trkpt lat="59.5950861" lon="17.6387614">
        <ele>19.4</ele>
        <time>2012-03-18T12:48:24Z</time>
      </trkpt>
      <trkpt lat="59.5948746" lon="17.639439">
        <ele>19</ele>
        <time>2012-03-18T12:48:28Z</time>
      </trkpt>
      <trkpt lat="59.5946595" lon="17.6401237">
        <ele>18.8</ele>
        <time>2012-03-18T12:48:32Z</time>
      </trkpt>
      <trkpt lat="59.5944284" lon="17.6407916">
        <ele>18.8</ele>
        <time>2012-03-18T12:48:36Z</time>
      </trkpt>
      <trkpt lat="59.5941758" lon="17.6414276">
        <ele>18</ele>
        <time>2012-03-18T12:48:40Z</time>
      </trkpt>
      <trkpt lat="59.593903" lon="17.6420193">
        <ele>17</ele>
        <time>2012-03-18T12:48:44Z</time>
      </trkpt>
      <trkpt lat="59.5936118" lon="17.6425641">
        <ele>16.6</ele>
        <time>2012-03-18T12:48:48Z</time>
      </trkpt>
      <trkpt lat="59.5933009" lon="17.6430748">
        <ele>16.8</ele>
        <time>2012-03-18T12:48:52Z</time>
      </trkpt>
      <trkpt lat="59.5929875" lon="17.643534">
        <ele>17.4</ele>
        <time>2012-03-18T12:48:56Z</time>
      </trkpt>
      <trkpt lat="59.5926984" lon="17.643998">
        <ele>18.6</ele>
        <time>2012-03-18T12:49:00Z</time>
      </trkpt>
      <trkpt lat="59.5923934" lon="17.6446569">
        <ele>18.8</ele>
        <time>2012-03-18T12:49:05Z</time>
      </trkpt>
      <trkpt lat="59.5921478" lon="17.6451987">
        <ele>18.2</ele>
        <time>2012-03-18T12:49:09Z</time>
      </trkpt>
      <trkpt lat="59.5918924" lon="17.6457214">
        <ele>17.6</ele>
        <time>2012-03-18T12:49:13Z</time>
      </trkpt>
      <trkpt lat="59.5916256" lon="17.6462057">
        <ele>17.6</ele>
        <time>2012-03-18T12:49:17Z</time>
      </trkpt>
      <trkpt lat="59.5914159" lon="17.6465533">
        <ele>18</ele>
        <time>2012-03-18T12:49:21Z</time>
      </trkpt>
      <trkpt lat="59.5910399" lon="17.6470585">
        <ele>18.4</ele>
        <time>2012-03-18T12:49:25Z</time>
      </trkpt>
      <trkpt lat="59.5906683" lon="17.6475469">
        <ele>17.8</ele>
        <time>2012-03-18T12:49:30Z</time>
      </trkpt>
      <trkpt lat="59.5903208" lon="17.6480666">
        <ele>18.2</ele>
        <time>2012-03-18T12:49:35Z</time>
      </trkpt>
      <trkpt lat="59.5900365" lon="17.6486938">
        <ele>17.4</ele>
        <time>2012-03-18T12:49:40Z</time>
      </trkpt>
      <trkpt lat="59.5898063" lon="17.6494056">
        <ele>17</ele>
        <time>2012-03-18T12:49:45Z</time>
      </trkpt>
      <trkpt lat="59.5896125" lon="17.650127">
        <ele>16.6</ele>
        <time>2012-03-18T12:49:50Z</time>
      </trkpt>
      <trkpt lat="59.5894273" lon="17.650825">
        <ele>16.8</ele>
        <time>2012-03-18T12:49:55Z</time>
      </trkpt>
      <trkpt lat="59.5892541" lon="17.6514895">
        <ele>17.4</ele>
        <time>2012-03-18T12:50:00Z</time>
      </trkpt>
      <trkpt lat="59.5890891" lon="17.6521505">
        <ele>19</ele>
        <time>2012-03-18T12:50:05Z</time>
      </trkpt>
      <trkpt lat="59.5889236" lon="17.6528073">
        <ele>19.2</ele>
        <time>2012-03-18T12:50:10Z</time>
      </trkpt>
      <trkpt lat="59.5887542" lon="17.6534712">
        <ele>19.4</ele>
        <time>2012-03-18T12:50:15Z</time>
      </trkpt>
      <trkpt lat="59.5885856" lon="17.6541323">
        <ele>19.6</ele>
        <time>2012-03-18T12:50:20Z</time>
      </trkpt>
      <trkpt lat="59.5884107" lon="17.6547988">
        <ele>19.8</ele>
        <time>2012-03-18T12:50:25Z</time>
      </trkpt>
      <trkpt lat="59.588226" lon="17.6554879">
        <ele>19.6</ele>
        <time>2012-03-18T12:50:30Z</time>
      </trkpt>
      <trkpt lat="59.5880245" lon="17.6561524">
        <ele>19.4</ele>
        <time>2012-03-18T12:50:35Z</time>
      </trkpt>
      <trkpt lat="59.5877986" lon="17.6567846">
        <ele>19.2</ele>
        <time>2012-03-18T12:50:40Z</time>
      </trkpt>
      <trkpt lat="59.587552" lon="17.6573948">
        <ele>18.8</ele>
        <time>2012-03-18T12:50:45Z</time>
      </trkpt>
      <trkpt lat="59.5872991" lon="17.6580085">
        <ele>19.2</ele>
        <time>2012-03-18T12:50:50Z</time>
      </trkpt>
      <trkpt lat="59.5870543" lon="17.6586021">
        <ele>19.6</ele>
        <time>2012-03-18T12:50:55Z</time>
      </trkpt>
      <trkpt lat="59.5868117" lon="17.6591917">
        <ele>19.4</ele>
        <time>2012-03-18T12:51:00Z</time>
      </trkpt>
      <trkpt lat="59.5865682" lon="17.6597864">
        <ele>19.2</ele>
        <time>2012-03-18T12:51:05Z</time>
      </trkpt>
      <trkpt lat="59.5863346" lon="17.6603563">
        <ele>20</ele>
        <time>2012-03-18T12:51:10Z</time>
      </trkpt>
      <trkpt lat="59.5860649" lon="17.6610152">
        <ele>20.8</ele>
        <time>2012-03-18T12:51:16Z</time>
      </trkpt>
      <trkpt lat="59.5857908" lon="17.6616813">
        <ele>21.8</ele>
        <time>2012-03-18T12:51:22Z</time>
      </trkpt>
      <trkpt lat="59.5855307" lon="17.6623403">
        <ele>22</ele>
        <time>2012-03-18T12:51:28Z</time>
      </trkpt>
      <trkpt lat="59.5852915" lon="17.6630174">
        <ele>22</ele>
        <time>2012-03-18T12:51:34Z</time>
      </trkpt>
      <trkpt lat="59.5850678" lon="17.6637228">
        <ele>21.6</ele>
        <time>2012-03-18T12:51:40Z</time>
      </trkpt>
      <trkpt lat="59.5848553" lon="17.6644519">
        <ele>22</ele>
        <time>2012-03-18T12:51:46Z</time>
      </trkpt>
      <trkpt lat="59.5846885" lon="17.6650888">
        <ele>21.6</ele>
        <time>2012-03-18T12:51:51Z</time>
      </trkpt>
      <trkpt lat="59.5845159" lon="17.6657647">
        <ele>21.2</ele>
        <time>2012-03-18T12:51:56Z</time>
      </trkpt>
      <trkpt lat="59.5843306" lon="17.6664714">
        <ele>20.6</ele>
        <time>2012-03-18T12:52:01Z</time>
      </trkpt>
      <trkpt lat="59.5841389" lon="17.6672105">
        <ele>19.8</ele>
        <time>2012-03-18T12:52:06Z</time>
      </trkpt>
      <trkpt lat="59.5839384" lon="17.6679706">
        <ele>19</ele>
        <time>2012-03-18T12:52:11Z</time>
      </trkpt>
      <trkpt lat="59.5837236" lon="17.6687246">
        <ele>18</ele>
        <time>2012-03-18T12:52:16Z</time>
      </trkpt>
      <trkpt lat="59.5834804" lon="17.6694404">
        <ele>17.4</ele>
        <time>2012-03-18T12:52:21Z</time>
      </trkpt>
      <trkpt lat="59.5832177" lon="17.6700894">
        <ele>18</ele>
        <time>2012-03-18T12:52:26Z</time>
      </trkpt>
      <trkpt lat="59.5829569" lon="17.6706544">
        <ele>18.8</ele>
        <time>2012-03-18T12:52:31Z</time>
      </trkpt>
      <trkpt lat="59.5826903" lon="17.6711724">
        <ele>19.2</ele>
        <time>2012-03-18T12:52:36Z</time>
      </trkpt>
      <trkpt lat="59.5824041" lon="17.6716679">
        <ele>19.2</ele>
        <time>2012-03-18T12:52:41Z</time>
      </trkpt>
      <trkpt lat="59.5821161" lon="17.6721616">
        <ele>18.2</ele>
        <time>2012-03-18T12:52:46Z</time>
      </trkpt>
      <trkpt lat="59.5818227" lon="17.6726378">
        <ele>17.6</ele>
        <time>2012-03-18T12:52:51Z</time>
      </trkpt>
      <trkpt lat="59.5815328" lon="17.6731094">
        <ele>17.8</ele>
        <time>2012-03-18T12:52:56Z</time>
      </trkpt>
      <trkpt lat="59.5812484" lon="17.6735753">
        <ele>18</ele>
        <time>2012-03-18T12:53:01Z</time>
      </trkpt>
      <trkpt lat="59.5809674" lon="17.6740341">
        <ele>18.8</ele>
        <time>2012-03-18T12:53:06Z</time>
      </trkpt>
      <trkpt lat="59.5806342" lon="17.6745584">
        <ele>19.2</ele>
        <time>2012-03-18T12:53:12Z</time>
      </trkpt>
      <trkpt lat="59.5802859" lon="17.6750059">
        <ele>20.2</ele>
        <time>2012-03-18T12:53:18Z</time>
      </trkpt>
      <trkpt lat="59.5799166" lon="17.6753895">
        <ele>19.6</ele>
        <time>2012-03-18T12:53:24Z</time>
      </trkpt>
      <trkpt lat="59.5795331" lon="17.6756524">
        <ele>20.4</ele>
        <time>2012-03-18T12:53:30Z</time>
      </trkpt>
      <trkpt lat="59.5792058" lon="17.6758022">
        <ele>25</ele>
        <time>2012-03-18T12:53:36Z</time>
      </trkpt>
      <trkpt lat="59.5788398" lon="17.675911">
        <ele>28</ele>
        <time>2012-03-18T12:53:43Z</time>
      </trkpt>
      <trkpt lat="59.5784883" lon="17.6760082">
        <ele>29.6</ele>
        <time>2012-03-18T12:53:50Z</time>
      </trkpt>
      <trkpt lat="59.5781289" lon="17.6761243">
        <ele>29.4</ele>
        <time>2012-03-18T12:53:57Z</time>
      </trkpt>
      <trkpt lat="59.5779736" lon="17.6761823">
        <ele>30.2</ele>
        <time>2012-03-18T12:54:00Z</time>
      </trkpt>
      <trkpt lat="59.5777578" lon="17.6762901">
        <ele>32.6</ele>
        <time>2012-03-18T12:54:04Z</time>
      </trkpt>
      <trkpt lat="59.5774229" lon="17.6765803">
        <ele>34.8</ele>
        <time>2012-03-18T12:54:11Z</time>
      </trkpt>
      <trkpt lat="59.5770779" lon="17.6769919">
        <ele>38</ele>
        <time>2012-03-18T12:54:19Z</time>
      </trkpt>
      <trkpt lat="59.5767622" lon="17.6773889">
        <ele>39.4</ele>
        <time>2012-03-18T12:54:26Z</time>
      </trkpt>
      <trkpt lat="59.5764338" lon="17.6777939">
        <ele>38.4</ele>
        <time>2012-03-18T12:54:33Z</time>
      </trkpt>
      <trkpt lat="59.576132" lon="17.6782276">
        <ele>34.4</ele>
        <time>2012-03-18T12:54:40Z</time>
      </trkpt>
      <trkpt lat="59.5758316" lon="17.6788197">
        <ele>30.6</ele>
        <time>2012-03-18T12:54:47Z</time>
      </trkpt>
      <trkpt lat="59.5755725" lon="17.6794341">
        <ele>29.2</ele>
        <time>2012-03-18T12:54:53Z</time>
      </trkpt>
      <trkpt lat="59.5753479" lon="17.6801003">
        <ele>31.2</ele>
        <time>2012-03-18T12:54:59Z</time>
      </trkpt>
      <trkpt lat="59.5751514" lon="17.6807744">
        <ele>33</ele>
        <time>2012-03-18T12:55:05Z</time>
      </trkpt>
      <trkpt lat="59.5749686" lon="17.6814014">
        <ele>33.8</ele>
        <time>2012-03-18T12:55:10Z</time>
      </trkpt>
      <trkpt lat="59.5747137" lon="17.6820515">
        <ele>32.6</ele>
        <time>2012-03-18T12:55:15Z</time>
      </trkpt>
      <trkpt lat="59.5744034" lon="17.6826053">
        <ele>29</ele>
        <time>2012-03-18T12:55:20Z</time>
      </trkpt>
      <trkpt lat="59.5740392" lon="17.6830694">
        <ele>27.6</ele>
        <time>2012-03-18T12:55:25Z</time>
      </trkpt>
      <trkpt lat="59.5736467" lon="17.6833936">
        <ele>26.2</ele>
        <time>2012-03-18T12:55:30Z</time>
      </trkpt>
      <trkpt lat="59.5732554" lon="17.6836121">
        <ele>26.8</ele>
        <time>2012-03-18T12:55:35Z</time>
      </trkpt>
      <trkpt lat="59.5728852" lon="17.6838334">
        <ele>27.6</ele>
        <time>2012-03-18T12:55:40Z</time>
      </trkpt>
      <trkpt lat="59.5725053" lon="17.6840596">
        <ele>27</ele>
        <time>2012-03-18T12:55:45Z</time>
      </trkpt>
      <trkpt lat="59.5721292" lon="17.6842805">
        <ele>28.4</ele>
        <time>2012-03-18T12:55:50Z</time>
      </trkpt>
      <trkpt lat="59.5717543" lon="17.6845069">
        <ele>29.6</ele>
        <time>2012-03-18T12:55:55Z</time>
      </trkpt>
      <trkpt lat="59.5713605" lon="17.6847408">
        <ele>31</ele>
        <time>2012-03-18T12:56:00Z</time>
      </trkpt>
      <trkpt lat="59.5709503" lon="17.6849835">
        <ele>31.4</ele>
        <time>2012-03-18T12:56:05Z</time>
      </trkpt>
      <trkpt lat="59.5705567" lon="17.6852234">
        <ele>31</ele>
        <time>2012-03-18T12:56:10Z</time>
      </trkpt>
      <trkpt lat="59.5701781" lon="17.6854564">
        <ele>30.4</ele>
        <time>2012-03-18T12:56:15Z</time>
      </trkpt>
      <trkpt lat="59.5698231" lon="17.6856625">
        <ele>32.2</ele>
        <time>2012-03-18T12:56:20Z</time>
      </trkpt>
      <trkpt lat="59.569428" lon="17.6859045">
        <ele>33.4</ele>
        <time>2012-03-18T12:56:26Z</time>
      </trkpt>
      <trkpt lat="59.5690238" lon="17.6861695">
        <ele>32.8</ele>
        <time>2012-03-18T12:56:32Z</time>
      </trkpt>
      <trkpt lat="59.5686161" lon="17.6864013">
        <ele>34.6</ele>
        <time>2012-03-18T12:56:38Z</time>
      </trkpt>
      <trkpt lat="59.5682166" lon="17.6866867">
        <ele>32.6</ele>
        <time>2012-03-18T12:56:44Z</time>
      </trkpt>
      <trkpt lat="59.5678603" lon="17.6870389">
        <ele>29.6</ele>
        <time>2012-03-18T12:56:50Z</time>
      </trkpt>
      <trkpt lat="59.5674917" lon="17.6875189">
        <ele>26.2</ele>
        <time>2012-03-18T12:56:56Z</time>
      </trkpt>
      <trkpt lat="59.5671819" lon="17.6879886">
        <ele>24.8</ele>
        <time>2012-03-18T12:57:01Z</time>
      </trkpt>
      <trkpt lat="59.5668786" lon="17.6885216">
        <ele>27</ele>
        <time>2012-03-18T12:57:06Z</time>
      </trkpt>
      <trkpt lat="59.566597" lon="17.6890981">
        <ele>28.4</ele>
        <time>2012-03-18T12:57:11Z</time>
      </trkpt>
      <trkpt lat="59.5663297" lon="17.6896869">
        <ele>27.4</ele>
        <time>2012-03-18T12:57:16Z</time>
      </trkpt>
      <trkpt lat="59.5660708" lon="17.690263">
        <ele>26.2</ele>
        <time>2012-03-18T12:57:21Z</time>
      </trkpt>
      <trkpt lat="59.5658241" lon="17.6908384">
        <ele>25.2</ele>
        <time>2012-03-18T12:57:26Z</time>
      </trkpt>
      <trkpt lat="59.5655905" lon="17.6913862">
        <ele>24.8</ele>
        <time>2012-03-18T12:57:31Z</time>
      </trkpt>
      <trkpt lat="59.5653916" lon="17.6920445">
        <ele>24.2</ele>
        <time>2012-03-18T12:57:36Z</time>
      </trkpt>
      <trkpt lat="59.5652106" lon="17.6927576">
        <ele>26</ele>
        <time>2012-03-18T12:57:41Z</time>
      </trkpt>
      <trkpt lat="59.5650363" lon="17.6935805">
        <ele>26.8</ele>
        <time>2012-03-18T12:57:46Z</time>
      </trkpt>
      <trkpt lat="59.5649208" lon="17.6942992">
        <ele>26.6</ele>
        <time>2012-03-18T12:57:50Z</time>
      </trkpt>
      <trkpt lat="59.5648442" lon="17.6950132">
        <ele>26</ele>
        <time>2012-03-18T12:57:54Z</time>
      </trkpt>
      <trkpt lat="59.564773" lon="17.6958803">
        <ele>26.2</ele>
        <time>2012-03-18T12:57:59Z</time>
      </trkpt>
      <trkpt lat="59.5647068" lon="17.696579">
        <ele>27.6</ele>
        <time>2012-03-18T12:58:03Z</time>
      </trkpt>
      <trkpt lat="59.5646281" lon="17.6974862">
        <ele>29</ele>
        <time>2012-03-18T12:58:08Z</time>
      </trkpt>
      <trkpt lat="59.5645743" lon="17.6982078">
        <ele>30.2</ele>
        <time>2012-03-18T12:58:12Z</time>
      </trkpt>
      <trkpt lat="59.5644947" lon="17.6990729">
        <ele>31.8</ele>
        <time>2012-03-18T12:58:17Z</time>
      </trkpt>
      <trkpt lat="59.5644171" lon="17.6999296">
        <ele>33.2</ele>
        <time>2012-03-18T12:58:22Z</time>
      </trkpt>
      <trkpt lat="59.5643515" lon="17.7007577">
        <ele>34.6</ele>
        <time>2012-03-18T12:58:27Z</time>
      </trkpt>
      <trkpt lat="59.5642758" lon="17.7015969">
        <ele>36.2</ele>
        <time>2012-03-18T12:58:32Z</time>
      </trkpt>
      <trkpt lat="59.5642044" lon="17.7024234">
        <ele>36.4</ele>
        <time>2012-03-18T12:58:37Z</time>
      </trkpt>
      <trkpt lat="59.5641371" lon="17.7032587">
        <ele>36.2</ele>
        <time>2012-03-18T12:58:42Z</time>
      </trkpt>
      <trkpt lat="59.5640721" lon="17.7040897">
        <ele>36.6</ele>
        <time>2012-03-18T12:58:47Z</time>
      </trkpt>
      <trkpt lat="59.5640065" lon="17.7048621">
        <ele>38</ele>
        <time>2012-03-18T12:58:52Z</time>
      </trkpt>
      <trkpt lat="59.5639301" lon="17.7056079">
        <ele>38.2</ele>
        <time>2012-03-18T12:58:57Z</time>
      </trkpt>
      <trkpt lat="59.5638286" lon="17.7063607">
        <ele>37.4</ele>
        <time>2012-03-18T12:59:02Z</time>
      </trkpt>
      <trkpt lat="59.5636666" lon="17.7071725">
        <ele>34.4</ele>
        <time>2012-03-18T12:59:07Z</time>
      </trkpt>
      <trkpt lat="59.5635142" lon="17.7078265">
        <ele>32.8</ele>
        <time>2012-03-18T12:59:11Z</time>
      </trkpt>
      <trkpt lat="59.5633344" lon="17.7086037">
        <ele>32.2</ele>
        <time>2012-03-18T12:59:16Z</time>
      </trkpt>
      <trkpt lat="59.56322" lon="17.7093511">
        <ele>31.8</ele>
        <time>2012-03-18T12:59:21Z</time>
      </trkpt>
      <trkpt lat="59.5632108" lon="17.7097614">
        <ele>33</ele>
        <time>2012-03-18T12:59:24Z</time>
      </trkpt>
      <trkpt lat="59.5632238" lon="17.710148">
        <ele>33.6</ele>
        <time>2012-03-18T12:59:27Z</time>
      </trkpt>
      <trkpt lat="59.5629824" lon="17.7105491">
        <ele>33.8</ele>
        <time>2012-03-18T12:59:32Z</time>
      </trkpt>
      <trkpt lat="59.5629072" lon="17.7105944">
        <ele>33.8</ele>
        <time>2012-03-18T12:59:33Z</time>
      </trkpt>
      <trkpt lat="59.5625282" lon="17.7108497">
        <ele>33.4</ele>
        <time>2012-03-18T12:59:38Z</time>
      </trkpt>
      <trkpt lat="59.5621534" lon="17.7111134">
        <ele>33.6</ele>
        <time>2012-03-18T12:59:43Z</time>
      </trkpt>
      <trkpt lat="59.5617908" lon="17.7113676">
        <ele>34</ele>
        <time>2012-03-18T12:59:48Z</time>
      </trkpt>
      <trkpt lat="59.5614494" lon="17.7116295">
        <ele>34</ele>
        <time>2012-03-18T12:59:53Z</time>
      </trkpt>
      <trkpt lat="59.5610693" lon="17.7119845">
        <ele>33.8</ele>
        <time>2012-03-18T12:59:59Z</time>
      </trkpt>
      <trkpt lat="59.5607306" lon="17.7123692">
        <ele>34</ele>
        <time>2012-03-18T13:00:05Z</time>
      </trkpt>
      <trkpt lat="59.5604072" lon="17.7128253">
        <ele>34.4</ele>
        <time>2012-03-18T13:00:11Z</time>
      </trkpt>
      <trkpt lat="59.5600947" lon="17.7133527">
        <ele>35.8</ele>
        <time>2012-03-18T13:00:17Z</time>
      </trkpt>
      <trkpt lat="59.5598216" lon="17.7139269">
        <ele>36.4</ele>
        <time>2012-03-18T13:00:23Z</time>
      </trkpt>
      <trkpt lat="59.559567" lon="17.7145334">
        <ele>37</ele>
        <time>2012-03-18T13:00:29Z</time>
      </trkpt>
      <trkpt lat="59.559334" lon="17.7151767">
        <ele>36.8</ele>
        <time>2012-03-18T13:00:35Z</time>
      </trkpt>
      <trkpt lat="59.5591329" lon="17.7157801">
        <ele>35</ele>
        <time>2012-03-18T13:00:40Z</time>
      </trkpt>
      <trkpt lat="59.5589209" lon="17.7164484">
        <ele>32.4</ele>
        <time>2012-03-18T13:00:45Z</time>
      </trkpt>
      <trkpt lat="59.5586926" lon="17.7171565">
        <ele>29.4</ele>
        <time>2012-03-18T13:00:50Z</time>
      </trkpt>
      <trkpt lat="59.558457" lon="17.7178719">
        <ele>27</ele>
        <time>2012-03-18T13:00:55Z</time>
      </trkpt>
      <trkpt lat="59.558196" lon="17.7185945">
        <ele>24.8</ele>
        <time>2012-03-18T13:01:00Z</time>
      </trkpt>
      <trkpt lat="59.557928" lon="17.7192669">
        <ele>23.2</ele>
        <time>2012-03-18T13:01:05Z</time>
      </trkpt>
      <trkpt lat="59.5576687" lon="17.719845">
        <ele>23.2</ele>
        <time>2012-03-18T13:01:10Z</time>
      </trkpt>
      <trkpt lat="59.5573805" lon="17.7204294">
        <ele>25.2</ele>
        <time>2012-03-18T13:01:16Z</time>
      </trkpt>
      <trkpt lat="59.5570977" lon="17.72098">
        <ele>27.6</ele>
        <time>2012-03-18T13:01:22Z</time>
      </trkpt>
      <trkpt lat="59.5568315" lon="17.7214825">
        <ele>29.6</ele>
        <time>2012-03-18T13:01:28Z</time>
      </trkpt>
      <trkpt lat="59.5565258" lon="17.7220138">
        <ele>31.6</ele>
        <time>2012-03-18T13:01:35Z</time>
      </trkpt>
      <trkpt lat="59.5562423" lon="17.7224832">
        <ele>32.6</ele>
        <time>2012-03-18T13:01:42Z</time>
      </trkpt>
      <trkpt lat="59.5561206" lon="17.7226785">
        <ele>33.2</ele>
        <time>2012-03-18T13:01:45Z</time>
      </trkpt>
      <trkpt lat="59.5559592" lon="17.7229479">
        <ele>33.8</ele>
        <time>2012-03-18T13:01:49Z</time>
      </trkpt>
      <trkpt lat="59.555642" lon="17.7234885">
        <ele>35.6</ele>
        <time>2012-03-18T13:01:56Z</time>
      </trkpt>
      <trkpt lat="59.5553293" lon="17.7240558">
        <ele>36.6</ele>
        <time>2012-03-18T13:02:03Z</time>
      </trkpt>
      <trkpt lat="59.5550646" lon="17.7245641">
        <ele>36.8</ele>
        <time>2012-03-18T13:02:09Z</time>
      </trkpt>
      <trkpt lat="59.554801" lon="17.7250888">
        <ele>36.4</ele>
        <time>2012-03-18T13:02:15Z</time>
      </trkpt>
      <trkpt lat="59.5545407" lon="17.725682">
        <ele>35.6</ele>
        <time>2012-03-18T13:02:21Z</time>
      </trkpt>
      <trkpt lat="59.5542835" lon="17.7263129">
        <ele>34.2</ele>
        <time>2012-03-18T13:02:27Z</time>
      </trkpt>
      <trkpt lat="59.554041" lon="17.7269796">
        <ele>33.6</ele>
        <time>2012-03-18T13:02:33Z</time>
      </trkpt>
      <trkpt lat="59.5538136" lon="17.7275337">
        <ele>34</ele>
        <time>2012-03-18T13:02:38Z</time>
      </trkpt>
      <trkpt lat="59.5535896" lon="17.72814">
        <ele>33.8</ele>
        <time>2012-03-18T13:02:43Z</time>
      </trkpt>
      <trkpt lat="59.5533536" lon="17.7288152">
        <ele>31.6</ele>
        <time>2012-03-18T13:02:48Z</time>
      </trkpt>
      <trkpt lat="59.5531014" lon="17.7295337">
        <ele>29</ele>
        <time>2012-03-18T13:02:53Z</time>
      </trkpt>
      <trkpt lat="59.5528847" lon="17.7301337">
        <ele>26.6</ele>
        <time>2012-03-18T13:02:57Z</time>
      </trkpt>
      <trkpt lat="59.5526605" lon="17.73076">
        <ele>24</ele>
        <time>2012-03-18T13:03:01Z</time>
      </trkpt>
      <trkpt lat="59.5524142" lon="17.7314018">
        <ele>22.8</ele>
        <time>2012-03-18T13:03:05Z</time>
      </trkpt>
      <trkpt lat="59.5521465" lon="17.7320657">
        <ele>21.4</ele>
        <time>2012-03-18T13:03:09Z</time>
      </trkpt>
      <trkpt lat="59.5518644" lon="17.732747">
        <ele>20</ele>
        <time>2012-03-18T13:03:13Z</time>
      </trkpt>
      <trkpt lat="59.5515526" lon="17.7333449">
        <ele>18.6</ele>
        <time>2012-03-18T13:03:17Z</time>
      </trkpt>
      <trkpt lat="59.5512186" lon="17.733966">
        <ele>19</ele>
        <time>2012-03-18T13:03:21Z</time>
      </trkpt>
      <trkpt lat="59.5508759" lon="17.7345399">
        <ele>18.6</ele>
        <time>2012-03-18T13:03:25Z</time>
      </trkpt>
      <trkpt lat="59.5505377" lon="17.7350756">
        <ele>18.2</ele>
        <time>2012-03-18T13:03:29Z</time>
      </trkpt>
      <trkpt lat="59.5502073" lon="17.7355652">
        <ele>18</ele>
        <time>2012-03-18T13:03:33Z</time>
      </trkpt>
      <trkpt lat="59.5498778" lon="17.7360179">
        <ele>18</ele>
        <time>2012-03-18T13:03:37Z</time>
      </trkpt>
      <trkpt lat="59.5495384" lon="17.7364108">
        <ele>18.2</ele>
        <time>2012-03-18T13:03:41Z</time>
      </trkpt>
      <trkpt lat="59.5492165" lon="17.7367713">
        <ele>18</ele>
        <time>2012-03-18T13:03:45Z</time>
      </trkpt>
      <trkpt lat="59.548827" lon="17.7371507">
        <ele>18.6</ele>
        <time>2012-03-18T13:03:50Z</time>
      </trkpt>
      <trkpt lat="59.5484491" lon="17.7374567">
        <ele>19.2</ele>
        <time>2012-03-18T13:03:55Z</time>
      </trkpt>
      <trkpt lat="59.5480911" lon="17.737722">
        <ele>21.8</ele>
        <time>2012-03-18T13:04:00Z</time>
      </trkpt>
      <trkpt lat="59.5477426" lon="17.7379434">
        <ele>24.2</ele>
        <time>2012-03-18T13:04:05Z</time>
      </trkpt>
      <trkpt lat="59.5473555" lon="17.7381596">
        <ele>27.4</ele>
        <time>2012-03-18T13:04:11Z</time>
      </trkpt>
      <trkpt lat="59.5469826" lon="17.7383391">
        <ele>27.2</ele>
        <time>2012-03-18T13:04:17Z</time>
      </trkpt>
      <trkpt lat="59.5465776" lon="17.7384699">
        <ele>27.6</ele>
        <time>2012-03-18T13:04:24Z</time>
      </trkpt>
      <trkpt lat="59.5465198" lon="17.7384937">
        <ele>26.8</ele>
        <time>2012-03-18T13:04:25Z</time>
      </trkpt>
      <trkpt lat="59.5462157" lon="17.7385981">
        <ele>27.4</ele>
        <time>2012-03-18T13:04:30Z</time>
      </trkpt>
      <trkpt lat="59.5458391" lon="17.7387316">
        <ele>25</ele>
        <time>2012-03-18T13:04:36Z</time>
      </trkpt>
      <trkpt lat="59.5454477" lon="17.7388788">
        <ele>24.4</ele>
        <time>2012-03-18T13:04:42Z</time>
      </trkpt>
      <trkpt lat="59.5450837" lon="17.739017">
        <ele>27.6</ele>
        <time>2012-03-18T13:04:48Z</time>
      </trkpt>
      <trkpt lat="59.5446862" lon="17.7391619">
        <ele>29.8</ele>
        <time>2012-03-18T13:04:55Z</time>
      </trkpt>
      <trkpt lat="59.5442994" lon="17.7393054">
        <ele>34</ele>
        <time>2012-03-18T13:05:02Z</time>
      </trkpt>
      <trkpt lat="59.5438915" lon="17.7394536">
        <ele>36</ele>
        <time>2012-03-18T13:05:09Z</time>
      </trkpt>
      <trkpt lat="59.5435294" lon="17.7396038">
        <ele>36.8</ele>
        <time>2012-03-18T13:05:15Z</time>
      </trkpt>
      <trkpt lat="59.5431602" lon="17.7397407">
        <ele>35.2</ele>
        <time>2012-03-18T13:05:21Z</time>
      </trkpt>
      <trkpt lat="59.5427756" lon="17.7398799">
        <ele>35</ele>
        <time>2012-03-18T13:05:27Z</time>
      </trkpt>
      <trkpt lat="59.5423977" lon="17.7400297">
        <ele>32.6</ele>
        <time>2012-03-18T13:05:33Z</time>
      </trkpt>
      <trkpt lat="59.5420173" lon="17.7401812">
        <ele>30.8</ele>
        <time>2012-03-18T13:05:39Z</time>
      </trkpt>
      <trkpt lat="59.5416303" lon="17.7403357">
        <ele>27.6</ele>
        <time>2012-03-18T13:05:45Z</time>
      </trkpt>
      <trkpt lat="59.5412451" lon="17.7405166">
        <ele>25.6</ele>
        <time>2012-03-18T13:05:51Z</time>
      </trkpt>
      <trkpt lat="59.5408597" lon="17.7407305">
        <ele>25.8</ele>
        <time>2012-03-18T13:05:57Z</time>
      </trkpt>
      <trkpt lat="59.540466" lon="17.7409493">
        <ele>29</ele>
        <time>2012-03-18T13:06:03Z</time>
      </trkpt>
      <trkpt lat="59.540091" lon="17.7411974">
        <ele>31.4</ele>
        <time>2012-03-18T13:06:09Z</time>
      </trkpt>
      <trkpt lat="59.5397031" lon="17.7414885">
        <ele>33</ele>
        <time>2012-03-18T13:06:15Z</time>
      </trkpt>
      <trkpt lat="59.5393614" lon="17.7417779">
        <ele>33.8</ele>
        <time>2012-03-18T13:06:20Z</time>
      </trkpt>
      <trkpt lat="59.5390157" lon="17.7420721">
        <ele>33.2</ele>
        <time>2012-03-18T13:06:25Z</time>
      </trkpt>
      <trkpt lat="59.5386678" lon="17.7423786">
        <ele>33</ele>
        <time>2012-03-18T13:06:30Z</time>
      </trkpt>
      <trkpt lat="59.5382898" lon="17.7427032">
        <ele>33</ele>
        <time>2012-03-18T13:06:35Z</time>
      </trkpt>
      <trkpt lat="59.5378939" lon="17.7430691">
        <ele>31.2</ele>
        <time>2012-03-18T13:06:40Z</time>
      </trkpt>
      <trkpt lat="59.5375636" lon="17.7434047">
        <ele>28</ele>
        <time>2012-03-18T13:06:44Z</time>
      </trkpt>
      <trkpt lat="59.5372331" lon="17.7437569">
        <ele>24.6</ele>
        <time>2012-03-18T13:06:48Z</time>
      </trkpt>
      <trkpt lat="59.5368937" lon="17.7441371">
        <ele>22.4</ele>
        <time>2012-03-18T13:06:52Z</time>
      </trkpt>
      <trkpt lat="59.5365579" lon="17.744519">
        <ele>23</ele>
        <time>2012-03-18T13:06:56Z</time>
      </trkpt>
      <trkpt lat="59.5362326" lon="17.7448799">
        <ele>24</ele>
        <time>2012-03-18T13:07:00Z</time>
      </trkpt>
      <trkpt lat="59.5358481" lon="17.7453197">
        <ele>26.8</ele>
        <time>2012-03-18T13:07:05Z</time>
      </trkpt>
      <trkpt lat="59.5354905" lon="17.7457309">
        <ele>27.2</ele>
        <time>2012-03-18T13:07:10Z</time>
      </trkpt>
      <trkpt lat="59.535146" lon="17.7461273">
        <ele>28</ele>
        <time>2012-03-18T13:07:15Z</time>
      </trkpt>
      <trkpt lat="59.5348196" lon="17.7464992">
        <ele>29.4</ele>
        <time>2012-03-18T13:07:20Z</time>
      </trkpt>
      <trkpt lat="59.5345049" lon="17.7468401">
        <ele>30.6</ele>
        <time>2012-03-18T13:07:25Z</time>
      </trkpt>
      <trkpt lat="59.5341459" lon="17.747215">
        <ele>32</ele>
        <time>2012-03-18T13:07:31Z</time>
      </trkpt>
      <trkpt lat="59.5337785" lon="17.7475637">
        <ele>32.4</ele>
        <time>2012-03-18T13:07:37Z</time>
      </trkpt>
      <trkpt lat="59.5334121" lon="17.7478906">
        <ele>33</ele>
        <time>2012-03-18T13:07:43Z</time>
      </trkpt>
      <trkpt lat="59.5330464" lon="17.7481874">
        <ele>33.8</ele>
        <time>2012-03-18T13:07:49Z</time>
      </trkpt>
      <trkpt lat="59.5326868" lon="17.7484807">
        <ele>35.4</ele>
        <time>2012-03-18T13:07:55Z</time>
      </trkpt>
      <trkpt lat="59.5323073" lon="17.7487484">
        <ele>36.4</ele>
        <time>2012-03-18T13:08:01Z</time>
      </trkpt>
      <trkpt lat="59.5319021" lon="17.7489951">
        <ele>40.8</ele>
        <time>2012-03-18T13:08:07Z</time>
      </trkpt>
      <trkpt lat="59.5314957" lon="17.7492276">
        <ele>42.4</ele>
        <time>2012-03-18T13:08:13Z</time>
      </trkpt>
      <trkpt lat="59.5311448" lon="17.749419">
        <ele>43.2</ele>
        <time>2012-03-18T13:08:18Z</time>
      </trkpt>
      <trkpt lat="59.5307911" lon="17.749613">
        <ele>44.2</ele>
        <time>2012-03-18T13:08:23Z</time>
      </trkpt>
      <trkpt lat="59.5303829" lon="17.7497899">
        <ele>46.2</ele>
        <time>2012-03-18T13:08:29Z</time>
      </trkpt>
      <trkpt lat="59.5300347" lon="17.7499295">
        <ele>49</ele>
        <time>2012-03-18T13:08:34Z</time>
      </trkpt>
      <trkpt lat="59.529663" lon="17.7500512">
        <ele>51.6</ele>
        <time>2012-03-18T13:08:39Z</time>
      </trkpt>
      <trkpt lat="59.5292747" lon="17.7501728">
        <ele>53.2</ele>
        <time>2012-03-18T13:08:44Z</time>
      </trkpt>
      <trkpt lat="59.5288764" lon="17.7503056">
        <ele>53.4</ele>
        <time>2012-03-18T13:08:49Z</time>
      </trkpt>
      <trkpt lat="59.5284584" lon="17.7504225">
        <ele>54.8</ele>
        <time>2012-03-18T13:08:54Z</time>
      </trkpt>
      <trkpt lat="59.5280256" lon="17.7505572">
        <ele>51</ele>
        <time>2012-03-18T13:08:59Z</time>
      </trkpt>
      <trkpt lat="59.5275717" lon="17.7507296">
        <ele>44.4</ele>
        <time>2012-03-18T13:09:04Z</time>
      </trkpt>
      <trkpt lat="59.5272023" lon="17.7508941">
        <ele>39.6</ele>
        <time>2012-03-18T13:09:08Z</time>
      </trkpt>
      <trkpt lat="59.5268357" lon="17.7510861">
        <ele>35.4</ele>
        <time>2012-03-18T13:09:12Z</time>
      </trkpt>
      <trkpt lat="59.5264638" lon="17.7513095">
        <ele>33</ele>
        <time>2012-03-18T13:09:16Z</time>
      </trkpt>
      <trkpt lat="59.5260917" lon="17.7515636">
        <ele>30.6</ele>
        <time>2012-03-18T13:09:20Z</time>
      </trkpt>
      <trkpt lat="59.5257303" lon="17.7518179">
        <ele>29</ele>
        <time>2012-03-18T13:09:24Z</time>
      </trkpt>
      <trkpt lat="59.5253756" lon="17.7521164">
        <ele>26.6</ele>
        <time>2012-03-18T13:09:28Z</time>
      </trkpt>
      <trkpt lat="59.5250229" lon="17.752451">
        <ele>23.4</ele>
        <time>2012-03-18T13:09:32Z</time>
      </trkpt>
      <trkpt lat="59.5246636" lon="17.7528051">
        <ele>21.8</ele>
        <time>2012-03-18T13:09:36Z</time>
      </trkpt>
      <trkpt lat="59.5243155" lon="17.7531862">
        <ele>20.6</ele>
        <time>2012-03-18T13:09:40Z</time>
      </trkpt>
      <trkpt lat="59.5239901" lon="17.7535644">
        <ele>19.4</ele>
        <time>2012-03-18T13:09:44Z</time>
      </trkpt>
      <trkpt lat="59.523669" lon="17.7539632">
        <ele>17.8</ele>
        <time>2012-03-18T13:09:48Z</time>
      </trkpt>
      <trkpt lat="59.5233581" lon="17.7543398">
        <ele>17.4</ele>
        <time>2012-03-18T13:09:52Z</time>
      </trkpt>
      <trkpt lat="59.5229764" lon="17.7548158">
        <ele>17</ele>
        <time>2012-03-18T13:09:57Z</time>
      </trkpt>
      <trkpt lat="59.5226009" lon="17.755271">
        <ele>17.2</ele>
        <time>2012-03-18T13:10:02Z</time>
      </trkpt>
      <trkpt lat="59.5222118" lon="17.7556934">
        <ele>18.8</ele>
        <time>2012-03-18T13:10:07Z</time>
      </trkpt>
      <trkpt lat="59.5218243" lon="17.7560824">
        <ele>20.8</ele>
        <time>2012-03-18T13:10:12Z</time>
      </trkpt>
      <trkpt lat="59.521439" lon="17.7564158">
        <ele>22.8</ele>
        <time>2012-03-18T13:10:17Z</time>
      </trkpt>
      <trkpt lat="59.5210588" lon="17.7567071">
        <ele>25</ele>
        <time>2012-03-18T13:10:22Z</time>
      </trkpt>
      <trkpt lat="59.5206825" lon="17.7569595">
        <ele>27</ele>
        <time>2012-03-18T13:10:27Z</time>
      </trkpt>
      <trkpt lat="59.52029" lon="17.7571842">
        <ele>28.8</ele>
        <time>2012-03-18T13:10:32Z</time>
      </trkpt>
      <trkpt lat="59.5198984" lon="17.7573785">
        <ele>30</ele>
        <time>2012-03-18T13:10:37Z</time>
      </trkpt>
      <trkpt lat="59.5195249" lon="17.7575702">
        <ele>32.6</ele>
        <time>2012-03-18T13:10:42Z</time>
      </trkpt>
      <trkpt lat="59.5191256" lon="17.7577488">
        <ele>32.2</ele>
        <time>2012-03-18T13:10:48Z</time>
      </trkpt>
      <trkpt lat="59.518777" lon="17.7579414">
        <ele>30</ele>
        <time>2012-03-18T13:10:53Z</time>
      </trkpt>
      <trkpt lat="59.5184283" lon="17.7581197">
        <ele>28.6</ele>
        <time>2012-03-18T13:10:58Z</time>
      </trkpt>
      <trkpt lat="59.5180272" lon="17.758315">
        <ele>27.4</ele>
        <time>2012-03-18T13:11:04Z</time>
      </trkpt>
      <trkpt lat="59.5176495" lon="17.7584915">
        <ele>27</ele>
        <time>2012-03-18T13:11:10Z</time>
      </trkpt>
      <trkpt lat="59.5172436" lon="17.7586819">
        <ele>26.2</ele>
        <time>2012-03-18T13:11:16Z</time>
      </trkpt>
      <trkpt lat="59.5168489" lon="17.7588672">
        <ele>27.2</ele>
        <time>2012-03-18T13:11:22Z</time>
      </trkpt>
      <trkpt lat="59.5164464" lon="17.7590572">
        <ele>27.8</ele>
        <time>2012-03-18T13:11:28Z</time>
      </trkpt>
      <trkpt lat="59.5160593" lon="17.7592474">
        <ele>30.8</ele>
        <time>2012-03-18T13:11:34Z</time>
      </trkpt>
      <trkpt lat="59.5156907" lon="17.7594289">
        <ele>30.4</ele>
        <time>2012-03-18T13:11:40Z</time>
      </trkpt>
      <trkpt lat="59.515297" lon="17.7596395">
        <ele>28</ele>
        <time>2012-03-18T13:11:47Z</time>
      </trkpt>
      <trkpt lat="59.5149079" lon="17.7598053">
        <ele>25.8</ele>
        <time>2012-03-18T13:11:54Z</time>
      </trkpt>
      <trkpt lat="59.514549" lon="17.7599789">
        <ele>27.2</ele>
        <time>2012-03-18T13:12:01Z</time>
      </trkpt>
      <trkpt lat="59.5145039" lon="17.7599908">
        <ele>28</ele>
        <time>2012-03-18T13:12:02Z</time>
      </trkpt>
      <trkpt lat="59.5143143" lon="17.7595814">
        <ele>27.6</ele>
        <time>2012-03-18T13:12:09Z</time>
      </trkpt>
      <trkpt lat="59.5142325" lon="17.7590217">
        <ele>23</ele>
        <time>2012-03-18T13:12:15Z</time>
      </trkpt>
      <trkpt lat="59.5141837" lon="17.758822">
        <ele>21.8</ele>
        <time>2012-03-18T13:12:17Z</time>
      </trkpt>
      <trkpt lat="59.5140299" lon="17.7581217">
        <ele>19</ele>
        <time>2012-03-18T13:12:24Z</time>
      </trkpt>
      <trkpt lat="59.5138683" lon="17.7574202">
        <ele>17.2</ele>
        <time>2012-03-18T13:12:31Z</time>
      </trkpt>
      <trkpt lat="59.5136873" lon="17.7567608">
        <ele>17.8</ele>
        <time>2012-03-18T13:12:38Z</time>
      </trkpt>
      <trkpt lat="59.5134896" lon="17.7561419">
        <ele>20.6</ele>
        <time>2012-03-18T13:12:45Z</time>
      </trkpt>
      <trkpt lat="59.5132855" lon="17.7555182">
        <ele>21.2</ele>
        <time>2012-03-18T13:12:52Z</time>
      </trkpt>
      <trkpt lat="59.5130653" lon="17.7549353">
        <ele>27.6</ele>
        <time>2012-03-18T13:12:59Z</time>
      </trkpt>
      <trkpt lat="59.5128565" lon="17.7543138">
        <ele>29.8</ele>
        <time>2012-03-18T13:13:06Z</time>
      </trkpt>
      <trkpt lat="59.5126196" lon="17.7537093">
        <ele>28.6</ele>
        <time>2012-03-18T13:13:13Z</time>
      </trkpt>
      <trkpt lat="59.5123983" lon="17.7531624">
        <ele>30.4</ele>
        <time>2012-03-18T13:13:20Z</time>
      </trkpt>
      <trkpt lat="59.5121548" lon="17.7526454">
        <ele>30</ele>
        <time>2012-03-18T13:13:27Z</time>
      </trkpt>
      <trkpt lat="59.5118972" lon="17.7520974">
        <ele>30.4</ele>
        <time>2012-03-18T13:13:34Z</time>
      </trkpt>
      <trkpt lat="59.5117142" lon="17.7517227">
        <ele>30.4</ele>
        <time>2012-03-18T13:13:39Z</time>
      </trkpt>
      <trkpt lat="59.511632" lon="17.7515767">
        <ele>31.2</ele>
        <time>2012-03-18T13:13:41Z</time>
      </trkpt>
      <trkpt lat="59.5113521" lon="17.7510629">
        <ele>31.6</ele>
        <time>2012-03-18T13:13:48Z</time>
      </trkpt>
      <trkpt lat="59.511041" lon="17.750565">
        <ele>33.4</ele>
        <time>2012-03-18T13:13:55Z</time>
      </trkpt>
      <trkpt lat="59.5107188" lon="17.7500845">
        <ele>34.8</ele>
        <time>2012-03-18T13:14:02Z</time>
      </trkpt>
      <trkpt lat="59.5104209" lon="17.7496845">
        <ele>35.8</ele>
        <time>2012-03-18T13:14:08Z</time>
      </trkpt>
      <trkpt lat="59.5101171" lon="17.7493172">
        <ele>36.2</ele>
        <time>2012-03-18T13:14:14Z</time>
      </trkpt>
      <trkpt lat="59.5097832" lon="17.748967">
        <ele>37</ele>
        <time>2012-03-18T13:14:20Z</time>
      </trkpt>
      <trkpt lat="59.5094402" lon="17.7486261">
        <ele>37.2</ele>
        <time>2012-03-18T13:14:26Z</time>
      </trkpt>
      <trkpt lat="59.509076" lon="17.7483062">
        <ele>37.4</ele>
        <time>2012-03-18T13:14:32Z</time>
      </trkpt>
      <trkpt lat="59.5087069" lon="17.7480237">
        <ele>37.6</ele>
        <time>2012-03-18T13:14:38Z</time>
      </trkpt>
      <trkpt lat="59.5083344" lon="17.7477772">
        <ele>38</ele>
        <time>2012-03-18T13:14:44Z</time>
      </trkpt>
      <trkpt lat="59.5079246" lon="17.7475523">
        <ele>38.2</ele>
        <time>2012-03-18T13:14:50Z</time>
      </trkpt>
      <trkpt lat="59.507572" lon="17.7473824">
        <ele>38</ele>
        <time>2012-03-18T13:14:55Z</time>
      </trkpt>
      <trkpt lat="59.5072145" lon="17.7472409">
        <ele>38</ele>
        <time>2012-03-18T13:15:00Z</time>
      </trkpt>
      <trkpt lat="59.5067824" lon="17.7471208">
        <ele>37.8</ele>
        <time>2012-03-18T13:15:06Z</time>
      </trkpt>
      <trkpt lat="59.5063555" lon="17.7470375">
        <ele>38.2</ele>
        <time>2012-03-18T13:15:12Z</time>
      </trkpt>
      <trkpt lat="59.505996" lon="17.7469981">
        <ele>37.4</ele>
        <time>2012-03-18T13:15:17Z</time>
      </trkpt>
      <trkpt lat="59.5056204" lon="17.7469794">
        <ele>36.6</ele>
        <time>2012-03-18T13:15:22Z</time>
      </trkpt>
      <trkpt lat="59.5052165" lon="17.7469566">
        <ele>36</ele>
        <time>2012-03-18T13:15:27Z</time>
      </trkpt>
      <trkpt lat="59.5048063" lon="17.7469224">
        <ele>35.2</ele>
        <time>2012-03-18T13:15:32Z</time>
      </trkpt>
      <trkpt lat="59.5043949" lon="17.7468998">
        <ele>34.4</ele>
        <time>2012-03-18T13:15:37Z</time>
      </trkpt>
      <trkpt lat="59.5039748" lon="17.7468832">
        <ele>33.4</ele>
        <time>2012-03-18T13:15:42Z</time>
      </trkpt>
      <trkpt lat="59.5035567" lon="17.7468598">
        <ele>32.8</ele>
        <time>2012-03-18T13:15:47Z</time>
      </trkpt>
      <trkpt lat="59.5031692" lon="17.7468411">
        <ele>32.2</ele>
        <time>2012-03-18T13:15:52Z</time>
      </trkpt>
      <trkpt lat="59.502962" lon="17.7467844">
        <ele>32.4</ele>
        <time>2012-03-18T13:15:55Z</time>
      </trkpt>
      <trkpt lat="59.5027839" lon="17.7465914">
        <ele>32.2</ele>
        <time>2012-03-18T13:15:58Z</time>
      </trkpt>
      <trkpt lat="59.5027275" lon="17.7465325">
        <ele>32.4</ele>
        <time>2012-03-18T13:15:59Z</time>
      </trkpt>
      <trkpt lat="59.5025039" lon="17.7465536">
        <ele>32.4</ele>
        <time>2012-03-18T13:16:03Z</time>
      </trkpt>
      <trkpt lat="59.5024402" lon="17.7465764">
        <ele>32.6</ele>
        <time>2012-03-18T13:16:04Z</time>
      </trkpt>
      <trkpt lat="59.5020631" lon="17.7465241">
        <ele>32</ele>
        <time>2012-03-18T13:16:09Z</time>
      </trkpt>
      <trkpt lat="59.5016705" lon="17.7464522">
        <ele>31.4</ele>
        <time>2012-03-18T13:16:14Z</time>
      </trkpt>
      <trkpt lat="59.5012609" lon="17.7463671">
        <ele>31</ele>
        <time>2012-03-18T13:16:19Z</time>
      </trkpt>
      <trkpt lat="59.5008398" lon="17.7462626">
        <ele>31</ele>
        <time>2012-03-18T13:16:24Z</time>
      </trkpt>
      <trkpt lat="59.5004086" lon="17.74615">
        <ele>30.8</ele>
        <time>2012-03-18T13:16:29Z</time>
      </trkpt>
      <trkpt lat="59.4999728" lon="17.7460185">
        <ele>30</ele>
        <time>2012-03-18T13:16:34Z</time>
      </trkpt>
      <trkpt lat="59.4995394" lon="17.7458631">
        <ele>29.2</ele>
        <time>2012-03-18T13:16:39Z</time>
      </trkpt>
      <trkpt lat="59.4991035" lon="17.7456998">
        <ele>28</ele>
        <time>2012-03-18T13:16:44Z</time>
      </trkpt>
      <trkpt lat="59.4986616" lon="17.7455058">
        <ele>26.8</ele>
        <time>2012-03-18T13:16:49Z</time>
      </trkpt>
      <trkpt lat="59.4982988" lon="17.745333">
        <ele>25.8</ele>
        <time>2012-03-18T13:16:53Z</time>
      </trkpt>
      <trkpt lat="59.4979328" lon="17.745154">
        <ele>25</ele>
        <time>2012-03-18T13:16:57Z</time>
      </trkpt>
      <trkpt lat="59.4975655" lon="17.7449632">
        <ele>24.6</ele>
        <time>2012-03-18T13:17:01Z</time>
      </trkpt>
      <trkpt lat="59.4971924" lon="17.7447617">
        <ele>23.8</ele>
        <time>2012-03-18T13:17:05Z</time>
      </trkpt>
      <trkpt lat="59.4968204" lon="17.7445511">
        <ele>22.6</ele>
        <time>2012-03-18T13:17:09Z</time>
      </trkpt>
      <trkpt lat="59.4964481" lon="17.7443385">
        <ele>21.8</ele>
        <time>2012-03-18T13:17:13Z</time>
      </trkpt>
      <trkpt lat="59.4960745" lon="17.7441094">
        <ele>19.4</ele>
        <time>2012-03-18T13:17:17Z</time>
      </trkpt>
      <trkpt lat="59.4957183" lon="17.7439038">
        <ele>18.6</ele>
        <time>2012-03-18T13:17:21Z</time>
      </trkpt>
      <trkpt lat="59.4953685" lon="17.7436704">
        <ele>17.2</ele>
        <time>2012-03-18T13:17:25Z</time>
      </trkpt>
      <trkpt lat="59.4950354" lon="17.7434113">
        <ele>15.6</ele>
        <time>2012-03-18T13:17:29Z</time>
      </trkpt>
      <trkpt lat="59.4946335" lon="17.7430478">
        <ele>14.8</ele>
        <time>2012-03-18T13:17:34Z</time>
      </trkpt>
      <trkpt lat="59.4942555" lon="17.7426779">
        <ele>15.2</ele>
        <time>2012-03-18T13:17:39Z</time>
      </trkpt>
      <trkpt lat="59.4939078" lon="17.7422826">
        <ele>17.8</ele>
        <time>2012-03-18T13:17:44Z</time>
      </trkpt>
      <trkpt lat="59.4935887" lon="17.7418411">
        <ele>19.6</ele>
        <time>2012-03-18T13:17:49Z</time>
      </trkpt>
      <trkpt lat="59.4932987" lon="17.7413807">
        <ele>20.8</ele>
        <time>2012-03-18T13:17:54Z</time>
      </trkpt>
      <trkpt lat="59.4929972" lon="17.7408084">
        <ele>22.6</ele>
        <time>2012-03-18T13:18:00Z</time>
      </trkpt>
      <trkpt lat="59.4927359" lon="17.7401561">
        <ele>23.8</ele>
        <time>2012-03-18T13:18:06Z</time>
      </trkpt>
      <trkpt lat="59.4925101" lon="17.7395867">
        <ele>24.6</ele>
        <time>2012-03-18T13:18:11Z</time>
      </trkpt>
      <trkpt lat="59.4922994" lon="17.7390078">
        <ele>25.2</ele>
        <time>2012-03-18T13:18:16Z</time>
      </trkpt>
      <trkpt lat="59.4921011" lon="17.7383183">
        <ele>26.4</ele>
        <time>2012-03-18T13:18:22Z</time>
      </trkpt>
      <trkpt lat="59.4920399" lon="17.7379638">
        <ele>27</ele>
        <time>2012-03-18T13:18:25Z</time>
      </trkpt>
      <trkpt lat="59.4920056" lon="17.7376137">
        <ele>27.6</ele>
        <time>2012-03-18T13:18:28Z</time>
      </trkpt>
      <trkpt lat="59.4918036" lon="17.7370032">
        <ele>28.8</ele>
        <time>2012-03-18T13:18:34Z</time>
      </trkpt>
      <trkpt lat="59.4916886" lon="17.7365824">
        <ele>29.2</ele>
        <time>2012-03-18T13:18:38Z</time>
      </trkpt>
      <trkpt lat="59.491646" lon="17.7363618">
        <ele>29.6</ele>
        <time>2012-03-18T13:18:40Z</time>
      </trkpt>
      <trkpt lat="59.4914997" lon="17.735621">
        <ele>28.8</ele>
        <time>2012-03-18T13:18:46Z</time>
      </trkpt>
      <trkpt lat="59.4913543" lon="17.734879">
        <ele>28.2</ele>
        <time>2012-03-18T13:18:52Z</time>
      </trkpt>
      <trkpt lat="59.4912131" lon="17.7341466">
        <ele>28.4</ele>
        <time>2012-03-18T13:18:58Z</time>
      </trkpt>
      <trkpt lat="59.4910836" lon="17.7334328">
        <ele>27.4</ele>
        <time>2012-03-18T13:19:04Z</time>
      </trkpt>
      <trkpt lat="59.4909736" lon="17.7327327">
        <ele>27</ele>
        <time>2012-03-18T13:19:10Z</time>
      </trkpt>
      <trkpt lat="59.4908304" lon="17.732069">
        <ele>25.6</ele>
        <time>2012-03-18T13:19:16Z</time>
      </trkpt>
      <trkpt lat="59.4906315" lon="17.7313384">
        <ele>24.4</ele>
        <time>2012-03-18T13:19:22Z</time>
      </trkpt>
      <trkpt lat="59.4904444" lon="17.7307202">
        <ele>23.4</ele>
        <time>2012-03-18T13:19:27Z</time>
      </trkpt>
      <trkpt lat="59.4902437" lon="17.7301118">
        <ele>22</ele>
        <time>2012-03-18T13:19:32Z</time>
      </trkpt>
      <trkpt lat="59.4900034" lon="17.7295498">
        <ele>20.4</ele>
        <time>2012-03-18T13:19:37Z</time>
      </trkpt>
      <trkpt lat="59.4897067" lon="17.7290501">
        <ele>19</ele>
        <time>2012-03-18T13:19:42Z</time>
      </trkpt>
      <trkpt lat="59.4895006" lon="17.7288086">
        <ele>18.8</ele>
        <time>2012-03-18T13:19:45Z</time>
      </trkpt>
      <trkpt lat="59.4893716" lon="17.7286244">
        <ele>18.8</ele>
        <time>2012-03-18T13:19:47Z</time>
      </trkpt>
      <trkpt lat="59.4890272" lon="17.728201">
        <ele>19</ele>
        <time>2012-03-18T13:19:52Z</time>
      </trkpt>
      <trkpt lat="59.4886711" lon="17.7278446">
        <ele>19.4</ele>
        <time>2012-03-18T13:19:57Z</time>
      </trkpt>
      <trkpt lat="59.4883122" lon="17.7275525">
        <ele>19.4</ele>
        <time>2012-03-18T13:20:02Z</time>
      </trkpt>
      <trkpt lat="59.4879513" lon="17.7273202">
        <ele>19.2</ele>
        <time>2012-03-18T13:20:07Z</time>
      </trkpt>
      <trkpt lat="59.4875863" lon="17.7271474">
        <ele>19</ele>
        <time>2012-03-18T13:20:12Z</time>
      </trkpt>
      <trkpt lat="59.4871726" lon="17.7269551">
        <ele>19.6</ele>
        <time>2012-03-18T13:20:18Z</time>
      </trkpt>
      <trkpt lat="59.4869576" lon="17.7269356">
        <ele>20</ele>
        <time>2012-03-18T13:20:21Z</time>
      </trkpt>
      <trkpt lat="59.4868132" lon="17.7269711">
        <ele>20.2</ele>
        <time>2012-03-18T13:20:23Z</time>
      </trkpt>
      <trkpt lat="59.4863845" lon="17.7270198">
        <ele>21.2</ele>
        <time>2012-03-18T13:20:29Z</time>
      </trkpt>
      <trkpt lat="59.4860269" lon="17.7271156">
        <ele>21.6</ele>
        <time>2012-03-18T13:20:34Z</time>
      </trkpt>
      <trkpt lat="59.485663" lon="17.7272193">
        <ele>23.2</ele>
        <time>2012-03-18T13:20:39Z</time>
      </trkpt>
      <trkpt lat="59.4852948" lon="17.7273992">
        <ele>23.4</ele>
        <time>2012-03-18T13:20:44Z</time>
      </trkpt>
      <trkpt lat="59.4849574" lon="17.7276887">
        <ele>23.6</ele>
        <time>2012-03-18T13:20:49Z</time>
      </trkpt>
      <trkpt lat="59.4846013" lon="17.7279683">
        <ele>23.4</ele>
        <time>2012-03-18T13:20:54Z</time>
      </trkpt>
      <trkpt lat="59.4843407" lon="17.7282575">
        <ele>23.4</ele>
        <time>2012-03-18T13:20:58Z</time>
      </trkpt>
      <trkpt lat="59.4842698" lon="17.7283149">
        <ele>23.2</ele>
        <time>2012-03-18T13:20:59Z</time>
      </trkpt>
      <trkpt lat="59.4839091" lon="17.7285757">
        <ele>23</ele>
        <time>2012-03-18T13:21:04Z</time>
      </trkpt>
      <trkpt lat="59.4835253" lon="17.7287932">
        <ele>22.6</ele>
        <time>2012-03-18T13:21:09Z</time>
      </trkpt>
      <trkpt lat="59.4831099" lon="17.7289497">
        <ele>23.2</ele>
        <time>2012-03-18T13:21:14Z</time>
      </trkpt>
      <trkpt lat="59.4826638" lon="17.7290307">
        <ele>23</ele>
        <time>2012-03-18T13:21:19Z</time>
      </trkpt>
      <trkpt lat="59.4823008" lon="17.7290391">
        <ele>22</ele>
        <time>2012-03-18T13:21:23Z</time>
      </trkpt>
      <trkpt lat="59.4819085" lon="17.729025">
        <ele>20.4</ele>
        <time>2012-03-18T13:21:27Z</time>
      </trkpt>
      <trkpt lat="59.4814847" lon="17.7290076">
        <ele>18.6</ele>
        <time>2012-03-18T13:21:31Z</time>
      </trkpt>
      <trkpt lat="59.4810485" lon="17.7289688">
        <ele>16</ele>
        <time>2012-03-18T13:21:35Z</time>
      </trkpt>
      <trkpt lat="59.4806062" lon="17.7288771">
        <ele>14.4</ele>
        <time>2012-03-18T13:21:39Z</time>
      </trkpt>
      <trkpt lat="59.4801702" lon="17.7288878">
        <ele>13.6</ele>
        <time>2012-03-18T13:21:43Z</time>
      </trkpt>
      <trkpt lat="59.4797469" lon="17.7288853">
        <ele>12.2</ele>
        <time>2012-03-18T13:21:47Z</time>
      </trkpt>
      <trkpt lat="59.4793344" lon="17.7289007">
        <ele>11.2</ele>
        <time>2012-03-18T13:21:51Z</time>
      </trkpt>
      <trkpt lat="59.4789719" lon="17.728905">
        <ele>10.8</ele>
        <time>2012-03-18T13:21:55Z</time>
      </trkpt>
      <trkpt lat="59.4788958" lon="17.7288887">
        <ele>10.8</ele>
        <time>2012-03-18T13:21:56Z</time>
      </trkpt>
      <trkpt lat="59.4785851" lon="17.7287142">
        <ele>11.2</ele>
        <time>2012-03-18T13:22:01Z</time>
      </trkpt>
      <trkpt lat="59.4785161" lon="17.7293483">
        <ele>10.2</ele>
        <time>2012-03-18T13:22:08Z</time>
      </trkpt>
      <trkpt lat="59.4785577" lon="17.7296138">
        <ele>10</ele>
        <time>2012-03-18T13:22:10Z</time>
      </trkpt>
      <trkpt lat="59.4785716" lon="17.7300607">
        <ele>9.4</ele>
        <time>2012-03-18T13:22:13Z</time>
      </trkpt>
      <trkpt lat="59.478562" lon="17.7308655">
        <ele>8.8</ele>
        <time>2012-03-18T13:22:18Z</time>
      </trkpt>
      <trkpt lat="59.4785393" lon="17.7317166">
        <ele>8.2</ele>
        <time>2012-03-18T13:22:23Z</time>
      </trkpt>
      <trkpt lat="59.478489" lon="17.7324283">
        <ele>7.8</ele>
        <time>2012-03-18T13:22:27Z</time>
      </trkpt>
      <trkpt lat="59.4784223" lon="17.7331335">
        <ele>7</ele>
        <time>2012-03-18T13:22:31Z</time>
      </trkpt>
      <trkpt lat="59.4783338" lon="17.7338321">
        <ele>6.2</ele>
        <time>2012-03-18T13:22:35Z</time>
      </trkpt>
      <trkpt lat="59.4782199" lon="17.734517">
        <ele>5.4</ele>
        <time>2012-03-18T13:22:39Z</time>
      </trkpt>
      <trkpt lat="59.4780905" lon="17.7351784">
        <ele>5</ele>
        <time>2012-03-18T13:22:43Z</time>
      </trkpt>
      <trkpt lat="59.4779457" lon="17.7358518">
        <ele>3.6</ele>
        <time>2012-03-18T13:22:47Z</time>
      </trkpt>
      <trkpt lat="59.4777794" lon="17.7364963">
        <ele>2.6</ele>
        <time>2012-03-18T13:22:51Z</time>
      </trkpt>
      <trkpt lat="59.4775566" lon="17.7372344">
        <ele>1.8</ele>
        <time>2012-03-18T13:22:56Z</time>
      </trkpt>
      <trkpt lat="59.4773232" lon="17.7379478">
        <ele>1.4</ele>
        <time>2012-03-18T13:23:01Z</time>
      </trkpt>
      <trkpt lat="59.4771134" lon="17.7386282">
        <ele>1.4</ele>
        <time>2012-03-18T13:23:06Z</time>
      </trkpt>
      <trkpt lat="59.4769164" lon="17.7392445">
        <ele>2</ele>
        <time>2012-03-18T13:23:11Z</time>
      </trkpt>
      <trkpt lat="59.4767363" lon="17.7398454">
        <ele>3.6</ele>
        <time>2012-03-18T13:23:16Z</time>
      </trkpt>
      <trkpt lat="59.4765529" lon="17.7405626">
        <ele>5.6</ele>
        <time>2012-03-18T13:23:22Z</time>
      </trkpt>
      <trkpt lat="59.4764146" lon="17.7412564">
        <ele>5.2</ele>
        <time>2012-03-18T13:23:28Z</time>
      </trkpt>
      <trkpt lat="59.4763078" lon="17.7420278">
        <ele>5.4</ele>
        <time>2012-03-18T13:23:35Z</time>
      </trkpt>
      <trkpt lat="59.4762158" lon="17.7428238">
        <ele>5.8</ele>
        <time>2012-03-18T13:23:42Z</time>
      </trkpt>
      <trkpt lat="59.476152" lon="17.7435111">
        <ele>8.8</ele>
        <time>2012-03-18T13:23:48Z</time>
      </trkpt>
      <trkpt lat="59.4761148" lon="17.7442473">
        <ele>11</ele>
        <time>2012-03-18T13:23:54Z</time>
      </trkpt>
      <trkpt lat="59.4761328" lon="17.744967">
        <ele>13</ele>
        <time>2012-03-18T13:24:00Z</time>
      </trkpt>
      <trkpt lat="59.4762156" lon="17.7456484">
        <ele>14.8</ele>
        <time>2012-03-18T13:24:06Z</time>
      </trkpt>
      <trkpt lat="59.4763177" lon="17.7463276">
        <ele>16.8</ele>
        <time>2012-03-18T13:24:12Z</time>
      </trkpt>
      <trkpt lat="59.4764565" lon="17.7470949">
        <ele>17.4</ele>
        <time>2012-03-18T13:24:19Z</time>
      </trkpt>
      <trkpt lat="59.4766226" lon="17.7478242">
        <ele>18.2</ele>
        <time>2012-03-18T13:24:26Z</time>
      </trkpt>
      <trkpt lat="59.4767602" lon="17.7483225">
        <ele>20</ele>
        <time>2012-03-18T13:24:31Z</time>
      </trkpt>
      <trkpt lat="59.4768021" lon="17.748432">
        <ele>20.4</ele>
        <time>2012-03-18T13:24:32Z</time>
      </trkpt>
      <trkpt lat="59.4770212" lon="17.7489784">
        <ele>23.4</ele>
        <time>2012-03-18T13:24:38Z</time>
      </trkpt>
      <trkpt lat="59.4770735" lon="17.7492781">
        <ele>23.8</ele>
        <time>2012-03-18T13:24:41Z</time>
      </trkpt>
      <trkpt lat="59.4772279" lon="17.7495995">
        <ele>24.2</ele>
        <time>2012-03-18T13:24:45Z</time>
      </trkpt>
      <trkpt lat="59.4773082" lon="17.7497456">
        <ele>23.8</ele>
        <time>2012-03-18T13:24:47Z</time>
      </trkpt>
      <trkpt lat="59.477477" lon="17.7502314">
        <ele>22</ele>
        <time>2012-03-18T13:24:52Z</time>
      </trkpt>
      <trkpt lat="59.4776897" lon="17.7508646">
        <ele>19.4</ele>
        <time>2012-03-18T13:24:57Z</time>
      </trkpt>
      <trkpt lat="59.4779246" lon="17.7515466">
        <ele>16.8</ele>
        <time>2012-03-18T13:25:02Z</time>
      </trkpt>
      <trkpt lat="59.4779765" lon="17.7516686">
        <ele>15.8</ele>
        <time>2012-03-18T13:25:03Z</time>
      </trkpt>
      <trkpt lat="59.4782001" lon="17.7520958">
        <ele>15.4</ele>
        <time>2012-03-18T13:25:07Z</time>
      </trkpt>
      <trkpt lat="59.4784618" lon="17.7526512">
        <ele>16</ele>
        <time>2012-03-18T13:25:12Z</time>
      </trkpt>
      <trkpt lat="59.4787015" lon="17.7532473">
        <ele>16.8</ele>
        <time>2012-03-18T13:25:17Z</time>
      </trkpt>
      <trkpt lat="59.4789428" lon="17.7538229">
        <ele>17</ele>
        <time>2012-03-18T13:25:22Z</time>
      </trkpt>
      <trkpt lat="59.4791436" lon="17.7542217">
        <ele>20.2</ele>
        <time>2012-03-18T13:25:27Z</time>
      </trkpt>
      <trkpt lat="59.4793648" lon="17.7548184">
        <ele>24.4</ele>
        <time>2012-03-18T13:25:32Z</time>
      </trkpt>
      <trkpt lat="59.4796242" lon="17.7554777">
        <ele>25.2</ele>
        <time>2012-03-18T13:25:38Z</time>
      </trkpt>
      <trkpt lat="59.4798885" lon="17.7560902">
        <ele>26.4</ele>
        <time>2012-03-18T13:25:44Z</time>
      </trkpt>
      <trkpt lat="59.4801395" lon="17.7566956">
        <ele>27.8</ele>
        <time>2012-03-18T13:25:50Z</time>
      </trkpt>
      <trkpt lat="59.4803659" lon="17.7572645">
        <ele>28</ele>
        <time>2012-03-18T13:25:56Z</time>
      </trkpt>
      <trkpt lat="59.4806256" lon="17.7579165">
        <ele>27.4</ele>
        <time>2012-03-18T13:26:03Z</time>
      </trkpt>
      <trkpt lat="59.4808737" lon="17.7585295">
        <ele>26.8</ele>
        <time>2012-03-18T13:26:09Z</time>
      </trkpt>
      <trkpt lat="59.4811399" lon="17.7590636">
        <ele>25.6</ele>
        <time>2012-03-18T13:26:14Z</time>
      </trkpt>
      <trkpt lat="59.4814404" lon="17.7594591">
        <ele>23.4</ele>
        <time>2012-03-18T13:26:18Z</time>
      </trkpt>
      <trkpt lat="59.4818288" lon="17.7597552">
        <ele>21</ele>
        <time>2012-03-18T13:26:22Z</time>
      </trkpt>
      <trkpt lat="59.4822711" lon="17.7599368">
        <ele>18.2</ele>
        <time>2012-03-18T13:26:26Z</time>
      </trkpt>
      <trkpt lat="59.4827009" lon="17.7601266">
        <ele>16.2</ele>
        <time>2012-03-18T13:26:30Z</time>
      </trkpt>
      <trkpt lat="59.4830559" lon="17.7605466">
        <ele>15.4</ele>
        <time>2012-03-18T13:26:34Z</time>
      </trkpt>
      <trkpt lat="59.4833198" lon="17.7610801">
        <ele>15.8</ele>
        <time>2012-03-18T13:26:38Z</time>
      </trkpt>
      <trkpt lat="59.483501" lon="17.7617016">
        <ele>15.4</ele>
        <time>2012-03-18T13:26:42Z</time>
      </trkpt>
      <trkpt lat="59.4835875" lon="17.7621866">
        <ele>16</ele>
        <time>2012-03-18T13:26:45Z</time>
      </trkpt>
      <trkpt lat="59.483607" lon="17.7625195">
        <ele>16.6</ele>
        <time>2012-03-18T13:26:47Z</time>
      </trkpt>
      <trkpt lat="59.4835653" lon="17.7632771">
        <ele>17.6</ele>
        <time>2012-03-18T13:26:52Z</time>
      </trkpt>
      <trkpt lat="59.4834714" lon="17.7640478">
        <ele>18</ele>
        <time>2012-03-18T13:26:58Z</time>
      </trkpt>
      <trkpt lat="59.4833852" lon="17.7647715">
        <ele>19</ele>
        <time>2012-03-18T13:27:04Z</time>
      </trkpt>
      <trkpt lat="59.4832953" lon="17.7655411">
        <ele>19.6</ele>
        <time>2012-03-18T13:27:11Z</time>
      </trkpt>
      <trkpt lat="59.4832161" lon="17.7662243">
        <ele>20.2</ele>
        <time>2012-03-18T13:27:18Z</time>
      </trkpt>
      <trkpt lat="59.483111" lon="17.7669948">
        <ele>22.6</ele>
        <time>2012-03-18T13:27:26Z</time>
      </trkpt>
      <trkpt lat="59.4831003" lon="17.7670912">
        <ele>22.8</ele>
        <time>2012-03-18T13:27:27Z</time>
      </trkpt>
      <trkpt lat="59.4830581" lon="17.7674911">
        <ele>22.8</ele>
        <time>2012-03-18T13:27:31Z</time>
      </trkpt>
      <trkpt lat="59.4830249" lon="17.7676967">
        <ele>22.8</ele>
        <time>2012-03-18T13:27:33Z</time>
      </trkpt>
      <trkpt lat="59.4829787" lon="17.767977">
        <ele>23.4</ele>
        <time>2012-03-18T13:27:36Z</time>
      </trkpt>
      <trkpt lat="59.4829258" lon="17.7684072">
        <ele>23.8</ele>
        <time>2012-03-18T13:27:41Z</time>
      </trkpt>
      <trkpt lat="59.4829038" lon="17.768582">
        <ele>23.8</ele>
        <time>2012-03-18T13:27:43Z</time>
      </trkpt>
      <trkpt lat="59.4828217" lon="17.769141">
        <ele>25</ele>
        <time>2012-03-18T13:27:50Z</time>
      </trkpt>
      <trkpt lat="59.4827048" lon="17.7699296">
        <ele>27.8</ele>
        <time>2012-03-18T13:27:59Z</time>
      </trkpt>
      <trkpt lat="59.4826104" lon="17.7706665">
        <ele>29.6</ele>
        <time>2012-03-18T13:28:07Z</time>
      </trkpt>
      <trkpt lat="59.4825218" lon="17.7713588">
        <ele>31.6</ele>
        <time>2012-03-18T13:28:14Z</time>
      </trkpt>
      <trkpt lat="59.4824941" lon="17.7715489">
        <ele>32</ele>
        <time>2012-03-18T13:28:16Z</time>
      </trkpt>
      <trkpt lat="59.4824266" lon="17.7720919">
        <ele>33.4</ele>
        <time>2012-03-18T13:28:22Z</time>
      </trkpt>
      <trkpt lat="59.4823317" lon="17.7728312">
        <ele>33.8</ele>
        <time>2012-03-18T13:28:30Z</time>
      </trkpt>
      <trkpt lat="59.4822492" lon="17.7735403">
        <ele>35</ele>
        <time>2012-03-18T13:28:39Z</time>
      </trkpt>
      <trkpt lat="59.4821655" lon="17.7742662">
        <ele>36</ele>
        <time>2012-03-18T13:28:49Z</time>
      </trkpt>
      <trkpt lat="59.4820602" lon="17.7750279">
        <ele>36.6</ele>
        <time>2012-03-18T13:28:57Z</time>
      </trkpt>
      <trkpt lat="59.4819536" lon="17.7758143">
        <ele>35.8</ele>
        <time>2012-03-18T13:29:03Z</time>
      </trkpt>
      <trkpt lat="59.4818422" lon="17.7765349">
        <ele>33.8</ele>
        <time>2012-03-18T13:29:08Z</time>
      </trkpt>
      <trkpt lat="59.4816828" lon="17.777254">
        <ele>31.8</ele>
        <time>2012-03-18T13:29:13Z</time>
      </trkpt>
      <trkpt lat="59.4815045" lon="17.7780023">
        <ele>29.6</ele>
        <time>2012-03-18T13:29:18Z</time>
      </trkpt>
      <trkpt lat="59.4813211" lon="17.7787951">
        <ele>25</ele>
        <time>2012-03-18T13:29:23Z</time>
      </trkpt>
      <trkpt lat="59.4811305" lon="17.7795807">
        <ele>22.2</ele>
        <time>2012-03-18T13:29:28Z</time>
      </trkpt>
      <trkpt lat="59.4809663" lon="17.7802494">
        <ele>21</ele>
        <time>2012-03-18T13:29:32Z</time>
      </trkpt>
      <trkpt lat="59.4807986" lon="17.7809459">
        <ele>19.6</ele>
        <time>2012-03-18T13:29:36Z</time>
      </trkpt>
      <trkpt lat="59.4806251" lon="17.7816427">
        <ele>18.6</ele>
        <time>2012-03-18T13:29:40Z</time>
      </trkpt>
      <trkpt lat="59.4804473" lon="17.7823154">
        <ele>17.8</ele>
        <time>2012-03-18T13:29:44Z</time>
      </trkpt>
      <trkpt lat="59.4802541" lon="17.782935">
        <ele>17.4</ele>
        <time>2012-03-18T13:29:48Z</time>
      </trkpt>
      <trkpt lat="59.4800276" lon="17.783494">
        <ele>17.2</ele>
        <time>2012-03-18T13:29:52Z</time>
      </trkpt>
      <trkpt lat="59.4797729" lon="17.784061">
        <ele>13.8</ele>
        <time>2012-03-18T13:29:56Z</time>
      </trkpt>
      <trkpt lat="59.4794925" lon="17.7845655">
        <ele>11</ele>
        <time>2012-03-18T13:30:00Z</time>
      </trkpt>
      <trkpt lat="59.4791751" lon="17.7849983">
        <ele>8.2</ele>
        <time>2012-03-18T13:30:04Z</time>
      </trkpt>
      <trkpt lat="59.4788322" lon="17.7853691">
        <ele>7.2</ele>
        <time>2012-03-18T13:30:08Z</time>
      </trkpt>
      <trkpt lat="59.4784881" lon="17.7856467">
        <ele>6.4</ele>
        <time>2012-03-18T13:30:12Z</time>
      </trkpt>
      <trkpt lat="59.4780699" lon="17.7858901">
        <ele>4.2</ele>
        <time>2012-03-18T13:30:17Z</time>
      </trkpt>
      <trkpt lat="59.477651" lon="17.7860719">
        <ele>2.8</ele>
        <time>2012-03-18T13:30:22Z</time>
      </trkpt>
      <trkpt lat="59.4772418" lon="17.7862">
        <ele>2.4</ele>
        <time>2012-03-18T13:30:27Z</time>
      </trkpt>
      <trkpt lat="59.4768232" lon="17.7863205">
        <ele>2.4</ele>
        <time>2012-03-18T13:30:33Z</time>
      </trkpt>
      <trkpt lat="59.4764297" lon="17.7864213">
        <ele>3.4</ele>
        <time>2012-03-18T13:30:39Z</time>
      </trkpt>
      <trkpt lat="59.4760541" lon="17.7865269">
        <ele>3.6</ele>
        <time>2012-03-18T13:30:45Z</time>
      </trkpt>
      <trkpt lat="59.4756895" lon="17.7866558">
        <ele>3.8</ele>
        <time>2012-03-18T13:30:51Z</time>
      </trkpt>
      <trkpt lat="59.4753255" lon="17.7867951">
        <ele>3.6</ele>
        <time>2012-03-18T13:30:57Z</time>
      </trkpt>
      <trkpt lat="59.4749486" lon="17.7869734">
        <ele>3.8</ele>
        <time>2012-03-18T13:31:03Z</time>
      </trkpt>
      <trkpt lat="59.4745929" lon="17.7872071">
        <ele>4.8</ele>
        <time>2012-03-18T13:31:09Z</time>
      </trkpt>
      <trkpt lat="59.474245" lon="17.7874966">
        <ele>7.2</ele>
        <time>2012-03-18T13:31:16Z</time>
      </trkpt>
      <trkpt lat="59.4739509" lon="17.7878324">
        <ele>9.6</ele>
        <time>2012-03-18T13:31:23Z</time>
      </trkpt>
      <trkpt lat="59.4739155" lon="17.7878951">
        <ele>9.2</ele>
        <time>2012-03-18T13:31:24Z</time>
      </trkpt>
      <trkpt lat="59.4738199" lon="17.788098">
        <ele>8</ele>
        <time>2012-03-18T13:31:27Z</time>
      </trkpt>
      <trkpt lat="59.473713" lon="17.7884964">
        <ele>5.6</ele>
        <time>2012-03-18T13:31:32Z</time>
      </trkpt>
      <trkpt lat="59.4735729" lon="17.7891704">
        <ele>7.4</ele>
        <time>2012-03-18T13:31:39Z</time>
      </trkpt>
      <trkpt lat="59.4733697" lon="17.7899302">
        <ele>4.2</ele>
        <time>2012-03-18T13:31:45Z</time>
      </trkpt>
      <trkpt lat="59.4731339" lon="17.790653">
        <ele>2</ele>
        <time>2012-03-18T13:31:50Z</time>
      </trkpt>
      <trkpt lat="59.4729573" lon="17.7913128">
        <ele>0</ele>
        <time>2012-03-18T13:31:54Z</time>
      </trkpt>
      <trkpt lat="59.4728289" lon="17.7920446">
        <ele>0</ele>
        <time>2012-03-18T13:31:58Z</time>
      </trkpt>
      <trkpt lat="59.472687" lon="17.7928221">
        <ele>0.2</ele>
        <time>2012-03-18T13:32:03Z</time>
      </trkpt>
      <trkpt lat="59.4725814" lon="17.7935273">
        <ele>0.6</ele>
        <time>2012-03-18T13:32:08Z</time>
      </trkpt>
      <trkpt lat="59.4724309" lon="17.7942649">
        <ele>1</ele>
        <time>2012-03-18T13:32:14Z</time>
      </trkpt>
      <trkpt lat="59.4723955" lon="17.7943758">
        <ele>1.2</ele>
        <time>2012-03-18T13:32:15Z</time>
      </trkpt>
      <trkpt lat="59.4721467" lon="17.7947594">
        <ele>2.4</ele>
        <time>2012-03-18T13:32:20Z</time>
      </trkpt>
      <trkpt lat="59.4720341" lon="17.7948527">
        <ele>2.6</ele>
        <time>2012-03-18T13:32:22Z</time>
      </trkpt>
      <trkpt lat="59.4718135" lon="17.7950148">
        <ele>3.4</ele>
        <time>2012-03-18T13:32:26Z</time>
      </trkpt>
      <trkpt lat="59.4714665" lon="17.7953293">
        <ele>4.2</ele>
        <time>2012-03-18T13:32:32Z</time>
      </trkpt>
      <trkpt lat="59.4711433" lon="17.7957376">
        <ele>4.8</ele>
        <time>2012-03-18T13:32:38Z</time>
      </trkpt>
      <trkpt lat="59.4707906" lon="17.7960572">
        <ele>5.2</ele>
        <time>2012-03-18T13:32:44Z</time>
      </trkpt>
      <trkpt lat="59.4704161" lon="17.7963473">
        <ele>4.4</ele>
        <time>2012-03-18T13:32:50Z</time>
      </trkpt>
      <trkpt lat="59.4700599" lon="17.7967265">
        <ele>5.6</ele>
        <time>2012-03-18T13:32:56Z</time>
      </trkpt>
      <trkpt lat="59.4697173" lon="17.7971446">
        <ele>6.6</ele>
        <time>2012-03-18T13:33:02Z</time>
      </trkpt>
      <trkpt lat="59.4693651" lon="17.7975755">
        <ele>3.8</ele>
        <time>2012-03-18T13:33:08Z</time>
      </trkpt>
      <trkpt lat="59.4691324" lon="17.7979369">
        <ele>2.2</ele>
        <time>2012-03-18T13:33:12Z</time>
      </trkpt>
      <trkpt lat="59.4690832" lon="17.7980512">
        <ele>1.6</ele>
        <time>2012-03-18T13:33:13Z</time>
      </trkpt>
      <trkpt lat="59.4689291" lon="17.7987317">
        <ele>1.4</ele>
        <time>2012-03-18T13:33:18Z</time>
      </trkpt>
      <trkpt lat="59.4689935" lon="17.7994843">
        <ele>1</ele>
        <time>2012-03-18T13:33:23Z</time>
      </trkpt>
      <trkpt lat="59.469207" lon="17.7999894">
        <ele>0.2</ele>
        <time>2012-03-18T13:33:27Z</time>
      </trkpt>
      <trkpt lat="59.4692645" lon="17.8001074">
        <ele>0</ele>
        <time>2012-03-18T13:33:28Z</time>
      </trkpt>
      <trkpt lat="59.4695277" lon="17.8006561">
        <ele>2.8</ele>
        <time>2012-03-18T13:33:33Z</time>
      </trkpt>
      <trkpt lat="59.4697733" lon="17.8012052">
        <ele>3.8</ele>
        <time>2012-03-18T13:33:38Z</time>
      </trkpt>
      <trkpt lat="59.4699919" lon="17.8017942">
        <ele>7</ele>
        <time>2012-03-18T13:33:44Z</time>
      </trkpt>
      <trkpt lat="59.470056" lon="17.8020756">
        <ele>8.2</ele>
        <time>2012-03-18T13:33:47Z</time>
      </trkpt>
      <trkpt lat="59.4700829" lon="17.8024423">
        <ele>11.6</ele>
        <time>2012-03-18T13:33:51Z</time>
      </trkpt>
      <trkpt lat="59.4700793" lon="17.802728">
        <ele>12.8</ele>
        <time>2012-03-18T13:33:54Z</time>
      </trkpt>
      <trkpt lat="59.4700233" lon="17.8031939">
        <ele>15.4</ele>
        <time>2012-03-18T13:33:59Z</time>
      </trkpt>
      <trkpt lat="59.4700078" lon="17.80329">
        <ele>15</ele>
        <time>2012-03-18T13:34:00Z</time>
      </trkpt>
      <trkpt lat="59.4699426" lon="17.8036217">
        <ele>14.6</ele>
        <time>2012-03-18T13:34:04Z</time>
      </trkpt>
      <trkpt lat="59.4698986" lon="17.8038577">
        <ele>14.6</ele>
        <time>2012-03-18T13:34:07Z</time>
      </trkpt>
      <trkpt lat="59.4697327" lon="17.8045496">
        <ele>16.4</ele>
        <time>2012-03-18T13:34:17Z</time>
      </trkpt>
      <trkpt lat="59.4696964" lon="17.8046992">
        <ele>17.4</ele>
        <time>2012-03-18T13:34:19Z</time>
      </trkpt>
      <trkpt lat="59.4695908" lon="17.8052047">
        <ele>17.6</ele>
        <time>2012-03-18T13:34:26Z</time>
      </trkpt>
      <trkpt lat="59.4694254" lon="17.8058497">
        <ele>19.2</ele>
        <time>2012-03-18T13:34:35Z</time>
      </trkpt>
      <trkpt lat="59.4692599" lon="17.8064873">
        <ele>22.4</ele>
        <time>2012-03-18T13:34:42Z</time>
      </trkpt>
      <trkpt lat="59.4692413" lon="17.8065703">
        <ele>22.8</ele>
        <time>2012-03-18T13:34:43Z</time>
      </trkpt>
      <trkpt lat="59.46916" lon="17.8069596">
        <ele>24.4</ele>
        <time>2012-03-18T13:34:48Z</time>
      </trkpt>
      <trkpt lat="59.4691059" lon="17.807271">
        <ele>25.6</ele>
        <time>2012-03-18T13:34:52Z</time>
      </trkpt>
      <trkpt lat="59.4690039" lon="17.8079975">
        <ele>27.4</ele>
        <time>2012-03-18T13:35:00Z</time>
      </trkpt>
      <trkpt lat="59.4689076" lon="17.8087283">
        <ele>28.8</ele>
        <time>2012-03-18T13:35:08Z</time>
      </trkpt>
      <trkpt lat="59.4688807" lon="17.8089013">
        <ele>29</ele>
        <time>2012-03-18T13:35:10Z</time>
      </trkpt>
      <trkpt lat="59.4686915" lon="17.8093171">
        <ele>30</ele>
        <time>2012-03-18T13:35:17Z</time>
      </trkpt>
      <trkpt lat="59.4685526" lon="17.8093852">
        <ele>27.8</ele>
        <time>2012-03-18T13:35:20Z</time>
      </trkpt>
      <trkpt lat="59.4684536" lon="17.8093949">
        <ele>27</ele>
        <time>2012-03-18T13:35:22Z</time>
      </trkpt>
      <trkpt lat="59.4683015" lon="17.8093634">
        <ele>26</ele>
        <time>2012-03-18T13:35:25Z</time>
      </trkpt>
      <trkpt lat="59.4679408" lon="17.8092525">
        <ele>24.8</ele>
        <time>2012-03-18T13:35:32Z</time>
      </trkpt>
      <trkpt lat="59.4675716" lon="17.8092389">
        <ele>24.8</ele>
        <time>2012-03-18T13:35:40Z</time>
      </trkpt>
      <trkpt lat="59.4674711" lon="17.8092552">
        <ele>24.8</ele>
        <time>2012-03-18T13:35:42Z</time>
      </trkpt>
      <trkpt lat="59.4671659" lon="17.8093912">
        <ele>25</ele>
        <time>2012-03-18T13:35:47Z</time>
      </trkpt>
      <trkpt lat="59.4668208" lon="17.8096674">
        <ele>25.6</ele>
        <time>2012-03-18T13:35:53Z</time>
      </trkpt>
      <trkpt lat="59.4665209" lon="17.8100731">
        <ele>25.4</ele>
        <time>2012-03-18T13:35:59Z</time>
      </trkpt>
      <trkpt lat="59.4662512" lon="17.8106075">
        <ele>27.4</ele>
        <time>2012-03-18T13:36:06Z</time>
      </trkpt>
      <trkpt lat="59.4660348" lon="17.8111863">
        <ele>30.2</ele>
        <time>2012-03-18T13:36:13Z</time>
      </trkpt>
      <trkpt lat="59.4658162" lon="17.8117795">
        <ele>30.4</ele>
        <time>2012-03-18T13:36:20Z</time>
      </trkpt>
      <trkpt lat="59.4656539" lon="17.8122072">
        <ele>31.2</ele>
        <time>2012-03-18T13:36:25Z</time>
      </trkpt>
      <trkpt lat="59.4656" lon="17.8123747">
        <ele>30.8</ele>
        <time>2012-03-18T13:36:27Z</time>
      </trkpt>
      <trkpt lat="59.4654766" lon="17.8127081">
        <ele>31.8</ele>
        <time>2012-03-18T13:36:31Z</time>
      </trkpt>
      <trkpt lat="59.4652639" lon="17.8127569">
        <ele>33.4</ele>
        <time>2012-03-18T13:36:34Z</time>
      </trkpt>
      <trkpt lat="59.4649639" lon="17.8122347">
        <ele>33.4</ele>
        <time>2012-03-18T13:36:39Z</time>
      </trkpt>
      <trkpt lat="59.464911" lon="17.812081">
        <ele>33</ele>
        <time>2012-03-18T13:36:40Z</time>
      </trkpt>
      <trkpt lat="59.4647665" lon="17.8115894">
        <ele>31.6</ele>
        <time>2012-03-18T13:36:43Z</time>
      </trkpt>
      <trkpt lat="59.4645971" lon="17.8109022">
        <ele>30.6</ele>
        <time>2012-03-18T13:36:47Z</time>
      </trkpt>
      <trkpt lat="59.4644243" lon="17.8102044">
        <ele>29</ele>
        <time>2012-03-18T13:36:51Z</time>
      </trkpt>
      <trkpt lat="59.4643262" lon="17.809669">
        <ele>27.8</ele>
        <time>2012-03-18T13:36:54Z</time>
      </trkpt>
      <trkpt lat="59.464309" lon="17.8094882">
        <ele>27.6</ele>
        <time>2012-03-18T13:36:55Z</time>
      </trkpt>
      <trkpt lat="59.46431" lon="17.8086453">
        <ele>25.6</ele>
        <time>2012-03-18T13:37:00Z</time>
      </trkpt>
      <trkpt lat="59.4643376" lon="17.8081734">
        <ele>28.2</ele>
        <time>2012-03-18T13:37:03Z</time>
      </trkpt>
      <trkpt lat="59.4643216" lon="17.8078673">
        <ele>28</ele>
        <time>2012-03-18T13:37:05Z</time>
      </trkpt>
      <trkpt lat="59.4642808" lon="17.8075804">
        <ele>27.8</ele>
        <time>2012-03-18T13:37:07Z</time>
      </trkpt>
      <trkpt lat="59.4642556" lon="17.8074458">
        <ele>28</ele>
        <time>2012-03-18T13:37:08Z</time>
      </trkpt>
      <trkpt lat="59.464186" lon="17.8072011">
        <ele>28.6</ele>
        <time>2012-03-18T13:37:10Z</time>
      </trkpt>
      <trkpt lat="59.463933" lon="17.8067086">
        <ele>30.2</ele>
        <time>2012-03-18T13:37:15Z</time>
      </trkpt>
      <trkpt lat="59.4635585" lon="17.806419">
        <ele>29.6</ele>
        <time>2012-03-18T13:37:20Z</time>
      </trkpt>
      <trkpt lat="59.4634756" lon="17.8063895">
        <ele>29.2</ele>
        <time>2012-03-18T13:37:21Z</time>
      </trkpt>
      <trkpt lat="59.4631552" lon="17.8063439">
        <ele>28.6</ele>
        <time>2012-03-18T13:37:25Z</time>
      </trkpt>
      <trkpt lat="59.4627763" lon="17.8064157">
        <ele>28.6</ele>
        <time>2012-03-18T13:37:30Z</time>
      </trkpt>
      <trkpt lat="59.4623852" lon="17.8065552">
        <ele>26.2</ele>
        <time>2012-03-18T13:37:35Z</time>
      </trkpt>
      <trkpt lat="59.4619919" lon="17.8066122">
        <ele>25.2</ele>
        <time>2012-03-18T13:37:40Z</time>
      </trkpt>
      <trkpt lat="59.4616392" lon="17.8066309">
        <ele>25.4</ele>
        <time>2012-03-18T13:37:45Z</time>
      </trkpt>
      <trkpt lat="59.4612756" lon="17.8066674">
        <ele>25.2</ele>
        <time>2012-03-18T13:37:50Z</time>
      </trkpt>
      <trkpt lat="59.4609171" lon="17.8066755">
        <ele>24.4</ele>
        <time>2012-03-18T13:37:55Z</time>
      </trkpt>
      <trkpt lat="59.4605552" lon="17.8066661">
        <ele>27</ele>
        <time>2012-03-18T13:38:00Z</time>
      </trkpt>
      <trkpt lat="59.4601289" lon="17.8066163">
        <ele>26.6</ele>
        <time>2012-03-18T13:38:05Z</time>
      </trkpt>
      <trkpt lat="59.4597507" lon="17.806563">
        <ele>24.4</ele>
        <time>2012-03-18T13:38:10Z</time>
      </trkpt>
      <trkpt lat="59.4593841" lon="17.8065091">
        <ele>24</ele>
        <time>2012-03-18T13:38:15Z</time>
      </trkpt>
      <trkpt lat="59.4590206" lon="17.806397">
        <ele>27.2</ele>
        <time>2012-03-18T13:38:20Z</time>
      </trkpt>
      <trkpt lat="59.4586328" lon="17.8063147">
        <ele>23.2</ele>
        <time>2012-03-18T13:38:25Z</time>
      </trkpt>
      <trkpt lat="59.4582205" lon="17.8061927">
        <ele>20.2</ele>
        <time>2012-03-18T13:38:30Z</time>
      </trkpt>
      <trkpt lat="59.4578071" lon="17.8060365">
        <ele>17.4</ele>
        <time>2012-03-18T13:38:35Z</time>
      </trkpt>
      <trkpt lat="59.4574346" lon="17.8058611">
        <ele>15.8</ele>
        <time>2012-03-18T13:38:40Z</time>
      </trkpt>
    </trkseg>
  </trk>
</gpx>